<?xml version="1.0" encoding="UTF-8" standalone="no" ?>
<gpx xmlns="http://www.topografix.com/GPX/1/1" xmlns:xsi="http://www.w3.org/2001/XMLSchema-instance" xsi:schemaLocation="http://www.topografix.com/GPX/1/1 http://www.topografix.com/GPX/1/1/gpx.xsd" version="1.1" creator="VisuGPX - https://www.visugpx.com">
  <metadata>
    <name>au pied des dentelles</name>
    <desc><![CDATA[sortie autour du ventoux]]></desc>
  </metadata>
  <trk>
    <name><![CDATA[au pied des dentelles_1]]></name>
    <trkseg>
      <trkpt lat="44.08263" lon="5.03866">
        <ele>96</ele>
        <time>2011-08-15T12:43:57Z</time>
      </trkpt>
      <trkpt lat="44.08263" lon="5.03866">
        <ele>157</ele>
        <time>2011-08-15T12:44:08Z</time>
      </trkpt>
      <trkpt lat="44.08258" lon="5.03856">
        <ele>155</ele>
        <time>2011-08-15T12:44:16Z</time>
      </trkpt>
      <trkpt lat="44.08253" lon="5.03842">
        <ele>156</ele>
        <time>2011-08-15T12:44:18Z</time>
      </trkpt>
      <trkpt lat="44.08234" lon="5.03777">
        <ele>154</ele>
        <time>2011-08-15T12:44:24Z</time>
      </trkpt>
      <trkpt lat="44.08223" lon="5.03743">
        <ele>155</ele>
        <time>2011-08-15T12:44:28Z</time>
      </trkpt>
      <trkpt lat="44.08224" lon="5.03704">
        <ele>155</ele>
        <time>2011-08-15T12:44:32Z</time>
      </trkpt>
      <trkpt lat="44.08228" lon="5.03686">
        <ele>155</ele>
        <time>2011-08-15T12:44:34Z</time>
      </trkpt>
      <trkpt lat="44.08239" lon="5.03637">
        <ele>155</ele>
        <time>2011-08-15T12:44:40Z</time>
      </trkpt>
      <trkpt lat="44.08243" lon="5.03621">
        <ele>155</ele>
        <time>2011-08-15T12:44:42Z</time>
      </trkpt>
      <trkpt lat="44.08243" lon="5.03621">
        <ele>90.1</ele>
        <time>2011-08-15T12:44:54Z</time>
      </trkpt>
      <trkpt lat="44.08243" lon="5.03621">
        <ele>90.1</ele>
        <time>2011-08-15T12:45:18Z</time>
      </trkpt>
      <trkpt lat="44.08548" lon="5.03375">
        <ele>152</ele>
        <time>2011-08-15T12:45:21Z</time>
      </trkpt>
      <trkpt lat="44.08576" lon="5.03348">
        <ele>151</ele>
        <time>2011-08-15T12:45:25Z</time>
      </trkpt>
      <trkpt lat="44.08611" lon="5.03335">
        <ele>151</ele>
        <time>2011-08-15T12:45:29Z</time>
      </trkpt>
      <trkpt lat="44.0864" lon="5.03321">
        <ele>151</ele>
        <time>2011-08-15T12:45:33Z</time>
      </trkpt>
      <trkpt lat="44.08665" lon="5.03302">
        <ele>150</ele>
        <time>2011-08-15T12:45:37Z</time>
      </trkpt>
      <trkpt lat="44.08681" lon="5.0329">
        <ele>150</ele>
        <time>2011-08-15T12:45:40Z</time>
      </trkpt>
      <trkpt lat="44.087" lon="5.0327">
        <ele>149</ele>
        <time>2011-08-15T12:45:44Z</time>
      </trkpt>
      <trkpt lat="44.08721" lon="5.03251">
        <ele>149</ele>
        <time>2011-08-15T12:45:48Z</time>
      </trkpt>
      <trkpt lat="44.08749" lon="5.03228">
        <ele>148</ele>
        <time>2011-08-15T12:45:53Z</time>
      </trkpt>
      <trkpt lat="44.08775" lon="5.03217">
        <ele>146</ele>
        <time>2011-08-15T12:45:57Z</time>
      </trkpt>
      <trkpt lat="44.08799" lon="5.03203">
        <ele>146</ele>
        <time>2011-08-15T12:46:01Z</time>
      </trkpt>
      <trkpt lat="44.08805" lon="5.03199">
        <ele>146</ele>
        <time>2011-08-15T12:46:02Z</time>
      </trkpt>
      <trkpt lat="44.08805" lon="5.03199">
        <ele>67</ele>
        <time>2011-08-15T12:46:14Z</time>
      </trkpt>
      <trkpt lat="44.08805" lon="5.03199">
        <ele>67</ele>
        <time>2011-08-15T12:46:36Z</time>
      </trkpt>
      <trkpt lat="44.08999" lon="5.03139">
        <ele>125</ele>
        <time>2011-08-15T12:46:39Z</time>
      </trkpt>
      <trkpt lat="44.09011" lon="5.0312">
        <ele>126</ele>
        <time>2011-08-15T12:46:43Z</time>
      </trkpt>
      <trkpt lat="44.09037" lon="5.03099">
        <ele>126</ele>
        <time>2011-08-15T12:46:48Z</time>
      </trkpt>
      <trkpt lat="44.09059" lon="5.03082">
        <ele>125</ele>
        <time>2011-08-15T12:46:52Z</time>
      </trkpt>
      <trkpt lat="44.09065" lon="5.03077">
        <ele>125</ele>
        <time>2011-08-15T12:46:53Z</time>
      </trkpt>
      <trkpt lat="44.09093" lon="5.0305">
        <ele>124</ele>
        <time>2011-08-15T12:46:59Z</time>
      </trkpt>
      <trkpt lat="44.09131" lon="5.03012">
        <ele>124</ele>
        <time>2011-08-15T12:47:07Z</time>
      </trkpt>
      <trkpt lat="44.09149" lon="5.02992">
        <ele>123</ele>
        <time>2011-08-15T12:47:11Z</time>
      </trkpt>
      <trkpt lat="44.09177" lon="5.0297">
        <ele>123</ele>
        <time>2011-08-15T12:47:16Z</time>
      </trkpt>
      <trkpt lat="44.09204" lon="5.02954">
        <ele>122</ele>
        <time>2011-08-15T12:47:20Z</time>
      </trkpt>
      <trkpt lat="44.09222" lon="5.0294">
        <ele>122</ele>
        <time>2011-08-15T12:47:23Z</time>
      </trkpt>
      <trkpt lat="44.09238" lon="5.02927">
        <ele>122</ele>
        <time>2011-08-15T12:47:26Z</time>
      </trkpt>
      <trkpt lat="44.09264" lon="5.02904">
        <ele>121</ele>
        <time>2011-08-15T12:47:31Z</time>
      </trkpt>
      <trkpt lat="44.09291" lon="5.0288">
        <ele>121</ele>
        <time>2011-08-15T12:47:36Z</time>
      </trkpt>
      <trkpt lat="44.09313" lon="5.02861">
        <ele>121</ele>
        <time>2011-08-15T12:47:40Z</time>
      </trkpt>
      <trkpt lat="44.09336" lon="5.02845">
        <ele>120</ele>
        <time>2011-08-15T12:47:44Z</time>
      </trkpt>
      <trkpt lat="44.09359" lon="5.02828">
        <ele>120</ele>
        <time>2011-08-15T12:47:48Z</time>
      </trkpt>
      <trkpt lat="44.09371" lon="5.02819">
        <ele>120</ele>
        <time>2011-08-15T12:47:50Z</time>
      </trkpt>
      <trkpt lat="44.09404" lon="5.02791">
        <ele>120</ele>
        <time>2011-08-15T12:47:56Z</time>
      </trkpt>
      <trkpt lat="44.09427" lon="5.02772">
        <ele>119</ele>
        <time>2011-08-15T12:48:00Z</time>
      </trkpt>
      <trkpt lat="44.09449" lon="5.02754">
        <ele>119</ele>
        <time>2011-08-15T12:48:04Z</time>
      </trkpt>
      <trkpt lat="44.09471" lon="5.02737">
        <ele>119</ele>
        <time>2011-08-15T12:48:08Z</time>
      </trkpt>
      <trkpt lat="44.09494" lon="5.02719">
        <ele>118</ele>
        <time>2011-08-15T12:48:12Z</time>
      </trkpt>
      <trkpt lat="44.09511" lon="5.02706">
        <ele>118</ele>
        <time>2011-08-15T12:48:15Z</time>
      </trkpt>
      <trkpt lat="44.09529" lon="5.02692">
        <ele>118</ele>
        <time>2011-08-15T12:48:18Z</time>
      </trkpt>
      <trkpt lat="44.09561" lon="5.02663">
        <ele>118</ele>
        <time>2011-08-15T12:48:24Z</time>
      </trkpt>
      <trkpt lat="44.09578" lon="5.02653">
        <ele>118</ele>
        <time>2011-08-15T12:48:27Z</time>
      </trkpt>
      <trkpt lat="44.09578" lon="5.02653">
        <ele>60.5</ele>
        <time>2011-08-15T12:48:39Z</time>
      </trkpt>
      <trkpt lat="44.09578" lon="5.02653">
        <ele>60.5</ele>
        <time>2011-08-15T12:48:55Z</time>
      </trkpt>
      <trkpt lat="44.09738" lon="5.02548">
        <ele>112</ele>
        <time>2011-08-15T12:48:56Z</time>
      </trkpt>
      <trkpt lat="44.09755" lon="5.02532">
        <ele>110</ele>
        <time>2011-08-15T12:49:00Z</time>
      </trkpt>
      <trkpt lat="44.09772" lon="5.02511">
        <ele>112</ele>
        <time>2011-08-15T12:49:04Z</time>
      </trkpt>
      <trkpt lat="44.09789" lon="5.02495">
        <ele>115</ele>
        <time>2011-08-15T12:49:08Z</time>
      </trkpt>
      <trkpt lat="44.09818" lon="5.02502">
        <ele>115</ele>
        <time>2011-08-15T12:49:13Z</time>
      </trkpt>
      <trkpt lat="44.09833" lon="5.02518">
        <ele>115</ele>
        <time>2011-08-15T12:49:17Z</time>
      </trkpt>
      <trkpt lat="44.09865" lon="5.02546">
        <ele>114</ele>
        <time>2011-08-15T12:49:25Z</time>
      </trkpt>
      <trkpt lat="44.09882" lon="5.02551">
        <ele>115</ele>
        <time>2011-08-15T12:49:29Z</time>
      </trkpt>
      <trkpt lat="44.09897" lon="5.02554">
        <ele>116</ele>
        <time>2011-08-15T12:49:33Z</time>
      </trkpt>
      <trkpt lat="44.09912" lon="5.02556">
        <ele>117</ele>
        <time>2011-08-15T12:49:37Z</time>
      </trkpt>
      <trkpt lat="44.09925" lon="5.02559">
        <ele>117</ele>
        <time>2011-08-15T12:49:41Z</time>
      </trkpt>
      <trkpt lat="44.09939" lon="5.02559">
        <ele>117</ele>
        <time>2011-08-15T12:49:45Z</time>
      </trkpt>
      <trkpt lat="44.09953" lon="5.02554">
        <ele>117</ele>
        <time>2011-08-15T12:49:49Z</time>
      </trkpt>
      <trkpt lat="44.09965" lon="5.02547">
        <ele>117</ele>
        <time>2011-08-15T12:49:53Z</time>
      </trkpt>
      <trkpt lat="44.09973" lon="5.02543">
        <ele>118</ele>
        <time>2011-08-15T12:49:56Z</time>
      </trkpt>
      <trkpt lat="44.09987" lon="5.02537">
        <ele>118</ele>
        <time>2011-08-15T12:50:00Z</time>
      </trkpt>
      <trkpt lat="44.09999" lon="5.02529">
        <ele>118</ele>
        <time>2011-08-15T12:50:04Z</time>
      </trkpt>
      <trkpt lat="44.10013" lon="5.02521">
        <ele>118</ele>
        <time>2011-08-15T12:50:08Z</time>
      </trkpt>
      <trkpt lat="44.10026" lon="5.02513">
        <ele>119</ele>
        <time>2011-08-15T12:50:12Z</time>
      </trkpt>
      <trkpt lat="44.1004" lon="5.02504">
        <ele>119</ele>
        <time>2011-08-15T12:50:16Z</time>
      </trkpt>
      <trkpt lat="44.10055" lon="5.02494">
        <ele>119</ele>
        <time>2011-08-15T12:50:20Z</time>
      </trkpt>
      <trkpt lat="44.10069" lon="5.02482">
        <ele>120</ele>
        <time>2011-08-15T12:50:24Z</time>
      </trkpt>
      <trkpt lat="44.10081" lon="5.02471">
        <ele>120</ele>
        <time>2011-08-15T12:50:28Z</time>
      </trkpt>
      <trkpt lat="44.10094" lon="5.02461">
        <ele>120</ele>
        <time>2011-08-15T12:50:32Z</time>
      </trkpt>
      <trkpt lat="44.10131" lon="5.02463">
        <ele>121</ele>
        <time>2011-08-15T12:50:40Z</time>
      </trkpt>
      <trkpt lat="44.10146" lon="5.02462">
        <ele>121</ele>
        <time>2011-08-15T12:50:44Z</time>
      </trkpt>
      <trkpt lat="44.1016" lon="5.02463">
        <ele>121</ele>
        <time>2011-08-15T12:50:48Z</time>
      </trkpt>
      <trkpt lat="44.10173" lon="5.02464">
        <ele>121</ele>
        <time>2011-08-15T12:50:52Z</time>
      </trkpt>
      <trkpt lat="44.10187" lon="5.02467">
        <ele>122</ele>
        <time>2011-08-15T12:50:56Z</time>
      </trkpt>
      <trkpt lat="44.102" lon="5.02469">
        <ele>122</ele>
        <time>2011-08-15T12:51:00Z</time>
      </trkpt>
      <trkpt lat="44.10214" lon="5.02473">
        <ele>122</ele>
        <time>2011-08-15T12:51:04Z</time>
      </trkpt>
      <trkpt lat="44.10227" lon="5.02477">
        <ele>122</ele>
        <time>2011-08-15T12:51:08Z</time>
      </trkpt>
      <trkpt lat="44.1024" lon="5.0248">
        <ele>122</ele>
        <time>2011-08-15T12:51:12Z</time>
      </trkpt>
      <trkpt lat="44.10253" lon="5.02483">
        <ele>122</ele>
        <time>2011-08-15T12:51:16Z</time>
      </trkpt>
      <trkpt lat="44.10266" lon="5.02489">
        <ele>122</ele>
        <time>2011-08-15T12:51:20Z</time>
      </trkpt>
      <trkpt lat="44.1028" lon="5.02493">
        <ele>122</ele>
        <time>2011-08-15T12:51:24Z</time>
      </trkpt>
      <trkpt lat="44.10293" lon="5.02497">
        <ele>123</ele>
        <time>2011-08-15T12:51:28Z</time>
      </trkpt>
      <trkpt lat="44.10302" lon="5.02499">
        <ele>123</ele>
        <time>2011-08-15T12:51:31Z</time>
      </trkpt>
      <trkpt lat="44.1032" lon="5.02503">
        <ele>123</ele>
        <time>2011-08-15T12:51:37Z</time>
      </trkpt>
      <trkpt lat="44.10329" lon="5.02505">
        <ele>123</ele>
        <time>2011-08-15T12:51:40Z</time>
      </trkpt>
      <trkpt lat="44.10338" lon="5.02507">
        <ele>123</ele>
        <time>2011-08-15T12:51:43Z</time>
      </trkpt>
      <trkpt lat="44.10354" lon="5.02509">
        <ele>124</ele>
        <time>2011-08-15T12:51:48Z</time>
      </trkpt>
      <trkpt lat="44.1037" lon="5.02512">
        <ele>124</ele>
        <time>2011-08-15T12:51:53Z</time>
      </trkpt>
      <trkpt lat="44.10379" lon="5.02512">
        <ele>124</ele>
        <time>2011-08-15T12:51:56Z</time>
      </trkpt>
      <trkpt lat="44.10388" lon="5.02512">
        <ele>125</ele>
        <time>2011-08-15T12:51:59Z</time>
      </trkpt>
      <trkpt lat="44.10404" lon="5.02514">
        <ele>125</ele>
        <time>2011-08-15T12:52:04Z</time>
      </trkpt>
      <trkpt lat="44.10419" lon="5.02516">
        <ele>125</ele>
        <time>2011-08-15T12:52:09Z</time>
      </trkpt>
      <trkpt lat="44.10428" lon="5.02517">
        <ele>126</ele>
        <time>2011-08-15T12:52:12Z</time>
      </trkpt>
      <trkpt lat="44.10441" lon="5.02516">
        <ele>126</ele>
        <time>2011-08-15T12:52:16Z</time>
      </trkpt>
      <trkpt lat="44.10455" lon="5.02517">
        <ele>126</ele>
        <time>2011-08-15T12:52:20Z</time>
      </trkpt>
      <trkpt lat="44.10467" lon="5.02518">
        <ele>126</ele>
        <time>2011-08-15T12:52:24Z</time>
      </trkpt>
      <trkpt lat="44.1048" lon="5.0252">
        <ele>127</ele>
        <time>2011-08-15T12:52:28Z</time>
      </trkpt>
      <trkpt lat="44.10493" lon="5.02521">
        <ele>127</ele>
        <time>2011-08-15T12:52:32Z</time>
      </trkpt>
      <trkpt lat="44.10499" lon="5.02522">
        <ele>127</ele>
        <time>2011-08-15T12:52:34Z</time>
      </trkpt>
      <trkpt lat="44.10531" lon="5.02527">
        <ele>128</ele>
        <time>2011-08-15T12:52:44Z</time>
      </trkpt>
      <trkpt lat="44.10545" lon="5.02526">
        <ele>128</ele>
        <time>2011-08-15T12:52:48Z</time>
      </trkpt>
      <trkpt lat="44.10558" lon="5.02527">
        <ele>129</ele>
        <time>2011-08-15T12:52:52Z</time>
      </trkpt>
      <trkpt lat="44.10572" lon="5.02527">
        <ele>129</ele>
        <time>2011-08-15T12:52:56Z</time>
      </trkpt>
      <trkpt lat="44.10585" lon="5.02528">
        <ele>129</ele>
        <time>2011-08-15T12:53:00Z</time>
      </trkpt>
      <trkpt lat="44.10601" lon="5.02529">
        <ele>130</ele>
        <time>2011-08-15T12:53:05Z</time>
      </trkpt>
      <trkpt lat="44.10614" lon="5.0253">
        <ele>130</ele>
        <time>2011-08-15T12:53:09Z</time>
      </trkpt>
      <trkpt lat="44.10627" lon="5.0253">
        <ele>131</ele>
        <time>2011-08-15T12:53:13Z</time>
      </trkpt>
      <trkpt lat="44.10641" lon="5.02532">
        <ele>131</ele>
        <time>2011-08-15T12:53:17Z</time>
      </trkpt>
      <trkpt lat="44.10654" lon="5.02533">
        <ele>132</ele>
        <time>2011-08-15T12:53:21Z</time>
      </trkpt>
      <trkpt lat="44.10668" lon="5.02534">
        <ele>132</ele>
        <time>2011-08-15T12:53:25Z</time>
      </trkpt>
      <trkpt lat="44.10682" lon="5.02534">
        <ele>133</ele>
        <time>2011-08-15T12:53:29Z</time>
      </trkpt>
      <trkpt lat="44.10696" lon="5.02535">
        <ele>133</ele>
        <time>2011-08-15T12:53:33Z</time>
      </trkpt>
      <trkpt lat="44.10709" lon="5.02536">
        <ele>134</ele>
        <time>2011-08-15T12:53:37Z</time>
      </trkpt>
      <trkpt lat="44.10724" lon="5.02537">
        <ele>134</ele>
        <time>2011-08-15T12:53:41Z</time>
      </trkpt>
      <trkpt lat="44.10737" lon="5.02537">
        <ele>134</ele>
        <time>2011-08-15T12:53:45Z</time>
      </trkpt>
      <trkpt lat="44.10751" lon="5.02537">
        <ele>135</ele>
        <time>2011-08-15T12:53:49Z</time>
      </trkpt>
      <trkpt lat="44.10766" lon="5.02539">
        <ele>135</ele>
        <time>2011-08-15T12:53:53Z</time>
      </trkpt>
      <trkpt lat="44.10781" lon="5.0254">
        <ele>135</ele>
        <time>2011-08-15T12:53:57Z</time>
      </trkpt>
      <trkpt lat="44.10797" lon="5.02541">
        <ele>136</ele>
        <time>2011-08-15T12:54:01Z</time>
      </trkpt>
      <trkpt lat="44.10812" lon="5.02543">
        <ele>136</ele>
        <time>2011-08-15T12:54:05Z</time>
      </trkpt>
      <trkpt lat="44.10827" lon="5.02543">
        <ele>136</ele>
        <time>2011-08-15T12:54:09Z</time>
      </trkpt>
      <trkpt lat="44.10841" lon="5.02543">
        <ele>137</ele>
        <time>2011-08-15T12:54:13Z</time>
      </trkpt>
      <trkpt lat="44.10856" lon="5.02544">
        <ele>137</ele>
        <time>2011-08-15T12:54:17Z</time>
      </trkpt>
      <trkpt lat="44.10863" lon="5.02544">
        <ele>137</ele>
        <time>2011-08-15T12:54:19Z</time>
      </trkpt>
      <trkpt lat="44.10897" lon="5.02549">
        <ele>138</ele>
        <time>2011-08-15T12:54:29Z</time>
      </trkpt>
      <trkpt lat="44.10911" lon="5.02551">
        <ele>138</ele>
        <time>2011-08-15T12:54:33Z</time>
      </trkpt>
      <trkpt lat="44.10919" lon="5.02553">
        <ele>139</ele>
        <time>2011-08-15T12:54:36Z</time>
      </trkpt>
      <trkpt lat="44.10933" lon="5.02558">
        <ele>139</ele>
        <time>2011-08-15T12:54:40Z</time>
      </trkpt>
      <trkpt lat="44.10947" lon="5.02562">
        <ele>139</ele>
        <time>2011-08-15T12:54:44Z</time>
      </trkpt>
      <trkpt lat="44.10976" lon="5.02569">
        <ele>140</ele>
        <time>2011-08-15T12:54:52Z</time>
      </trkpt>
      <trkpt lat="44.10991" lon="5.02574">
        <ele>140</ele>
        <time>2011-08-15T12:54:56Z</time>
      </trkpt>
      <trkpt lat="44.11005" lon="5.02578">
        <ele>141</ele>
        <time>2011-08-15T12:55:00Z</time>
      </trkpt>
      <trkpt lat="44.11019" lon="5.02583">
        <ele>141</ele>
        <time>2011-08-15T12:55:04Z</time>
      </trkpt>
      <trkpt lat="44.11033" lon="5.02586">
        <ele>142</ele>
        <time>2011-08-15T12:55:08Z</time>
      </trkpt>
      <trkpt lat="44.11047" lon="5.02589">
        <ele>142</ele>
        <time>2011-08-15T12:55:12Z</time>
      </trkpt>
      <trkpt lat="44.1106" lon="5.02594">
        <ele>142</ele>
        <time>2011-08-15T12:55:16Z</time>
      </trkpt>
      <trkpt lat="44.11075" lon="5.02597">
        <ele>142</ele>
        <time>2011-08-15T12:55:20Z</time>
      </trkpt>
      <trkpt lat="44.11089" lon="5.02597">
        <ele>142</ele>
        <time>2011-08-15T12:55:24Z</time>
      </trkpt>
      <trkpt lat="44.11112" lon="5.026">
        <ele>143</ele>
        <time>2011-08-15T12:55:29Z</time>
      </trkpt>
      <trkpt lat="44.1113" lon="5.02601">
        <ele>143</ele>
        <time>2011-08-15T12:55:33Z</time>
      </trkpt>
      <trkpt lat="44.11149" lon="5.026">
        <ele>144</ele>
        <time>2011-08-15T12:55:37Z</time>
      </trkpt>
      <trkpt lat="44.11179" lon="5.02595">
        <ele>144</ele>
        <time>2011-08-15T12:55:43Z</time>
      </trkpt>
      <trkpt lat="44.11229" lon="5.02572">
        <ele>146</ele>
        <time>2011-08-15T12:55:53Z</time>
      </trkpt>
      <trkpt lat="44.11252" lon="5.02559">
        <ele>146</ele>
        <time>2011-08-15T12:55:57Z</time>
      </trkpt>
      <trkpt lat="44.11276" lon="5.02546">
        <ele>146</ele>
        <time>2011-08-15T12:56:01Z</time>
      </trkpt>
      <trkpt lat="44.11304" lon="5.02533">
        <ele>146</ele>
        <time>2011-08-15T12:56:05Z</time>
      </trkpt>
      <trkpt lat="44.11336" lon="5.02526">
        <ele>146</ele>
        <time>2011-08-15T12:56:09Z</time>
      </trkpt>
      <trkpt lat="44.11371" lon="5.02527">
        <ele>147</ele>
        <time>2011-08-15T12:56:13Z</time>
      </trkpt>
      <trkpt lat="44.1141" lon="5.02538">
        <ele>147</ele>
        <time>2011-08-15T12:56:17Z</time>
      </trkpt>
      <trkpt lat="44.11446" lon="5.0256">
        <ele>148</ele>
        <time>2011-08-15T12:56:21Z</time>
      </trkpt>
      <trkpt lat="44.11483" lon="5.02589">
        <ele>149</ele>
        <time>2011-08-15T12:56:25Z</time>
      </trkpt>
      <trkpt lat="44.1152" lon="5.02616">
        <ele>149</ele>
        <time>2011-08-15T12:56:29Z</time>
      </trkpt>
      <trkpt lat="44.11555" lon="5.02636">
        <ele>149</ele>
        <time>2011-08-15T12:56:33Z</time>
      </trkpt>
      <trkpt lat="44.11587" lon="5.02649">
        <ele>149</ele>
        <time>2011-08-15T12:56:37Z</time>
      </trkpt>
      <trkpt lat="44.11617" lon="5.02663">
        <ele>148</ele>
        <time>2011-08-15T12:56:41Z</time>
      </trkpt>
      <trkpt lat="44.11645" lon="5.02676">
        <ele>148</ele>
        <time>2011-08-15T12:56:45Z</time>
      </trkpt>
      <trkpt lat="44.11672" lon="5.02689">
        <ele>148</ele>
        <time>2011-08-15T12:56:49Z</time>
      </trkpt>
      <trkpt lat="44.11696" lon="5.02698">
        <ele>148</ele>
        <time>2011-08-15T12:56:53Z</time>
      </trkpt>
      <trkpt lat="44.11718" lon="5.02705">
        <ele>149</ele>
        <time>2011-08-15T12:56:57Z</time>
      </trkpt>
      <trkpt lat="44.11739" lon="5.02712">
        <ele>150</ele>
        <time>2011-08-15T12:57:01Z</time>
      </trkpt>
      <trkpt lat="44.11757" lon="5.02723">
        <ele>151</ele>
        <time>2011-08-15T12:57:05Z</time>
      </trkpt>
      <trkpt lat="44.11772" lon="5.02735">
        <ele>152</ele>
        <time>2011-08-15T12:57:09Z</time>
      </trkpt>
      <trkpt lat="44.11796" lon="5.02771">
        <ele>149</ele>
        <time>2011-08-15T12:57:17Z</time>
      </trkpt>
      <trkpt lat="44.11802" lon="5.02776">
        <ele>149</ele>
        <time>2011-08-15T12:57:19Z</time>
      </trkpt>
      <trkpt lat="44.11816" lon="5.02793">
        <ele>149</ele>
        <time>2011-08-15T12:57:25Z</time>
      </trkpt>
      <trkpt lat="44.1182" lon="5.028">
        <ele>149</ele>
        <time>2011-08-15T12:57:32Z</time>
      </trkpt>
      <trkpt lat="44.1182" lon="5.028">
        <ele>85.6</ele>
        <time>2011-08-15T12:57:44Z</time>
      </trkpt>
      <trkpt lat="44.1182" lon="5.028">
        <ele>85.6</ele>
        <time>2011-08-15T12:57:53Z</time>
      </trkpt>
      <trkpt lat="44.11831" lon="5.02821">
        <ele>149</ele>
        <time>2011-08-15T12:57:55Z</time>
      </trkpt>
      <trkpt lat="44.11836" lon="5.02829">
        <ele>148</ele>
        <time>2011-08-15T12:57:57Z</time>
      </trkpt>
      <trkpt lat="44.11855" lon="5.02853">
        <ele>148</ele>
        <time>2011-08-15T12:58:03Z</time>
      </trkpt>
      <trkpt lat="44.11866" lon="5.0287">
        <ele>148</ele>
        <time>2011-08-15T12:58:07Z</time>
      </trkpt>
      <trkpt lat="44.11878" lon="5.02887">
        <ele>148</ele>
        <time>2011-08-15T12:58:11Z</time>
      </trkpt>
      <trkpt lat="44.1189" lon="5.029">
        <ele>148</ele>
        <time>2011-08-15T12:58:15Z</time>
      </trkpt>
      <trkpt lat="44.11902" lon="5.02913">
        <ele>148</ele>
        <time>2011-08-15T12:58:19Z</time>
      </trkpt>
      <trkpt lat="44.11914" lon="5.02926">
        <ele>148</ele>
        <time>2011-08-15T12:58:23Z</time>
      </trkpt>
      <trkpt lat="44.11927" lon="5.02939">
        <ele>149</ele>
        <time>2011-08-15T12:58:27Z</time>
      </trkpt>
      <trkpt lat="44.1194" lon="5.02953">
        <ele>149</ele>
        <time>2011-08-15T12:58:31Z</time>
      </trkpt>
      <trkpt lat="44.11955" lon="5.02963">
        <ele>149</ele>
        <time>2011-08-15T12:58:35Z</time>
      </trkpt>
      <trkpt lat="44.11969" lon="5.02973">
        <ele>150</ele>
        <time>2011-08-15T12:58:39Z</time>
      </trkpt>
      <trkpt lat="44.11984" lon="5.02983">
        <ele>151</ele>
        <time>2011-08-15T12:58:43Z</time>
      </trkpt>
      <trkpt lat="44.12" lon="5.02991">
        <ele>152</ele>
        <time>2011-08-15T12:58:47Z</time>
      </trkpt>
      <trkpt lat="44.12016" lon="5.03003">
        <ele>152</ele>
        <time>2011-08-15T12:58:51Z</time>
      </trkpt>
      <trkpt lat="44.12027" lon="5.03019">
        <ele>152</ele>
        <time>2011-08-15T12:58:55Z</time>
      </trkpt>
      <trkpt lat="44.12031" lon="5.03028">
        <ele>152</ele>
        <time>2011-08-15T12:58:58Z</time>
      </trkpt>
      <trkpt lat="44.1204" lon="5.03027">
        <ele>152</ele>
        <time>2011-08-15T12:59:02Z</time>
      </trkpt>
      <trkpt lat="44.12056" lon="5.03016">
        <ele>153</ele>
        <time>2011-08-15T12:59:07Z</time>
      </trkpt>
      <trkpt lat="44.12072" lon="5.03007">
        <ele>154</ele>
        <time>2011-08-15T12:59:11Z</time>
      </trkpt>
      <trkpt lat="44.12086" lon="5.03001">
        <ele>156</ele>
        <time>2011-08-15T12:59:15Z</time>
      </trkpt>
      <trkpt lat="44.12086" lon="5.03001">
        <ele>91</ele>
        <time>2011-08-15T12:59:27Z</time>
      </trkpt>
      <trkpt lat="44.12086" lon="5.03001">
        <ele>91</ele>
        <time>2011-08-15T12:59:49Z</time>
      </trkpt>
      <trkpt lat="44.12131" lon="5.02983">
        <ele>158</ele>
        <time>2011-08-15T12:59:53Z</time>
      </trkpt>
      <trkpt lat="44.1214" lon="5.02975">
        <ele>157</ele>
        <time>2011-08-15T12:59:55Z</time>
      </trkpt>
      <trkpt lat="44.12178" lon="5.02984">
        <ele>157</ele>
        <time>2011-08-15T13:00:05Z</time>
      </trkpt>
      <trkpt lat="44.12183" lon="5.03047">
        <ele>156</ele>
        <time>2011-08-15T13:00:14Z</time>
      </trkpt>
      <trkpt lat="44.12181" lon="5.03056">
        <ele>156</ele>
        <time>2011-08-15T13:00:15Z</time>
      </trkpt>
      <trkpt lat="44.12176" lon="5.03104">
        <ele>155</ele>
        <time>2011-08-15T13:00:21Z</time>
      </trkpt>
      <trkpt lat="44.12197" lon="5.03154">
        <ele>155</ele>
        <time>2011-08-15T13:00:29Z</time>
      </trkpt>
      <trkpt lat="44.12213" lon="5.03174">
        <ele>156</ele>
        <time>2011-08-15T13:00:33Z</time>
      </trkpt>
      <trkpt lat="44.12226" lon="5.03192">
        <ele>156</ele>
        <time>2011-08-15T13:00:37Z</time>
      </trkpt>
      <trkpt lat="44.12238" lon="5.03209">
        <ele>156</ele>
        <time>2011-08-15T13:00:41Z</time>
      </trkpt>
      <trkpt lat="44.1225" lon="5.03227">
        <ele>156</ele>
        <time>2011-08-15T13:00:45Z</time>
      </trkpt>
      <trkpt lat="44.12259" lon="5.03243">
        <ele>156</ele>
        <time>2011-08-15T13:00:49Z</time>
      </trkpt>
      <trkpt lat="44.12267" lon="5.0326">
        <ele>156</ele>
        <time>2011-08-15T13:00:53Z</time>
      </trkpt>
      <trkpt lat="44.12275" lon="5.03276">
        <ele>156</ele>
        <time>2011-08-15T13:00:57Z</time>
      </trkpt>
      <trkpt lat="44.12284" lon="5.03291">
        <ele>156</ele>
        <time>2011-08-15T13:01:01Z</time>
      </trkpt>
      <trkpt lat="44.12291" lon="5.03299">
        <ele>156</ele>
        <time>2011-08-15T13:01:04Z</time>
      </trkpt>
      <trkpt lat="44.12298" lon="5.03306">
        <ele>156</ele>
        <time>2011-08-15T13:01:07Z</time>
      </trkpt>
      <trkpt lat="44.12314" lon="5.03312">
        <ele>156</ele>
        <time>2011-08-15T13:01:13Z</time>
      </trkpt>
      <trkpt lat="44.1233" lon="5.03311">
        <ele>156</ele>
        <time>2011-08-15T13:01:18Z</time>
      </trkpt>
      <trkpt lat="44.1235" lon="5.03337">
        <ele>156</ele>
        <time>2011-08-15T13:01:29Z</time>
      </trkpt>
      <trkpt lat="44.12351" lon="5.03359">
        <ele>156</ele>
        <time>2011-08-15T13:01:34Z</time>
      </trkpt>
      <trkpt lat="44.12351" lon="5.03371">
        <ele>156</ele>
        <time>2011-08-15T13:01:37Z</time>
      </trkpt>
      <trkpt lat="44.12353" lon="5.03382">
        <ele>156</ele>
        <time>2011-08-15T13:01:40Z</time>
      </trkpt>
      <trkpt lat="44.12363" lon="5.0341">
        <ele>157</ele>
        <time>2011-08-15T13:01:49Z</time>
      </trkpt>
      <trkpt lat="44.12376" lon="5.03434">
        <ele>157</ele>
        <time>2011-08-15T13:01:56Z</time>
      </trkpt>
      <trkpt lat="44.12385" lon="5.03455">
        <ele>156</ele>
        <time>2011-08-15T13:02:02Z</time>
      </trkpt>
      <trkpt lat="44.12398" lon="5.03489">
        <ele>156</ele>
        <time>2011-08-15T13:02:10Z</time>
      </trkpt>
      <trkpt lat="44.12404" lon="5.03508">
        <ele>156</ele>
        <time>2011-08-15T13:02:14Z</time>
      </trkpt>
      <trkpt lat="44.12407" lon="5.03517">
        <ele>156</ele>
        <time>2011-08-15T13:02:16Z</time>
      </trkpt>
      <trkpt lat="44.12417" lon="5.03546">
        <ele>156</ele>
        <time>2011-08-15T13:02:22Z</time>
      </trkpt>
      <trkpt lat="44.12425" lon="5.03565">
        <ele>157</ele>
        <time>2011-08-15T13:02:26Z</time>
      </trkpt>
      <trkpt lat="44.12431" lon="5.03583">
        <ele>157</ele>
        <time>2011-08-15T13:02:30Z</time>
      </trkpt>
      <trkpt lat="44.12436" lon="5.03601">
        <ele>157</ele>
        <time>2011-08-15T13:02:34Z</time>
      </trkpt>
      <trkpt lat="44.1244" lon="5.0362">
        <ele>158</ele>
        <time>2011-08-15T13:02:38Z</time>
      </trkpt>
      <trkpt lat="44.12445" lon="5.03638">
        <ele>158</ele>
        <time>2011-08-15T13:02:42Z</time>
      </trkpt>
      <trkpt lat="44.12448" lon="5.03657">
        <ele>159</ele>
        <time>2011-08-15T13:02:46Z</time>
      </trkpt>
      <trkpt lat="44.12449" lon="5.03667">
        <ele>159</ele>
        <time>2011-08-15T13:02:48Z</time>
      </trkpt>
      <trkpt lat="44.12446" lon="5.03687">
        <ele>160</ele>
        <time>2011-08-15T13:02:52Z</time>
      </trkpt>
      <trkpt lat="44.12449" lon="5.03705">
        <ele>160</ele>
        <time>2011-08-15T13:02:56Z</time>
      </trkpt>
      <trkpt lat="44.12449" lon="5.03705">
        <ele>112.8</ele>
        <time>2011-08-15T13:03:08Z</time>
      </trkpt>
      <trkpt lat="44.12449" lon="5.03705">
        <ele>112.8</ele>
        <time>2011-08-15T13:03:29Z</time>
      </trkpt>
      <trkpt lat="44.12449" lon="5.03705">
        <ele>112.8</ele>
        <time>2011-08-15T13:03:41Z</time>
      </trkpt>
      <trkpt lat="44.12449" lon="5.03705">
        <ele>112.8</ele>
        <time>2011-08-15T13:04:17Z</time>
      </trkpt>
      <trkpt lat="44.12672" lon="5.03959">
        <ele>162</ele>
        <time>2011-08-15T13:04:21Z</time>
      </trkpt>
      <trkpt lat="44.12688" lon="5.03977">
        <ele>162</ele>
        <time>2011-08-15T13:04:25Z</time>
      </trkpt>
      <trkpt lat="44.12703" lon="5.03997">
        <ele>162</ele>
        <time>2011-08-15T13:04:29Z</time>
      </trkpt>
      <trkpt lat="44.12721" lon="5.04011">
        <ele>163</ele>
        <time>2011-08-15T13:04:33Z</time>
      </trkpt>
      <trkpt lat="44.12739" lon="5.04019">
        <ele>163</ele>
        <time>2011-08-15T13:04:37Z</time>
      </trkpt>
      <trkpt lat="44.12757" lon="5.04026">
        <ele>163</ele>
        <time>2011-08-15T13:04:41Z</time>
      </trkpt>
      <trkpt lat="44.12773" lon="5.04034">
        <ele>163</ele>
        <time>2011-08-15T13:04:45Z</time>
      </trkpt>
      <trkpt lat="44.1279" lon="5.04042">
        <ele>162</ele>
        <time>2011-08-15T13:04:49Z</time>
      </trkpt>
      <trkpt lat="44.12808" lon="5.04062">
        <ele>163</ele>
        <time>2011-08-15T13:04:53Z</time>
      </trkpt>
      <trkpt lat="44.12821" lon="5.04079">
        <ele>164</ele>
        <time>2011-08-15T13:04:56Z</time>
      </trkpt>
      <trkpt lat="44.12837" lon="5.04104">
        <ele>164</ele>
        <time>2011-08-15T13:05:00Z</time>
      </trkpt>
      <trkpt lat="44.12844" lon="5.04134">
        <ele>162</ele>
        <time>2011-08-15T13:05:04Z</time>
      </trkpt>
      <trkpt lat="44.12899" lon="5.0412">
        <ele>160</ele>
        <time>2011-08-15T13:05:09Z</time>
      </trkpt>
      <trkpt lat="44.12929" lon="5.04106">
        <ele>160</ele>
        <time>2011-08-15T13:05:13Z</time>
      </trkpt>
      <trkpt lat="44.12936" lon="5.04123">
        <ele>159</ele>
        <time>2011-08-15T13:05:17Z</time>
      </trkpt>
      <trkpt lat="44.12947" lon="5.04139">
        <ele>158</ele>
        <time>2011-08-15T13:05:21Z</time>
      </trkpt>
      <trkpt lat="44.12959" lon="5.0415">
        <ele>158</ele>
        <time>2011-08-15T13:05:25Z</time>
      </trkpt>
      <trkpt lat="44.12966" lon="5.04155">
        <ele>158</ele>
        <time>2011-08-15T13:05:27Z</time>
      </trkpt>
      <trkpt lat="44.1299" lon="5.04169">
        <ele>160</ele>
        <time>2011-08-15T13:05:33Z</time>
      </trkpt>
      <trkpt lat="44.12998" lon="5.04173">
        <ele>160</ele>
        <time>2011-08-15T13:05:35Z</time>
      </trkpt>
      <trkpt lat="44.13013" lon="5.0417">
        <ele>162</ele>
        <time>2011-08-15T13:05:39Z</time>
      </trkpt>
      <trkpt lat="44.13051" lon="5.04149">
        <ele>165</ele>
        <time>2011-08-15T13:05:49Z</time>
      </trkpt>
      <trkpt lat="44.13068" lon="5.04142">
        <ele>165</ele>
        <time>2011-08-15T13:05:53Z</time>
      </trkpt>
      <trkpt lat="44.13085" lon="5.04136">
        <ele>165</ele>
        <time>2011-08-15T13:05:57Z</time>
      </trkpt>
      <trkpt lat="44.13085" lon="5.04136">
        <ele>133.8</ele>
        <time>2011-08-15T13:06:08Z</time>
      </trkpt>
      <trkpt lat="44.13085" lon="5.04136">
        <ele>133.8</ele>
        <time>2011-08-15T13:06:36Z</time>
      </trkpt>
      <trkpt lat="44.13286" lon="5.0433">
        <ele>161</ele>
        <time>2011-08-15T13:06:41Z</time>
      </trkpt>
      <trkpt lat="44.13293" lon="5.04337">
        <ele>160</ele>
        <time>2011-08-15T13:06:43Z</time>
      </trkpt>
      <trkpt lat="44.13322" lon="5.04362">
        <ele>163</ele>
        <time>2011-08-15T13:06:51Z</time>
      </trkpt>
      <trkpt lat="44.13328" lon="5.04371">
        <ele>165</ele>
        <time>2011-08-15T13:06:53Z</time>
      </trkpt>
      <trkpt lat="44.13334" lon="5.04405">
        <ele>165</ele>
        <time>2011-08-15T13:07:01Z</time>
      </trkpt>
      <trkpt lat="44.13346" lon="5.04419">
        <ele>160</ele>
        <time>2011-08-15T13:07:03Z</time>
      </trkpt>
      <trkpt lat="44.13369" lon="5.04443">
        <ele>155</ele>
        <time>2011-08-15T13:07:07Z</time>
      </trkpt>
      <trkpt lat="44.13397" lon="5.04464">
        <ele>154</ele>
        <time>2011-08-15T13:07:13Z</time>
      </trkpt>
      <trkpt lat="44.13415" lon="5.04474">
        <ele>155</ele>
        <time>2011-08-15T13:07:17Z</time>
      </trkpt>
      <trkpt lat="44.13432" lon="5.04483">
        <ele>155</ele>
        <time>2011-08-15T13:07:21Z</time>
      </trkpt>
      <trkpt lat="44.13442" lon="5.0451">
        <ele>154</ele>
        <time>2011-08-15T13:07:25Z</time>
      </trkpt>
      <trkpt lat="44.13471" lon="5.0452">
        <ele>152</ele>
        <time>2011-08-15T13:07:31Z</time>
      </trkpt>
      <trkpt lat="44.13516" lon="5.04509">
        <ele>145</ele>
        <time>2011-08-15T13:07:40Z</time>
      </trkpt>
      <trkpt lat="44.13534" lon="5.04508">
        <ele>143</ele>
        <time>2011-08-15T13:07:44Z</time>
      </trkpt>
      <trkpt lat="44.13552" lon="5.04508">
        <ele>144</ele>
        <time>2011-08-15T13:07:48Z</time>
      </trkpt>
      <trkpt lat="44.13569" lon="5.04507">
        <ele>145</ele>
        <time>2011-08-15T13:07:53Z</time>
      </trkpt>
      <trkpt lat="44.13583" lon="5.04507">
        <ele>145</ele>
        <time>2011-08-15T13:07:57Z</time>
      </trkpt>
      <trkpt lat="44.13581" lon="5.04523">
        <ele>145</ele>
        <time>2011-08-15T13:07:59Z</time>
      </trkpt>
      <trkpt lat="44.13633" lon="5.04561">
        <ele>141</ele>
        <time>2011-08-15T13:08:09Z</time>
      </trkpt>
      <trkpt lat="44.13648" lon="5.04572">
        <ele>141</ele>
        <time>2011-08-15T13:08:13Z</time>
      </trkpt>
      <trkpt lat="44.13662" lon="5.04581">
        <ele>141</ele>
        <time>2011-08-15T13:08:17Z</time>
      </trkpt>
      <trkpt lat="44.1368" lon="5.0458">
        <ele>147</ele>
        <time>2011-08-15T13:08:21Z</time>
      </trkpt>
      <trkpt lat="44.13697" lon="5.04579">
        <ele>150</ele>
        <time>2011-08-15T13:08:25Z</time>
      </trkpt>
      <trkpt lat="44.13713" lon="5.04589">
        <ele>150</ele>
        <time>2011-08-15T13:08:29Z</time>
      </trkpt>
      <trkpt lat="44.13722" lon="5.04594">
        <ele>150</ele>
        <time>2011-08-15T13:08:31Z</time>
      </trkpt>
      <trkpt lat="44.13722" lon="5.04594">
        <ele>136.5</ele>
        <time>2011-08-15T13:08:42Z</time>
      </trkpt>
      <trkpt lat="44.13722" lon="5.04594">
        <ele>136.5</ele>
        <time>2011-08-15T13:08:44Z</time>
      </trkpt>
      <trkpt lat="44.13778" lon="5.04675">
        <ele>148</ele>
        <time>2011-08-15T13:08:51Z</time>
      </trkpt>
      <trkpt lat="44.13786" lon="5.04704">
        <ele>148</ele>
        <time>2011-08-15T13:08:54Z</time>
      </trkpt>
      <trkpt lat="44.13786" lon="5.04704">
        <ele>147.2</ele>
        <time>2011-08-15T13:09:05Z</time>
      </trkpt>
      <trkpt lat="44.13786" lon="5.04704">
        <ele>147.2</ele>
        <time>2011-08-15T13:09:08Z</time>
      </trkpt>
      <trkpt lat="44.13827" lon="5.04707">
        <ele>125</ele>
        <time>2011-08-15T13:09:09Z</time>
      </trkpt>
      <trkpt lat="44.13846" lon="5.04715">
        <ele>109</ele>
        <time>2011-08-15T13:09:13Z</time>
      </trkpt>
      <trkpt lat="44.13861" lon="5.04717">
        <ele>108</ele>
        <time>2011-08-15T13:09:17Z</time>
      </trkpt>
      <trkpt lat="44.13875" lon="5.04717">
        <ele>109</ele>
        <time>2011-08-15T13:09:21Z</time>
      </trkpt>
      <trkpt lat="44.13891" lon="5.04716">
        <ele>112</ele>
        <time>2011-08-15T13:09:26Z</time>
      </trkpt>
      <trkpt lat="44.13904" lon="5.04713">
        <ele>115</ele>
        <time>2011-08-15T13:09:30Z</time>
      </trkpt>
      <trkpt lat="44.13918" lon="5.0471">
        <ele>117</ele>
        <time>2011-08-15T13:09:34Z</time>
      </trkpt>
      <trkpt lat="44.13931" lon="5.04707">
        <ele>120</ele>
        <time>2011-08-15T13:09:38Z</time>
      </trkpt>
      <trkpt lat="44.13944" lon="5.04704">
        <ele>122</ele>
        <time>2011-08-15T13:09:42Z</time>
      </trkpt>
      <trkpt lat="44.13957" lon="5.04699">
        <ele>124</ele>
        <time>2011-08-15T13:09:46Z</time>
      </trkpt>
      <trkpt lat="44.1397" lon="5.04694">
        <ele>125</ele>
        <time>2011-08-15T13:09:50Z</time>
      </trkpt>
      <trkpt lat="44.13983" lon="5.04691">
        <ele>125</ele>
        <time>2011-08-15T13:09:54Z</time>
      </trkpt>
      <trkpt lat="44.13996" lon="5.04689">
        <ele>125</ele>
        <time>2011-08-15T13:09:58Z</time>
      </trkpt>
      <trkpt lat="44.13996" lon="5.04689">
        <ele>146.7</ele>
        <time>2011-08-15T13:10:09Z</time>
      </trkpt>
      <trkpt lat="44.13996" lon="5.04689">
        <ele>146.7</ele>
        <time>2011-08-15T13:10:20Z</time>
      </trkpt>
      <trkpt lat="44.13976" lon="5.04721">
        <ele>126</ele>
        <time>2011-08-15T13:10:24Z</time>
      </trkpt>
      <trkpt lat="44.13996" lon="5.04746">
        <ele>126</ele>
        <time>2011-08-15T13:10:29Z</time>
      </trkpt>
      <trkpt lat="44.14039" lon="5.04796">
        <ele>126.999</ele>
        <time>2011-08-15T13:10:33Z</time>
      </trkpt>
      <trkpt lat="44.14052" lon="5.04808">
        <ele>126.999</ele>
        <time>2011-08-15T13:10:35Z</time>
      </trkpt>
      <trkpt lat="44.14061" lon="5.04815">
        <ele>127</ele>
        <time>2011-08-15T13:10:38Z</time>
      </trkpt>
      <trkpt lat="44.14068" lon="5.04819">
        <ele>127</ele>
        <time>2011-08-15T13:10:42Z</time>
      </trkpt>
      <trkpt lat="44.14068" lon="5.04819">
        <ele>158.5</ele>
        <time>2011-08-15T13:10:53Z</time>
      </trkpt>
      <trkpt lat="44.14068" lon="5.04819">
        <ele>158.5</ele>
        <time>2011-08-15T13:11:10Z</time>
      </trkpt>
      <trkpt lat="44.14115" lon="5.04837">
        <ele>131</ele>
        <time>2011-08-15T13:11:18Z</time>
      </trkpt>
      <trkpt lat="44.14129" lon="5.04846">
        <ele>132</ele>
        <time>2011-08-15T13:11:22Z</time>
      </trkpt>
      <trkpt lat="44.14134" lon="5.04852">
        <ele>132</ele>
        <time>2011-08-15T13:11:24Z</time>
      </trkpt>
      <trkpt lat="44.14141" lon="5.04859">
        <ele>132</ele>
        <time>2011-08-15T13:11:27Z</time>
      </trkpt>
      <trkpt lat="44.14154" lon="5.04873">
        <ele>133</ele>
        <time>2011-08-15T13:11:33Z</time>
      </trkpt>
      <trkpt lat="44.14162" lon="5.04878">
        <ele>134</ele>
        <time>2011-08-15T13:11:36Z</time>
      </trkpt>
      <trkpt lat="44.14177" lon="5.04887">
        <ele>135</ele>
        <time>2011-08-15T13:11:42Z</time>
      </trkpt>
      <trkpt lat="44.14177" lon="5.04887">
        <ele>151.8</ele>
        <time>2011-08-15T13:11:53Z</time>
      </trkpt>
      <trkpt lat="44.14177" lon="5.04887">
        <ele>151.8</ele>
        <time>2011-08-15T13:11:54Z</time>
      </trkpt>
      <trkpt lat="44.14219" lon="5.04889">
        <ele>137</ele>
        <time>2011-08-15T13:11:57Z</time>
      </trkpt>
      <trkpt lat="44.14236" lon="5.04894">
        <ele>139</ele>
        <time>2011-08-15T13:12:03Z</time>
      </trkpt>
      <trkpt lat="44.14243" lon="5.049">
        <ele>139</ele>
        <time>2011-08-15T13:12:06Z</time>
      </trkpt>
      <trkpt lat="44.14249" lon="5.04907">
        <ele>139</ele>
        <time>2011-08-15T13:12:09Z</time>
      </trkpt>
      <trkpt lat="44.14259" lon="5.04924">
        <ele>140</ele>
        <time>2011-08-15T13:12:15Z</time>
      </trkpt>
      <trkpt lat="44.14263" lon="5.04934">
        <ele>141</ele>
        <time>2011-08-15T13:12:18Z</time>
      </trkpt>
      <trkpt lat="44.14268" lon="5.04942">
        <ele>141</ele>
        <time>2011-08-15T13:12:21Z</time>
      </trkpt>
      <trkpt lat="44.1428" lon="5.04955">
        <ele>142</ele>
        <time>2011-08-15T13:12:27Z</time>
      </trkpt>
      <trkpt lat="44.14287" lon="5.0496">
        <ele>142</ele>
        <time>2011-08-15T13:12:30Z</time>
      </trkpt>
      <trkpt lat="44.14287" lon="5.0496">
        <ele>158.1</ele>
        <time>2011-08-15T13:12:41Z</time>
      </trkpt>
      <trkpt lat="44.14287" lon="5.0496">
        <ele>158.1</ele>
        <time>2011-08-15T13:12:42Z</time>
      </trkpt>
      <trkpt lat="44.14327" lon="5.04966">
        <ele>149</ele>
        <time>2011-08-15T13:12:48Z</time>
      </trkpt>
      <trkpt lat="44.14334" lon="5.04961">
        <ele>150</ele>
        <time>2011-08-15T13:12:51Z</time>
      </trkpt>
      <trkpt lat="44.14347" lon="5.0495">
        <ele>152</ele>
        <time>2011-08-15T13:12:55Z</time>
      </trkpt>
      <trkpt lat="44.14356" lon="5.04947">
        <ele>157</ele>
        <time>2011-08-15T13:12:57Z</time>
      </trkpt>
      <trkpt lat="44.14405" lon="5.04988">
        <ele>168</ele>
        <time>2011-08-15T13:13:08Z</time>
      </trkpt>
      <trkpt lat="44.14413" lon="5.05011">
        <ele>170</ele>
        <time>2011-08-15T13:13:11Z</time>
      </trkpt>
      <trkpt lat="44.1443" lon="5.05031">
        <ele>172</ele>
        <time>2011-08-15T13:13:15Z</time>
      </trkpt>
      <trkpt lat="44.14441" lon="5.05036">
        <ele>172</ele>
        <time>2011-08-15T13:13:17Z</time>
      </trkpt>
      <trkpt lat="44.1446" lon="5.05047">
        <ele>172</ele>
        <time>2011-08-15T13:13:21Z</time>
      </trkpt>
      <trkpt lat="44.14496" lon="5.05059">
        <ele>173</ele>
        <time>2011-08-15T13:13:31Z</time>
      </trkpt>
      <trkpt lat="44.14505" lon="5.05062">
        <ele>173</ele>
        <time>2011-08-15T13:13:34Z</time>
      </trkpt>
      <trkpt lat="44.1452" lon="5.05068">
        <ele>172</ele>
        <time>2011-08-15T13:13:40Z</time>
      </trkpt>
      <trkpt lat="44.14535" lon="5.05073">
        <ele>173</ele>
        <time>2011-08-15T13:13:44Z</time>
      </trkpt>
      <trkpt lat="44.14542" lon="5.05075">
        <ele>173</ele>
        <time>2011-08-15T13:13:46Z</time>
      </trkpt>
      <trkpt lat="44.14562" lon="5.05083">
        <ele>173</ele>
        <time>2011-08-15T13:13:52Z</time>
      </trkpt>
      <trkpt lat="44.1457" lon="5.05088">
        <ele>173</ele>
        <time>2011-08-15T13:13:55Z</time>
      </trkpt>
      <trkpt lat="44.14577" lon="5.05092">
        <ele>173</ele>
        <time>2011-08-15T13:13:58Z</time>
      </trkpt>
      <trkpt lat="44.14583" lon="5.05094">
        <ele>173</ele>
        <time>2011-08-15T13:14:01Z</time>
      </trkpt>
      <trkpt lat="44.1459" lon="5.05095">
        <ele>174</ele>
        <time>2011-08-15T13:14:08Z</time>
      </trkpt>
      <trkpt lat="44.14606" lon="5.05098">
        <ele>174</ele>
        <time>2011-08-15T13:14:16Z</time>
      </trkpt>
      <trkpt lat="44.14613" lon="5.05101">
        <ele>174</ele>
        <time>2011-08-15T13:14:20Z</time>
      </trkpt>
      <trkpt lat="44.14619" lon="5.05103">
        <ele>174</ele>
        <time>2011-08-15T13:14:24Z</time>
      </trkpt>
      <trkpt lat="44.14635" lon="5.05107">
        <ele>176</ele>
        <time>2011-08-15T13:14:32Z</time>
      </trkpt>
      <trkpt lat="44.14649" lon="5.05113">
        <ele>176</ele>
        <time>2011-08-15T13:14:36Z</time>
      </trkpt>
      <trkpt lat="44.14662" lon="5.05117">
        <ele>176</ele>
        <time>2011-08-15T13:14:40Z</time>
      </trkpt>
      <trkpt lat="44.14675" lon="5.05117">
        <ele>177</ele>
        <time>2011-08-15T13:14:44Z</time>
      </trkpt>
      <trkpt lat="44.14684" lon="5.05118">
        <ele>177</ele>
        <time>2011-08-15T13:14:47Z</time>
      </trkpt>
      <trkpt lat="44.14692" lon="5.0512">
        <ele>177</ele>
        <time>2011-08-15T13:14:50Z</time>
      </trkpt>
      <trkpt lat="44.14707" lon="5.05122">
        <ele>177</ele>
        <time>2011-08-15T13:14:56Z</time>
      </trkpt>
      <trkpt lat="44.14714" lon="5.05124">
        <ele>178</ele>
        <time>2011-08-15T13:15:02Z</time>
      </trkpt>
      <trkpt lat="44.14721" lon="5.05126">
        <ele>178</ele>
        <time>2011-08-15T13:15:08Z</time>
      </trkpt>
      <trkpt lat="44.14721" lon="5.05126">
        <ele>166.9</ele>
        <time>2011-08-15T13:15:19Z</time>
      </trkpt>
      <trkpt lat="44.14721" lon="5.05126">
        <ele>166.9</ele>
        <time>2011-08-15T13:16:17Z</time>
      </trkpt>
      <trkpt lat="44.14731" lon="5.05145">
        <ele>181</ele>
        <time>2011-08-15T13:16:21Z</time>
      </trkpt>
      <trkpt lat="44.14736" lon="5.05151">
        <ele>181</ele>
        <time>2011-08-15T13:16:25Z</time>
      </trkpt>
      <trkpt lat="44.14743" lon="5.05155">
        <ele>182</ele>
        <time>2011-08-15T13:16:29Z</time>
      </trkpt>
      <trkpt lat="44.14747" lon="5.05161">
        <ele>183</ele>
        <time>2011-08-15T13:16:39Z</time>
      </trkpt>
      <trkpt lat="44.1475" lon="5.0517">
        <ele>184</ele>
        <time>2011-08-15T13:16:45Z</time>
      </trkpt>
      <trkpt lat="44.14746" lon="5.05179">
        <ele>184</ele>
        <time>2011-08-15T13:16:54Z</time>
      </trkpt>
      <trkpt lat="44.1474" lon="5.05184">
        <ele>185</ele>
        <time>2011-08-15T13:16:56Z</time>
      </trkpt>
      <trkpt lat="44.14734" lon="5.0519">
        <ele>185</ele>
        <time>2011-08-15T13:16:59Z</time>
      </trkpt>
      <trkpt lat="44.14734" lon="5.0519">
        <ele>181</ele>
        <time>2011-08-15T13:17:10Z</time>
      </trkpt>
      <trkpt lat="44.14734" lon="5.0519">
        <ele>181</ele>
        <time>2011-08-15T13:17:23Z</time>
      </trkpt>
      <trkpt lat="44.14697" lon="5.05213">
        <ele>186</ele>
        <time>2011-08-15T13:17:30Z</time>
      </trkpt>
      <trkpt lat="44.14686" lon="5.05227">
        <ele>187</ele>
        <time>2011-08-15T13:17:35Z</time>
      </trkpt>
      <trkpt lat="44.14687" lon="5.05248">
        <ele>187</ele>
        <time>2011-08-15T13:17:39Z</time>
      </trkpt>
      <trkpt lat="44.14687" lon="5.05271">
        <ele>187</ele>
        <time>2011-08-15T13:17:42Z</time>
      </trkpt>
      <trkpt lat="44.14691" lon="5.05282">
        <ele>187</ele>
        <time>2011-08-15T13:17:44Z</time>
      </trkpt>
      <trkpt lat="44.14704" lon="5.05318">
        <ele>188</ele>
        <time>2011-08-15T13:17:50Z</time>
      </trkpt>
      <trkpt lat="44.14714" lon="5.05339">
        <ele>189</ele>
        <time>2011-08-15T13:17:53Z</time>
      </trkpt>
      <trkpt lat="44.14727" lon="5.05374">
        <ele>191</ele>
        <time>2011-08-15T13:17:59Z</time>
      </trkpt>
      <trkpt lat="44.14731" lon="5.05398">
        <ele>193</ele>
        <time>2011-08-15T13:18:03Z</time>
      </trkpt>
      <trkpt lat="44.14736" lon="5.05419">
        <ele>194</ele>
        <time>2011-08-15T13:18:07Z</time>
      </trkpt>
      <trkpt lat="44.14742" lon="5.05438">
        <ele>195</ele>
        <time>2011-08-15T13:18:11Z</time>
      </trkpt>
      <trkpt lat="44.14748" lon="5.05455">
        <ele>195</ele>
        <time>2011-08-15T13:18:15Z</time>
      </trkpt>
      <trkpt lat="44.14754" lon="5.05472">
        <ele>195</ele>
        <time>2011-08-15T13:18:19Z</time>
      </trkpt>
      <trkpt lat="44.14757" lon="5.05481">
        <ele>196</ele>
        <time>2011-08-15T13:18:21Z</time>
      </trkpt>
      <trkpt lat="44.14756" lon="5.05505">
        <ele>196</ele>
        <time>2011-08-15T13:18:27Z</time>
      </trkpt>
      <trkpt lat="44.14755" lon="5.05518">
        <ele>196</ele>
        <time>2011-08-15T13:18:30Z</time>
      </trkpt>
      <trkpt lat="44.14757" lon="5.05537">
        <ele>196</ele>
        <time>2011-08-15T13:18:34Z</time>
      </trkpt>
      <trkpt lat="44.14756" lon="5.05547">
        <ele>196</ele>
        <time>2011-08-15T13:18:36Z</time>
      </trkpt>
      <trkpt lat="44.14754" lon="5.05576">
        <ele>196</ele>
        <time>2011-08-15T13:18:43Z</time>
      </trkpt>
      <trkpt lat="44.14752" lon="5.05584">
        <ele>196</ele>
        <time>2011-08-15T13:18:46Z</time>
      </trkpt>
      <trkpt lat="44.1475" lon="5.05596">
        <ele>197</ele>
        <time>2011-08-15T13:18:50Z</time>
      </trkpt>
      <trkpt lat="44.14747" lon="5.0562">
        <ele>197</ele>
        <time>2011-08-15T13:18:55Z</time>
      </trkpt>
      <trkpt lat="44.14746" lon="5.05641">
        <ele>198</ele>
        <time>2011-08-15T13:18:59Z</time>
      </trkpt>
      <trkpt lat="44.14745" lon="5.0565">
        <ele>198</ele>
        <time>2011-08-15T13:19:01Z</time>
      </trkpt>
      <trkpt lat="44.14745" lon="5.05675">
        <ele>199</ele>
        <time>2011-08-15T13:19:07Z</time>
      </trkpt>
      <trkpt lat="44.14746" lon="5.05688">
        <ele>199</ele>
        <time>2011-08-15T13:19:10Z</time>
      </trkpt>
      <trkpt lat="44.14749" lon="5.05711">
        <ele>200</ele>
        <time>2011-08-15T13:19:15Z</time>
      </trkpt>
      <trkpt lat="44.14756" lon="5.05736">
        <ele>200</ele>
        <time>2011-08-15T13:19:19Z</time>
      </trkpt>
      <trkpt lat="44.14765" lon="5.05756">
        <ele>201</ele>
        <time>2011-08-15T13:19:23Z</time>
      </trkpt>
      <trkpt lat="44.14775" lon="5.05772">
        <ele>201</ele>
        <time>2011-08-15T13:19:27Z</time>
      </trkpt>
      <trkpt lat="44.14775" lon="5.05798">
        <ele>206</ele>
        <time>2011-08-15T13:19:31Z</time>
      </trkpt>
      <trkpt lat="44.14767" lon="5.05826">
        <ele>212</ele>
        <time>2011-08-15T13:19:35Z</time>
      </trkpt>
      <trkpt lat="44.1476" lon="5.05848">
        <ele>214</ele>
        <time>2011-08-15T13:19:39Z</time>
      </trkpt>
      <trkpt lat="44.1475" lon="5.05871">
        <ele>216</ele>
        <time>2011-08-15T13:19:43Z</time>
      </trkpt>
      <trkpt lat="44.14745" lon="5.05896">
        <ele>219</ele>
        <time>2011-08-15T13:19:47Z</time>
      </trkpt>
      <trkpt lat="44.14742" lon="5.05923">
        <ele>220</ele>
        <time>2011-08-15T13:19:51Z</time>
      </trkpt>
      <trkpt lat="44.14743" lon="5.05951">
        <ele>221</ele>
        <time>2011-08-15T13:19:55Z</time>
      </trkpt>
      <trkpt lat="44.14745" lon="5.05978">
        <ele>222</ele>
        <time>2011-08-15T13:19:59Z</time>
      </trkpt>
      <trkpt lat="44.14745" lon="5.06007">
        <ele>221</ele>
        <time>2011-08-15T13:20:03Z</time>
      </trkpt>
      <trkpt lat="44.14747" lon="5.06021">
        <ele>221</ele>
        <time>2011-08-15T13:20:05Z</time>
      </trkpt>
      <trkpt lat="44.14755" lon="5.06046">
        <ele>222</ele>
        <time>2011-08-15T13:20:09Z</time>
      </trkpt>
      <trkpt lat="44.14765" lon="5.06088">
        <ele>223</ele>
        <time>2011-08-15T13:20:15Z</time>
      </trkpt>
      <trkpt lat="44.14761" lon="5.06125">
        <ele>224</ele>
        <time>2011-08-15T13:20:19Z</time>
      </trkpt>
      <trkpt lat="44.14755" lon="5.06157">
        <ele>224</ele>
        <time>2011-08-15T13:20:23Z</time>
      </trkpt>
      <trkpt lat="44.14744" lon="5.06183">
        <ele>224</ele>
        <time>2011-08-15T13:20:27Z</time>
      </trkpt>
      <trkpt lat="44.14732" lon="5.06209">
        <ele>224</ele>
        <time>2011-08-15T13:20:31Z</time>
      </trkpt>
      <trkpt lat="44.1472" lon="5.06237">
        <ele>224</ele>
        <time>2011-08-15T13:20:35Z</time>
      </trkpt>
      <trkpt lat="44.14714" lon="5.06265">
        <ele>225</ele>
        <time>2011-08-15T13:20:39Z</time>
      </trkpt>
      <trkpt lat="44.14725" lon="5.06308">
        <ele>225</ele>
        <time>2011-08-15T13:20:47Z</time>
      </trkpt>
      <trkpt lat="44.1473" lon="5.06317">
        <ele>225</ele>
        <time>2011-08-15T13:20:50Z</time>
      </trkpt>
      <trkpt lat="44.14734" lon="5.06334">
        <ele>225</ele>
        <time>2011-08-15T13:20:54Z</time>
      </trkpt>
      <trkpt lat="44.14738" lon="5.06343">
        <ele>225</ele>
        <time>2011-08-15T13:20:57Z</time>
      </trkpt>
      <trkpt lat="44.14746" lon="5.06362">
        <ele>225</ele>
        <time>2011-08-15T13:21:03Z</time>
      </trkpt>
      <trkpt lat="44.14749" lon="5.06374">
        <ele>225</ele>
        <time>2011-08-15T13:21:06Z</time>
      </trkpt>
      <trkpt lat="44.14763" lon="5.06402">
        <ele>224</ele>
        <time>2011-08-15T13:21:15Z</time>
      </trkpt>
      <trkpt lat="44.1477" lon="5.06413">
        <ele>224</ele>
        <time>2011-08-15T13:21:22Z</time>
      </trkpt>
      <trkpt lat="44.14775" lon="5.06422">
        <ele>224</ele>
        <time>2011-08-15T13:21:27Z</time>
      </trkpt>
      <trkpt lat="44.14779" lon="5.06429">
        <ele>224</ele>
        <time>2011-08-15T13:21:29Z</time>
      </trkpt>
      <trkpt lat="44.14786" lon="5.06439">
        <ele>224</ele>
        <time>2011-08-15T13:21:32Z</time>
      </trkpt>
      <trkpt lat="44.14796" lon="5.06456">
        <ele>224</ele>
        <time>2011-08-15T13:21:39Z</time>
      </trkpt>
      <trkpt lat="44.14801" lon="5.06466">
        <ele>224</ele>
        <time>2011-08-15T13:21:43Z</time>
      </trkpt>
      <trkpt lat="44.14805" lon="5.06476">
        <ele>225</ele>
        <time>2011-08-15T13:21:47Z</time>
      </trkpt>
      <trkpt lat="44.14807" lon="5.06485">
        <ele>225</ele>
        <time>2011-08-15T13:21:51Z</time>
      </trkpt>
      <trkpt lat="44.14809" lon="5.06494">
        <ele>225</ele>
        <time>2011-08-15T13:21:54Z</time>
      </trkpt>
      <trkpt lat="44.14812" lon="5.06504">
        <ele>226</ele>
        <time>2011-08-15T13:21:58Z</time>
      </trkpt>
      <trkpt lat="44.14814" lon="5.06515">
        <ele>226</ele>
        <time>2011-08-15T13:22:02Z</time>
      </trkpt>
      <trkpt lat="44.14816" lon="5.06525">
        <ele>226</ele>
        <time>2011-08-15T13:22:06Z</time>
      </trkpt>
      <trkpt lat="44.14818" lon="5.06535">
        <ele>227</ele>
        <time>2011-08-15T13:22:10Z</time>
      </trkpt>
      <trkpt lat="44.14819" lon="5.06545">
        <ele>228</ele>
        <time>2011-08-15T13:22:13Z</time>
      </trkpt>
      <trkpt lat="44.1482" lon="5.06557">
        <ele>228</ele>
        <time>2011-08-15T13:22:17Z</time>
      </trkpt>
      <trkpt lat="44.14822" lon="5.06568">
        <ele>229</ele>
        <time>2011-08-15T13:22:21Z</time>
      </trkpt>
      <trkpt lat="44.14826" lon="5.06588">
        <ele>230</ele>
        <time>2011-08-15T13:22:27Z</time>
      </trkpt>
      <trkpt lat="44.14826" lon="5.06597">
        <ele>231</ele>
        <time>2011-08-15T13:22:31Z</time>
      </trkpt>
      <trkpt lat="44.14827" lon="5.06609">
        <ele>232</ele>
        <time>2011-08-15T13:22:35Z</time>
      </trkpt>
      <trkpt lat="44.14827" lon="5.0662">
        <ele>232</ele>
        <time>2011-08-15T13:22:39Z</time>
      </trkpt>
      <trkpt lat="44.14828" lon="5.0663">
        <ele>232</ele>
        <time>2011-08-15T13:22:41Z</time>
      </trkpt>
      <trkpt lat="44.14828" lon="5.06638">
        <ele>232</ele>
        <time>2011-08-15T13:22:44Z</time>
      </trkpt>
      <trkpt lat="44.14827" lon="5.06649">
        <ele>233</ele>
        <time>2011-08-15T13:22:48Z</time>
      </trkpt>
      <trkpt lat="44.14826" lon="5.06659">
        <ele>234</ele>
        <time>2011-08-15T13:22:53Z</time>
      </trkpt>
      <trkpt lat="44.14825" lon="5.06669">
        <ele>235</ele>
        <time>2011-08-15T13:22:58Z</time>
      </trkpt>
      <trkpt lat="44.14824" lon="5.06682">
        <ele>235</ele>
        <time>2011-08-15T13:23:03Z</time>
      </trkpt>
      <trkpt lat="44.14824" lon="5.06694">
        <ele>235</ele>
        <time>2011-08-15T13:23:08Z</time>
      </trkpt>
      <trkpt lat="44.14825" lon="5.06704">
        <ele>235</ele>
        <time>2011-08-15T13:23:13Z</time>
      </trkpt>
      <trkpt lat="44.14825" lon="5.06704">
        <ele>205.9</ele>
        <time>2011-08-15T13:23:25Z</time>
      </trkpt>
      <trkpt lat="44.14825" lon="5.06704">
        <ele>205.9</ele>
        <time>2011-08-15T13:23:50Z</time>
      </trkpt>
      <trkpt lat="44.14825" lon="5.06704">
        <ele>205.9</ele>
        <time>2011-08-15T13:24:02Z</time>
      </trkpt>
      <trkpt lat="44.14825" lon="5.06704">
        <ele>205.9</ele>
        <time>2011-08-15T13:24:58Z</time>
      </trkpt>
      <trkpt lat="44.14832" lon="5.06732">
        <ele>238</ele>
        <time>2011-08-15T13:25:01Z</time>
      </trkpt>
      <trkpt lat="44.14836" lon="5.06741">
        <ele>238</ele>
        <time>2011-08-15T13:25:06Z</time>
      </trkpt>
      <trkpt lat="44.1484" lon="5.06749">
        <ele>238</ele>
        <time>2011-08-15T13:25:09Z</time>
      </trkpt>
      <trkpt lat="44.14843" lon="5.06756">
        <ele>238</ele>
        <time>2011-08-15T13:25:18Z</time>
      </trkpt>
      <trkpt lat="44.14845" lon="5.06765">
        <ele>239</ele>
        <time>2011-08-15T13:25:22Z</time>
      </trkpt>
      <trkpt lat="44.14847" lon="5.06773">
        <ele>239</ele>
        <time>2011-08-15T13:25:27Z</time>
      </trkpt>
      <trkpt lat="44.1485" lon="5.06782">
        <ele>239</ele>
        <time>2011-08-15T13:25:31Z</time>
      </trkpt>
      <trkpt lat="44.14854" lon="5.06791">
        <ele>239</ele>
        <time>2011-08-15T13:25:36Z</time>
      </trkpt>
      <trkpt lat="44.14857" lon="5.06799">
        <ele>239</ele>
        <time>2011-08-15T13:25:40Z</time>
      </trkpt>
      <trkpt lat="44.14859" lon="5.06808">
        <ele>239</ele>
        <time>2011-08-15T13:25:43Z</time>
      </trkpt>
      <trkpt lat="44.14864" lon="5.06825">
        <ele>240</ele>
        <time>2011-08-15T13:25:50Z</time>
      </trkpt>
      <trkpt lat="44.14867" lon="5.06834">
        <ele>240</ele>
        <time>2011-08-15T13:25:52Z</time>
      </trkpt>
      <trkpt lat="44.1487" lon="5.06844">
        <ele>240</ele>
        <time>2011-08-15T13:25:55Z</time>
      </trkpt>
      <trkpt lat="44.14871" lon="5.06855">
        <ele>240</ele>
        <time>2011-08-15T13:25:59Z</time>
      </trkpt>
      <trkpt lat="44.14875" lon="5.06873">
        <ele>240</ele>
        <time>2011-08-15T13:26:06Z</time>
      </trkpt>
      <trkpt lat="44.14877" lon="5.06882">
        <ele>240</ele>
        <time>2011-08-15T13:26:09Z</time>
      </trkpt>
      <trkpt lat="44.14879" lon="5.06892">
        <ele>240</ele>
        <time>2011-08-15T13:26:12Z</time>
      </trkpt>
      <trkpt lat="44.14885" lon="5.06909">
        <ele>240</ele>
        <time>2011-08-15T13:26:18Z</time>
      </trkpt>
      <trkpt lat="44.14887" lon="5.06919">
        <ele>240</ele>
        <time>2011-08-15T13:26:22Z</time>
      </trkpt>
      <trkpt lat="44.14886" lon="5.0693">
        <ele>240</ele>
        <time>2011-08-15T13:26:26Z</time>
      </trkpt>
      <trkpt lat="44.14885" lon="5.06941">
        <ele>241</ele>
        <time>2011-08-15T13:26:30Z</time>
      </trkpt>
      <trkpt lat="44.14884" lon="5.06951">
        <ele>241</ele>
        <time>2011-08-15T13:26:34Z</time>
      </trkpt>
      <trkpt lat="44.14884" lon="5.06951">
        <ele>211.8</ele>
        <time>2011-08-15T13:26:46Z</time>
      </trkpt>
      <trkpt lat="44.14884" lon="5.06951">
        <ele>211.8</ele>
        <time>2011-08-15T13:26:46Z</time>
      </trkpt>
      <trkpt lat="44.14882" lon="5.06989">
        <ele>240</ele>
        <time>2011-08-15T13:26:50Z</time>
      </trkpt>
      <trkpt lat="44.14856" lon="5.06987">
        <ele>241</ele>
        <time>2011-08-15T13:26:58Z</time>
      </trkpt>
      <trkpt lat="44.14841" lon="5.06976">
        <ele>241</ele>
        <time>2011-08-15T13:27:03Z</time>
      </trkpt>
      <trkpt lat="44.14837" lon="5.06968">
        <ele>241</ele>
        <time>2011-08-15T13:27:06Z</time>
      </trkpt>
      <trkpt lat="44.14837" lon="5.06959">
        <ele>241</ele>
        <time>2011-08-15T13:27:10Z</time>
      </trkpt>
      <trkpt lat="44.14839" lon="5.06949">
        <ele>241</ele>
        <time>2011-08-15T13:27:15Z</time>
      </trkpt>
      <trkpt lat="44.1484" lon="5.06939">
        <ele>241</ele>
        <time>2011-08-15T13:27:19Z</time>
      </trkpt>
      <trkpt lat="44.14839" lon="5.06928">
        <ele>241</ele>
        <time>2011-08-15T13:27:23Z</time>
      </trkpt>
      <trkpt lat="44.14837" lon="5.06918">
        <ele>241</ele>
        <time>2011-08-15T13:27:27Z</time>
      </trkpt>
      <trkpt lat="44.14836" lon="5.06908">
        <ele>241</ele>
        <time>2011-08-15T13:27:31Z</time>
      </trkpt>
      <trkpt lat="44.14834" lon="5.06898">
        <ele>241</ele>
        <time>2011-08-15T13:27:35Z</time>
      </trkpt>
      <trkpt lat="44.14832" lon="5.06887">
        <ele>241</ele>
        <time>2011-08-15T13:27:39Z</time>
      </trkpt>
      <trkpt lat="44.14828" lon="5.06876">
        <ele>242</ele>
        <time>2011-08-15T13:27:43Z</time>
      </trkpt>
      <trkpt lat="44.14826" lon="5.06866">
        <ele>242</ele>
        <time>2011-08-15T13:27:47Z</time>
      </trkpt>
      <trkpt lat="44.14822" lon="5.06857">
        <ele>242</ele>
        <time>2011-08-15T13:27:51Z</time>
      </trkpt>
      <trkpt lat="44.14818" lon="5.06849">
        <ele>242</ele>
        <time>2011-08-15T13:27:54Z</time>
      </trkpt>
      <trkpt lat="44.14813" lon="5.06843">
        <ele>242</ele>
        <time>2011-08-15T13:27:59Z</time>
      </trkpt>
      <trkpt lat="44.14808" lon="5.06835">
        <ele>242</ele>
        <time>2011-08-15T13:28:03Z</time>
      </trkpt>
      <trkpt lat="44.14803" lon="5.06829">
        <ele>242</ele>
        <time>2011-08-15T13:28:06Z</time>
      </trkpt>
      <trkpt lat="44.14798" lon="5.0682">
        <ele>243</ele>
        <time>2011-08-15T13:28:10Z</time>
      </trkpt>
      <trkpt lat="44.14793" lon="5.06814">
        <ele>243</ele>
        <time>2011-08-15T13:28:13Z</time>
      </trkpt>
      <trkpt lat="44.14784" lon="5.06799">
        <ele>244</ele>
        <time>2011-08-15T13:28:19Z</time>
      </trkpt>
      <trkpt lat="44.1478" lon="5.06792">
        <ele>244</ele>
        <time>2011-08-15T13:28:22Z</time>
      </trkpt>
      <trkpt lat="44.14776" lon="5.06783">
        <ele>245</ele>
        <time>2011-08-15T13:28:25Z</time>
      </trkpt>
      <trkpt lat="44.14772" lon="5.06774">
        <ele>245</ele>
        <time>2011-08-15T13:28:28Z</time>
      </trkpt>
      <trkpt lat="44.14764" lon="5.0676">
        <ele>246</ele>
        <time>2011-08-15T13:28:34Z</time>
      </trkpt>
      <trkpt lat="44.14759" lon="5.06751">
        <ele>246</ele>
        <time>2011-08-15T13:28:38Z</time>
      </trkpt>
      <trkpt lat="44.14755" lon="5.06745">
        <ele>247</ele>
        <time>2011-08-15T13:28:41Z</time>
      </trkpt>
      <trkpt lat="44.14745" lon="5.06732">
        <ele>247</ele>
        <time>2011-08-15T13:28:47Z</time>
      </trkpt>
      <trkpt lat="44.14745" lon="5.06732">
        <ele>238.6</ele>
        <time>2011-08-15T13:28:59Z</time>
      </trkpt>
      <trkpt lat="44.14745" lon="5.06732">
        <ele>238.6</ele>
        <time>2011-08-15T13:29:03Z</time>
      </trkpt>
      <trkpt lat="44.14714" lon="5.06689">
        <ele>247</ele>
        <time>2011-08-15T13:29:10Z</time>
      </trkpt>
      <trkpt lat="44.14714" lon="5.06689">
        <ele>240.5</ele>
        <time>2011-08-15T13:29:22Z</time>
      </trkpt>
      <trkpt lat="44.14714" lon="5.06689">
        <ele>240.5</ele>
        <time>2011-08-15T13:29:25Z</time>
      </trkpt>
      <trkpt lat="44.14688" lon="5.0665">
        <ele>247</ele>
        <time>2011-08-15T13:29:28Z</time>
      </trkpt>
      <trkpt lat="44.14686" lon="5.06639">
        <ele>247</ele>
        <time>2011-08-15T13:29:32Z</time>
      </trkpt>
      <trkpt lat="44.14687" lon="5.06628">
        <ele>246</ele>
        <time>2011-08-15T13:29:36Z</time>
      </trkpt>
      <trkpt lat="44.14688" lon="5.06618">
        <ele>246</ele>
        <time>2011-08-15T13:29:40Z</time>
      </trkpt>
      <trkpt lat="44.14689" lon="5.06607">
        <ele>245</ele>
        <time>2011-08-15T13:29:44Z</time>
      </trkpt>
      <trkpt lat="44.14688" lon="5.06597">
        <ele>245</ele>
        <time>2011-08-15T13:29:48Z</time>
      </trkpt>
      <trkpt lat="44.14688" lon="5.06597">
        <ele>244.3</ele>
        <time>2011-08-15T13:30:00Z</time>
      </trkpt>
      <trkpt lat="44.14688" lon="5.06597">
        <ele>244.3</ele>
        <time>2011-08-15T13:30:02Z</time>
      </trkpt>
      <trkpt lat="44.14708" lon="5.06604">
        <ele>245</ele>
        <time>2011-08-15T13:30:07Z</time>
      </trkpt>
      <trkpt lat="44.14708" lon="5.06604">
        <ele>239</ele>
        <time>2011-08-15T13:30:19Z</time>
      </trkpt>
      <trkpt lat="44.14708" lon="5.06604">
        <ele>239</ele>
        <time>2011-08-15T13:30:32Z</time>
      </trkpt>
      <trkpt lat="44.14708" lon="5.06604">
        <ele>239</ele>
        <time>2011-08-15T13:30:44Z</time>
      </trkpt>
      <trkpt lat="44.14708" lon="5.06604">
        <ele>239</ele>
        <time>2011-08-15T13:30:47Z</time>
      </trkpt>
      <trkpt lat="44.14689" lon="5.06578">
        <ele>244</ele>
        <time>2011-08-15T13:30:49Z</time>
      </trkpt>
      <trkpt lat="44.1466" lon="5.06563">
        <ele>246</ele>
        <time>2011-08-15T13:30:57Z</time>
      </trkpt>
      <trkpt lat="44.14653" lon="5.06556">
        <ele>247</ele>
        <time>2011-08-15T13:31:00Z</time>
      </trkpt>
      <trkpt lat="44.14648" lon="5.0655">
        <ele>247</ele>
        <time>2011-08-15T13:31:03Z</time>
      </trkpt>
      <trkpt lat="44.14641" lon="5.06548">
        <ele>248</ele>
        <time>2011-08-15T13:31:08Z</time>
      </trkpt>
      <trkpt lat="44.14634" lon="5.06548">
        <ele>249</ele>
        <time>2011-08-15T13:31:15Z</time>
      </trkpt>
      <trkpt lat="44.1462" lon="5.06551">
        <ele>250</ele>
        <time>2011-08-15T13:31:21Z</time>
      </trkpt>
      <trkpt lat="44.14613" lon="5.06551">
        <ele>250</ele>
        <time>2011-08-15T13:31:24Z</time>
      </trkpt>
      <trkpt lat="44.14606" lon="5.0655">
        <ele>251</ele>
        <time>2011-08-15T13:31:28Z</time>
      </trkpt>
      <trkpt lat="44.14598" lon="5.06548">
        <ele>252</ele>
        <time>2011-08-15T13:31:32Z</time>
      </trkpt>
      <trkpt lat="44.14591" lon="5.06548">
        <ele>252</ele>
        <time>2011-08-15T13:31:36Z</time>
      </trkpt>
      <trkpt lat="44.14584" lon="5.06549">
        <ele>254</ele>
        <time>2011-08-15T13:31:45Z</time>
      </trkpt>
      <trkpt lat="44.14577" lon="5.0655">
        <ele>255</ele>
        <time>2011-08-15T13:31:50Z</time>
      </trkpt>
      <trkpt lat="44.14571" lon="5.06545">
        <ele>256</ele>
        <time>2011-08-15T13:31:54Z</time>
      </trkpt>
      <trkpt lat="44.14569" lon="5.06535">
        <ele>257</ele>
        <time>2011-08-15T13:31:59Z</time>
      </trkpt>
      <trkpt lat="44.14576" lon="5.06517">
        <ele>258</ele>
        <time>2011-08-15T13:32:05Z</time>
      </trkpt>
      <trkpt lat="44.14578" lon="5.06508">
        <ele>259</ele>
        <time>2011-08-15T13:32:08Z</time>
      </trkpt>
      <trkpt lat="44.1458" lon="5.06498">
        <ele>259</ele>
        <time>2011-08-15T13:32:11Z</time>
      </trkpt>
      <trkpt lat="44.14581" lon="5.06489">
        <ele>259</ele>
        <time>2011-08-15T13:32:14Z</time>
      </trkpt>
      <trkpt lat="44.14581" lon="5.06478">
        <ele>260</ele>
        <time>2011-08-15T13:32:18Z</time>
      </trkpt>
      <trkpt lat="44.1457" lon="5.06462">
        <ele>261</ele>
        <time>2011-08-15T13:32:25Z</time>
      </trkpt>
      <trkpt lat="44.14565" lon="5.06455">
        <ele>262</ele>
        <time>2011-08-15T13:32:28Z</time>
      </trkpt>
      <trkpt lat="44.14557" lon="5.06449">
        <ele>262</ele>
        <time>2011-08-15T13:32:31Z</time>
      </trkpt>
      <trkpt lat="44.14552" lon="5.06444">
        <ele>263</ele>
        <time>2011-08-15T13:32:34Z</time>
      </trkpt>
      <trkpt lat="44.14548" lon="5.06435">
        <ele>264</ele>
        <time>2011-08-15T13:32:38Z</time>
      </trkpt>
      <trkpt lat="44.14541" lon="5.06431">
        <ele>266</ele>
        <time>2011-08-15T13:32:42Z</time>
      </trkpt>
      <trkpt lat="44.1453" lon="5.06418">
        <ele>268</ele>
        <time>2011-08-15T13:32:49Z</time>
      </trkpt>
      <trkpt lat="44.14524" lon="5.0641">
        <ele>270</ele>
        <time>2011-08-15T13:32:52Z</time>
      </trkpt>
      <trkpt lat="44.14517" lon="5.06405">
        <ele>271</ele>
        <time>2011-08-15T13:32:55Z</time>
      </trkpt>
      <trkpt lat="44.14506" lon="5.06393">
        <ele>273</ele>
        <time>2011-08-15T13:33:01Z</time>
      </trkpt>
      <trkpt lat="44.14499" lon="5.06386">
        <ele>275</ele>
        <time>2011-08-15T13:33:05Z</time>
      </trkpt>
      <trkpt lat="44.14492" lon="5.0638">
        <ele>277</ele>
        <time>2011-08-15T13:33:09Z</time>
      </trkpt>
      <trkpt lat="44.14486" lon="5.06376">
        <ele>278</ele>
        <time>2011-08-15T13:33:12Z</time>
      </trkpt>
      <trkpt lat="44.1448" lon="5.06369">
        <ele>279</ele>
        <time>2011-08-15T13:33:16Z</time>
      </trkpt>
      <trkpt lat="44.14474" lon="5.06361">
        <ele>280</ele>
        <time>2011-08-15T13:33:20Z</time>
      </trkpt>
      <trkpt lat="44.14461" lon="5.06346">
        <ele>283</ele>
        <time>2011-08-15T13:33:28Z</time>
      </trkpt>
      <trkpt lat="44.14457" lon="5.06338">
        <ele>284</ele>
        <time>2011-08-15T13:33:32Z</time>
      </trkpt>
      <trkpt lat="44.14452" lon="5.06331">
        <ele>285</ele>
        <time>2011-08-15T13:33:36Z</time>
      </trkpt>
      <trkpt lat="44.14446" lon="5.06325">
        <ele>286</ele>
        <time>2011-08-15T13:33:40Z</time>
      </trkpt>
      <trkpt lat="44.14439" lon="5.06319">
        <ele>287</ele>
        <time>2011-08-15T13:33:44Z</time>
      </trkpt>
      <trkpt lat="44.14427" lon="5.06307">
        <ele>289</ele>
        <time>2011-08-15T13:33:52Z</time>
      </trkpt>
      <trkpt lat="44.14421" lon="5.063">
        <ele>289</ele>
        <time>2011-08-15T13:33:56Z</time>
      </trkpt>
      <trkpt lat="44.14417" lon="5.06293">
        <ele>290</ele>
        <time>2011-08-15T13:33:59Z</time>
      </trkpt>
      <trkpt lat="44.14408" lon="5.0628">
        <ele>291</ele>
        <time>2011-08-15T13:34:05Z</time>
      </trkpt>
      <trkpt lat="44.14404" lon="5.0627">
        <ele>292</ele>
        <time>2011-08-15T13:34:09Z</time>
      </trkpt>
      <trkpt lat="44.14405" lon="5.0626">
        <ele>292</ele>
        <time>2011-08-15T13:34:12Z</time>
      </trkpt>
      <trkpt lat="44.14405" lon="5.06251">
        <ele>293</ele>
        <time>2011-08-15T13:34:15Z</time>
      </trkpt>
      <trkpt lat="44.14402" lon="5.06241">
        <ele>294</ele>
        <time>2011-08-15T13:34:19Z</time>
      </trkpt>
      <trkpt lat="44.14399" lon="5.06233">
        <ele>294</ele>
        <time>2011-08-15T13:34:22Z</time>
      </trkpt>
      <trkpt lat="44.14387" lon="5.06218">
        <ele>296</ele>
        <time>2011-08-15T13:34:29Z</time>
      </trkpt>
      <trkpt lat="44.1438" lon="5.06213">
        <ele>296</ele>
        <time>2011-08-15T13:34:32Z</time>
      </trkpt>
      <trkpt lat="44.14374" lon="5.06209">
        <ele>296</ele>
        <time>2011-08-15T13:34:35Z</time>
      </trkpt>
      <trkpt lat="44.14368" lon="5.06203">
        <ele>298</ele>
        <time>2011-08-15T13:34:42Z</time>
      </trkpt>
      <trkpt lat="44.14353" lon="5.06206">
        <ele>300</ele>
        <time>2011-08-15T13:34:49Z</time>
      </trkpt>
      <trkpt lat="44.14346" lon="5.0621">
        <ele>302</ele>
        <time>2011-08-15T13:34:53Z</time>
      </trkpt>
      <trkpt lat="44.14346" lon="5.0621">
        <ele>276.9</ele>
        <time>2011-08-15T13:35:05Z</time>
      </trkpt>
      <trkpt lat="44.14346" lon="5.0621">
        <ele>276.9</ele>
        <time>2011-08-15T13:35:15Z</time>
      </trkpt>
      <trkpt lat="44.14346" lon="5.0621">
        <ele>276.9</ele>
        <time>2011-08-15T13:35:27Z</time>
      </trkpt>
      <trkpt lat="44.14346" lon="5.0621">
        <ele>276.9</ele>
        <time>2011-08-15T13:35:28Z</time>
      </trkpt>
      <trkpt lat="44.1432" lon="5.06231">
        <ele>308</ele>
        <time>2011-08-15T13:35:37Z</time>
      </trkpt>
      <trkpt lat="44.14327" lon="5.0623">
        <ele>308</ele>
        <time>2011-08-15T13:35:41Z</time>
      </trkpt>
      <trkpt lat="44.14333" lon="5.06226">
        <ele>308</ele>
        <time>2011-08-15T13:35:45Z</time>
      </trkpt>
      <trkpt lat="44.14333" lon="5.06226">
        <ele>282.6</ele>
        <time>2011-08-15T13:35:57Z</time>
      </trkpt>
      <trkpt lat="44.14333" lon="5.06226">
        <ele>282.6</ele>
        <time>2011-08-15T13:35:57Z</time>
      </trkpt>
      <trkpt lat="44.14348" lon="5.06223">
        <ele>308</ele>
        <time>2011-08-15T13:35:59Z</time>
      </trkpt>
      <trkpt lat="44.14348" lon="5.06212">
        <ele>308</ele>
        <time>2011-08-15T13:36:08Z</time>
      </trkpt>
      <trkpt lat="44.14348" lon="5.06212">
        <ele>278.3</ele>
        <time>2011-08-15T13:36:20Z</time>
      </trkpt>
      <trkpt lat="44.14348" lon="5.06212">
        <ele>278.3</ele>
        <time>2011-08-15T13:36:28Z</time>
      </trkpt>
      <trkpt lat="44.14336" lon="5.06214">
        <ele>304</ele>
        <time>2011-08-15T13:36:34Z</time>
      </trkpt>
      <trkpt lat="44.1433" lon="5.06221">
        <ele>303</ele>
        <time>2011-08-15T13:36:38Z</time>
      </trkpt>
      <trkpt lat="44.14325" lon="5.06227">
        <ele>303</ele>
        <time>2011-08-15T13:36:41Z</time>
      </trkpt>
      <trkpt lat="44.14319" lon="5.06232">
        <ele>302</ele>
        <time>2011-08-15T13:36:45Z</time>
      </trkpt>
      <trkpt lat="44.14319" lon="5.06232">
        <ele>284.5</ele>
        <time>2011-08-15T13:36:57Z</time>
      </trkpt>
      <trkpt lat="44.14319" lon="5.06232">
        <ele>284.5</ele>
        <time>2011-08-15T13:37:01Z</time>
      </trkpt>
      <trkpt lat="44.14319" lon="5.06232">
        <ele>284.5</ele>
        <time>2011-08-15T13:37:13Z</time>
      </trkpt>
      <trkpt lat="44.14319" lon="5.06232">
        <ele>284.5</ele>
        <time>2011-08-15T13:37:16Z</time>
      </trkpt>
      <trkpt lat="44.14335" lon="5.06213">
        <ele>295</ele>
        <time>2011-08-15T13:37:19Z</time>
      </trkpt>
      <trkpt lat="44.14341" lon="5.06207">
        <ele>294</ele>
        <time>2011-08-15T13:37:22Z</time>
      </trkpt>
      <trkpt lat="44.14347" lon="5.06202">
        <ele>293</ele>
        <time>2011-08-15T13:37:26Z</time>
      </trkpt>
      <trkpt lat="44.14346" lon="5.06211">
        <ele>291</ele>
        <time>2011-08-15T13:37:35Z</time>
      </trkpt>
      <trkpt lat="44.14342" lon="5.06219">
        <ele>290</ele>
        <time>2011-08-15T13:37:40Z</time>
      </trkpt>
      <trkpt lat="44.14335" lon="5.06221">
        <ele>289</ele>
        <time>2011-08-15T13:37:49Z</time>
      </trkpt>
      <trkpt lat="44.14325" lon="5.06225">
        <ele>289</ele>
        <time>2011-08-15T13:37:52Z</time>
      </trkpt>
      <trkpt lat="44.14311" lon="5.06232">
        <ele>289</ele>
        <time>2011-08-15T13:37:56Z</time>
      </trkpt>
      <trkpt lat="44.14298" lon="5.06244">
        <ele>289</ele>
        <time>2011-08-15T13:38:01Z</time>
      </trkpt>
      <trkpt lat="44.1429" lon="5.06251">
        <ele>289</ele>
        <time>2011-08-15T13:38:04Z</time>
      </trkpt>
      <trkpt lat="44.14279" lon="5.06264">
        <ele>290</ele>
        <time>2011-08-15T13:38:08Z</time>
      </trkpt>
      <trkpt lat="44.14269" lon="5.06279">
        <ele>292</ele>
        <time>2011-08-15T13:38:13Z</time>
      </trkpt>
      <trkpt lat="44.14267" lon="5.06288">
        <ele>293</ele>
        <time>2011-08-15T13:38:16Z</time>
      </trkpt>
      <trkpt lat="44.14267" lon="5.06288">
        <ele>285.4</ele>
        <time>2011-08-15T13:38:28Z</time>
      </trkpt>
      <trkpt lat="44.14267" lon="5.06288">
        <ele>285.4</ele>
        <time>2011-08-15T13:38:33Z</time>
      </trkpt>
      <trkpt lat="44.14227" lon="5.063">
        <ele>303</ele>
        <time>2011-08-15T13:38:39Z</time>
      </trkpt>
      <trkpt lat="44.1422" lon="5.06297">
        <ele>304</ele>
        <time>2011-08-15T13:38:42Z</time>
      </trkpt>
      <trkpt lat="44.14213" lon="5.06292">
        <ele>305</ele>
        <time>2011-08-15T13:38:45Z</time>
      </trkpt>
      <trkpt lat="44.14206" lon="5.06287">
        <ele>307</ele>
        <time>2011-08-15T13:38:49Z</time>
      </trkpt>
      <trkpt lat="44.14194" lon="5.06278">
        <ele>309</ele>
        <time>2011-08-15T13:38:55Z</time>
      </trkpt>
      <trkpt lat="44.14187" lon="5.06275">
        <ele>310</ele>
        <time>2011-08-15T13:38:58Z</time>
      </trkpt>
      <trkpt lat="44.14182" lon="5.0627">
        <ele>311</ele>
        <time>2011-08-15T13:39:01Z</time>
      </trkpt>
      <trkpt lat="44.14176" lon="5.06266">
        <ele>311</ele>
        <time>2011-08-15T13:39:04Z</time>
      </trkpt>
      <trkpt lat="44.1417" lon="5.06259">
        <ele>313</ele>
        <time>2011-08-15T13:39:08Z</time>
      </trkpt>
      <trkpt lat="44.14167" lon="5.0625">
        <ele>314</ele>
        <time>2011-08-15T13:39:12Z</time>
      </trkpt>
      <trkpt lat="44.14164" lon="5.06241">
        <ele>315</ele>
        <time>2011-08-15T13:39:16Z</time>
      </trkpt>
      <trkpt lat="44.14163" lon="5.06231">
        <ele>316</ele>
        <time>2011-08-15T13:39:20Z</time>
      </trkpt>
      <trkpt lat="44.14159" lon="5.06221">
        <ele>317</ele>
        <time>2011-08-15T13:39:24Z</time>
      </trkpt>
      <trkpt lat="44.14155" lon="5.06211">
        <ele>317</ele>
        <time>2011-08-15T13:39:28Z</time>
      </trkpt>
      <trkpt lat="44.14154" lon="5.06201">
        <ele>318</ele>
        <time>2011-08-15T13:39:32Z</time>
      </trkpt>
      <trkpt lat="44.14154" lon="5.06192">
        <ele>319</ele>
        <time>2011-08-15T13:39:36Z</time>
      </trkpt>
      <trkpt lat="44.14154" lon="5.06192">
        <ele>295.2</ele>
        <time>2011-08-15T13:39:48Z</time>
      </trkpt>
      <trkpt lat="44.14154" lon="5.06192">
        <ele>295.2</ele>
        <time>2011-08-15T13:40:17Z</time>
      </trkpt>
      <trkpt lat="44.14154" lon="5.06192">
        <ele>295.2</ele>
        <time>2011-08-15T13:40:29Z</time>
      </trkpt>
      <trkpt lat="44.14154" lon="5.06192">
        <ele>295.2</ele>
        <time>2011-08-15T13:40:45Z</time>
      </trkpt>
      <trkpt lat="44.14129" lon="5.06177">
        <ele>320</ele>
        <time>2011-08-15T13:40:50Z</time>
      </trkpt>
      <trkpt lat="44.14129" lon="5.06177">
        <ele>303.7</ele>
        <time>2011-08-15T13:41:02Z</time>
      </trkpt>
      <trkpt lat="44.14129" lon="5.06177">
        <ele>303.7</ele>
        <time>2011-08-15T13:41:06Z</time>
      </trkpt>
      <trkpt lat="44.14126" lon="5.06218">
        <ele>318</ele>
        <time>2011-08-15T13:41:09Z</time>
      </trkpt>
      <trkpt lat="44.1413" lon="5.06235">
        <ele>317</ele>
        <time>2011-08-15T13:41:15Z</time>
      </trkpt>
      <trkpt lat="44.14133" lon="5.06246">
        <ele>317</ele>
        <time>2011-08-15T13:41:19Z</time>
      </trkpt>
      <trkpt lat="44.14135" lon="5.06255">
        <ele>316</ele>
        <time>2011-08-15T13:41:22Z</time>
      </trkpt>
      <trkpt lat="44.14137" lon="5.06263">
        <ele>315</ele>
        <time>2011-08-15T13:41:25Z</time>
      </trkpt>
      <trkpt lat="44.14141" lon="5.0628">
        <ele>314</ele>
        <time>2011-08-15T13:41:31Z</time>
      </trkpt>
      <trkpt lat="44.14144" lon="5.06291">
        <ele>313</ele>
        <time>2011-08-15T13:41:35Z</time>
      </trkpt>
      <trkpt lat="44.14147" lon="5.063">
        <ele>313</ele>
        <time>2011-08-15T13:41:38Z</time>
      </trkpt>
      <trkpt lat="44.14151" lon="5.0631">
        <ele>312</ele>
        <time>2011-08-15T13:41:42Z</time>
      </trkpt>
      <trkpt lat="44.14151" lon="5.0631">
        <ele>316</ele>
        <time>2011-08-15T13:41:54Z</time>
      </trkpt>
      <trkpt lat="44.14151" lon="5.0631">
        <ele>316</ele>
        <time>2011-08-15T13:41:56Z</time>
      </trkpt>
      <trkpt lat="44.14171" lon="5.06355">
        <ele>308</ele>
        <time>2011-08-15T13:42:00Z</time>
      </trkpt>
      <trkpt lat="44.1418" lon="5.06372">
        <ele>306</ele>
        <time>2011-08-15T13:42:06Z</time>
      </trkpt>
      <trkpt lat="44.14184" lon="5.0638">
        <ele>306</ele>
        <time>2011-08-15T13:42:09Z</time>
      </trkpt>
      <trkpt lat="44.14188" lon="5.06389">
        <ele>305</ele>
        <time>2011-08-15T13:42:13Z</time>
      </trkpt>
      <trkpt lat="44.14191" lon="5.06398">
        <ele>304</ele>
        <time>2011-08-15T13:42:17Z</time>
      </trkpt>
      <trkpt lat="44.14194" lon="5.06408">
        <ele>303</ele>
        <time>2011-08-15T13:42:21Z</time>
      </trkpt>
      <trkpt lat="44.14205" lon="5.06436">
        <ele>301</ele>
        <time>2011-08-15T13:42:32Z</time>
      </trkpt>
      <trkpt lat="44.14211" lon="5.06444">
        <ele>301</ele>
        <time>2011-08-15T13:42:36Z</time>
      </trkpt>
      <trkpt lat="44.14217" lon="5.06448">
        <ele>300</ele>
        <time>2011-08-15T13:42:39Z</time>
      </trkpt>
      <trkpt lat="44.14217" lon="5.06448">
        <ele>313.6</ele>
        <time>2011-08-15T13:42:51Z</time>
      </trkpt>
      <trkpt lat="44.14217" lon="5.06448">
        <ele>313.6</ele>
        <time>2011-08-15T13:42:53Z</time>
      </trkpt>
      <trkpt lat="44.14254" lon="5.06474">
        <ele>297</ele>
        <time>2011-08-15T13:42:56Z</time>
      </trkpt>
      <trkpt lat="44.14262" lon="5.06475">
        <ele>297</ele>
        <time>2011-08-15T13:42:59Z</time>
      </trkpt>
      <trkpt lat="44.14278" lon="5.06471">
        <ele>298</ele>
        <time>2011-08-15T13:43:05Z</time>
      </trkpt>
      <trkpt lat="44.14285" lon="5.0647">
        <ele>298</ele>
        <time>2011-08-15T13:43:06Z</time>
      </trkpt>
      <trkpt lat="44.14285" lon="5.0647">
        <ele>312.7</ele>
        <time>2011-08-15T13:43:18Z</time>
      </trkpt>
      <trkpt lat="44.14285" lon="5.0647">
        <ele>312.7</ele>
        <time>2011-08-15T13:43:23Z</time>
      </trkpt>
      <trkpt lat="44.14305" lon="5.06499">
        <ele>307</ele>
        <time>2011-08-15T13:43:26Z</time>
      </trkpt>
      <trkpt lat="44.14304" lon="5.06512">
        <ele>309</ele>
        <time>2011-08-15T13:43:29Z</time>
      </trkpt>
      <trkpt lat="44.14302" lon="5.06521">
        <ele>311</ele>
        <time>2011-08-15T13:43:32Z</time>
      </trkpt>
      <trkpt lat="44.14299" lon="5.06529">
        <ele>314</ele>
        <time>2011-08-15T13:43:36Z</time>
      </trkpt>
      <trkpt lat="44.14293" lon="5.06533">
        <ele>319</ele>
        <time>2011-08-15T13:43:45Z</time>
      </trkpt>
      <trkpt lat="44.14286" lon="5.06532">
        <ele>321</ele>
        <time>2011-08-15T13:43:49Z</time>
      </trkpt>
      <trkpt lat="44.14279" lon="5.0653">
        <ele>323</ele>
        <time>2011-08-15T13:43:52Z</time>
      </trkpt>
      <trkpt lat="44.14272" lon="5.06529">
        <ele>324</ele>
        <time>2011-08-15T13:43:56Z</time>
      </trkpt>
      <trkpt lat="44.14272" lon="5.06529">
        <ele>319.5</ele>
        <time>2011-08-15T13:44:08Z</time>
      </trkpt>
      <trkpt lat="44.14272" lon="5.06529">
        <ele>319.5</ele>
        <time>2011-08-15T13:44:55Z</time>
      </trkpt>
      <trkpt lat="44.1427" lon="5.06499">
        <ele>322</ele>
        <time>2011-08-15T13:44:57Z</time>
      </trkpt>
      <trkpt lat="44.14265" lon="5.06494">
        <ele>321</ele>
        <time>2011-08-15T13:45:07Z</time>
      </trkpt>
      <trkpt lat="44.14258" lon="5.0649">
        <ele>321</ele>
        <time>2011-08-15T13:45:16Z</time>
      </trkpt>
      <trkpt lat="44.14254" lon="5.06481">
        <ele>320</ele>
        <time>2011-08-15T13:45:20Z</time>
      </trkpt>
      <trkpt lat="44.14254" lon="5.06481">
        <ele>312</ele>
        <time>2011-08-15T13:45:32Z</time>
      </trkpt>
      <trkpt lat="44.14254" lon="5.06481">
        <ele>312</ele>
        <time>2011-08-15T13:46:21Z</time>
      </trkpt>
      <trkpt lat="44.14259" lon="5.06503">
        <ele>325</ele>
        <time>2011-08-15T13:46:22Z</time>
      </trkpt>
      <trkpt lat="44.14259" lon="5.06503">
        <ele>314.8</ele>
        <time>2011-08-15T13:46:34Z</time>
      </trkpt>
      <trkpt lat="44.14259" lon="5.06503">
        <ele>314.8</ele>
        <time>2011-08-15T13:47:24Z</time>
      </trkpt>
      <trkpt lat="44.14259" lon="5.06503">
        <ele>314.8</ele>
        <time>2011-08-15T13:47:36Z</time>
      </trkpt>
      <trkpt lat="44.14259" lon="5.06503">
        <ele>314.8</ele>
        <time>2011-08-15T13:48:27Z</time>
      </trkpt>
      <trkpt lat="44.14259" lon="5.06503">
        <ele>314.8</ele>
        <time>2011-08-15T13:48:39Z</time>
      </trkpt>
      <trkpt lat="44.14259" lon="5.06503">
        <ele>314.8</ele>
        <time>2011-08-15T13:48:52Z</time>
      </trkpt>
      <trkpt lat="44.14244" lon="5.06526">
        <ele>350</ele>
        <time>2011-08-15T13:48:58Z</time>
      </trkpt>
      <trkpt lat="44.14241" lon="5.06534">
        <ele>351</ele>
        <time>2011-08-15T13:49:01Z</time>
      </trkpt>
      <trkpt lat="44.14239" lon="5.06547">
        <ele>351</ele>
        <time>2011-08-15T13:49:04Z</time>
      </trkpt>
      <trkpt lat="44.14238" lon="5.06566">
        <ele>353</ele>
        <time>2011-08-15T13:49:11Z</time>
      </trkpt>
      <trkpt lat="44.14238" lon="5.06583">
        <ele>353</ele>
        <time>2011-08-15T13:49:17Z</time>
      </trkpt>
      <trkpt lat="44.14245" lon="5.06588">
        <ele>353</ele>
        <time>2011-08-15T13:49:22Z</time>
      </trkpt>
      <trkpt lat="44.14245" lon="5.06588">
        <ele>331.9</ele>
        <time>2011-08-15T13:49:34Z</time>
      </trkpt>
      <trkpt lat="44.14245" lon="5.06588">
        <ele>331.9</ele>
        <time>2011-08-15T13:49:34Z</time>
      </trkpt>
      <trkpt lat="44.14282" lon="5.06573">
        <ele>350</ele>
        <time>2011-08-15T13:49:37Z</time>
      </trkpt>
      <trkpt lat="44.1429" lon="5.06572">
        <ele>349</ele>
        <time>2011-08-15T13:49:41Z</time>
      </trkpt>
      <trkpt lat="44.14298" lon="5.06572">
        <ele>347</ele>
        <time>2011-08-15T13:49:45Z</time>
      </trkpt>
      <trkpt lat="44.14312" lon="5.06576">
        <ele>346</ele>
        <time>2011-08-15T13:49:51Z</time>
      </trkpt>
      <trkpt lat="44.14319" lon="5.0658">
        <ele>346</ele>
        <time>2011-08-15T13:49:55Z</time>
      </trkpt>
      <trkpt lat="44.14319" lon="5.0658">
        <ele>330.9</ele>
        <time>2011-08-15T13:50:07Z</time>
      </trkpt>
      <trkpt lat="44.14319" lon="5.0658">
        <ele>330.9</ele>
        <time>2011-08-15T13:50:09Z</time>
      </trkpt>
      <trkpt lat="44.14351" lon="5.06621">
        <ele>346</ele>
        <time>2011-08-15T13:50:13Z</time>
      </trkpt>
      <trkpt lat="44.14352" lon="5.06643">
        <ele>347</ele>
        <time>2011-08-15T13:50:18Z</time>
      </trkpt>
      <trkpt lat="44.14355" lon="5.06653">
        <ele>347</ele>
        <time>2011-08-15T13:50:21Z</time>
      </trkpt>
      <trkpt lat="44.1434" lon="5.06681">
        <ele>349</ele>
        <time>2011-08-15T13:50:34Z</time>
      </trkpt>
      <trkpt lat="44.14332" lon="5.06683">
        <ele>349</ele>
        <time>2011-08-15T13:50:36Z</time>
      </trkpt>
      <trkpt lat="44.14316" lon="5.06691">
        <ele>351</ele>
        <time>2011-08-15T13:50:42Z</time>
      </trkpt>
      <trkpt lat="44.14309" lon="5.06695">
        <ele>352</ele>
        <time>2011-08-15T13:50:45Z</time>
      </trkpt>
      <trkpt lat="44.14302" lon="5.06697">
        <ele>353</ele>
        <time>2011-08-15T13:50:50Z</time>
      </trkpt>
      <trkpt lat="44.14295" lon="5.06701">
        <ele>354</ele>
        <time>2011-08-15T13:50:54Z</time>
      </trkpt>
      <trkpt lat="44.14295" lon="5.06701">
        <ele>345.5</ele>
        <time>2011-08-15T13:51:06Z</time>
      </trkpt>
      <trkpt lat="44.14295" lon="5.06701">
        <ele>345.5</ele>
        <time>2011-08-15T13:51:07Z</time>
      </trkpt>
      <trkpt lat="44.14267" lon="5.06714">
        <ele>357</ele>
        <time>2011-08-15T13:51:12Z</time>
      </trkpt>
      <trkpt lat="44.14259" lon="5.06718">
        <ele>358</ele>
        <time>2011-08-15T13:51:16Z</time>
      </trkpt>
      <trkpt lat="44.14252" lon="5.0672">
        <ele>358</ele>
        <time>2011-08-15T13:51:19Z</time>
      </trkpt>
      <trkpt lat="44.14252" lon="5.0672">
        <ele>352.9</ele>
        <time>2011-08-15T13:51:31Z</time>
      </trkpt>
      <trkpt lat="44.14252" lon="5.0672">
        <ele>352.9</ele>
        <time>2011-08-15T13:51:35Z</time>
      </trkpt>
      <trkpt lat="44.14216" lon="5.06751">
        <ele>361</ele>
        <time>2011-08-15T13:51:42Z</time>
      </trkpt>
      <trkpt lat="44.14206" lon="5.06767">
        <ele>362</ele>
        <time>2011-08-15T13:51:49Z</time>
      </trkpt>
      <trkpt lat="44.14202" lon="5.06774">
        <ele>362</ele>
        <time>2011-08-15T13:51:52Z</time>
      </trkpt>
      <trkpt lat="44.14198" lon="5.06782">
        <ele>363</ele>
        <time>2011-08-15T13:51:55Z</time>
      </trkpt>
      <trkpt lat="44.14189" lon="5.06796">
        <ele>364</ele>
        <time>2011-08-15T13:52:01Z</time>
      </trkpt>
      <trkpt lat="44.14185" lon="5.06803">
        <ele>364</ele>
        <time>2011-08-15T13:52:04Z</time>
      </trkpt>
      <trkpt lat="44.14181" lon="5.06812">
        <ele>365</ele>
        <time>2011-08-15T13:52:08Z</time>
      </trkpt>
      <trkpt lat="44.14177" lon="5.0682">
        <ele>365</ele>
        <time>2011-08-15T13:52:12Z</time>
      </trkpt>
      <trkpt lat="44.14173" lon="5.0683">
        <ele>366</ele>
        <time>2011-08-15T13:52:16Z</time>
      </trkpt>
      <trkpt lat="44.14168" lon="5.06839">
        <ele>366</ele>
        <time>2011-08-15T13:52:20Z</time>
      </trkpt>
      <trkpt lat="44.14163" lon="5.06856">
        <ele>367</ele>
        <time>2011-08-15T13:52:25Z</time>
      </trkpt>
      <trkpt lat="44.1416" lon="5.06866">
        <ele>368</ele>
        <time>2011-08-15T13:52:28Z</time>
      </trkpt>
      <trkpt lat="44.14157" lon="5.06877">
        <ele>368</ele>
        <time>2011-08-15T13:52:32Z</time>
      </trkpt>
      <trkpt lat="44.14151" lon="5.06893">
        <ele>370</ele>
        <time>2011-08-15T13:52:38Z</time>
      </trkpt>
      <trkpt lat="44.14148" lon="5.069">
        <ele>370</ele>
        <time>2011-08-15T13:52:41Z</time>
      </trkpt>
      <trkpt lat="44.14145" lon="5.0691">
        <ele>371</ele>
        <time>2011-08-15T13:52:44Z</time>
      </trkpt>
      <trkpt lat="44.1414" lon="5.06932">
        <ele>372</ele>
        <time>2011-08-15T13:52:50Z</time>
      </trkpt>
      <trkpt lat="44.14138" lon="5.06962">
        <ele>374</ele>
        <time>2011-08-15T13:52:54Z</time>
      </trkpt>
      <trkpt lat="44.14136" lon="5.06988">
        <ele>383</ele>
        <time>2011-08-15T13:52:57Z</time>
      </trkpt>
      <trkpt lat="44.14131" lon="5.07024">
        <ele>389</ele>
        <time>2011-08-15T13:53:01Z</time>
      </trkpt>
      <trkpt lat="44.14122" lon="5.07068">
        <ele>393</ele>
        <time>2011-08-15T13:53:05Z</time>
      </trkpt>
      <trkpt lat="44.14114" lon="5.07104">
        <ele>394</ele>
        <time>2011-08-15T13:53:08Z</time>
      </trkpt>
      <trkpt lat="44.14096" lon="5.0717">
        <ele>395</ele>
        <time>2011-08-15T13:53:13Z</time>
      </trkpt>
      <trkpt lat="44.14087" lon="5.07226">
        <ele>395</ele>
        <time>2011-08-15T13:53:17Z</time>
      </trkpt>
      <trkpt lat="44.14083" lon="5.07273">
        <ele>395</ele>
        <time>2011-08-15T13:53:21Z</time>
      </trkpt>
      <trkpt lat="44.14074" lon="5.07298">
        <ele>394</ele>
        <time>2011-08-15T13:53:24Z</time>
      </trkpt>
      <trkpt lat="44.14062" lon="5.07321">
        <ele>393</ele>
        <time>2011-08-15T13:53:28Z</time>
      </trkpt>
      <trkpt lat="44.14036" lon="5.07348">
        <ele>390</ele>
        <time>2011-08-15T13:53:33Z</time>
      </trkpt>
      <trkpt lat="44.14014" lon="5.07373">
        <ele>389</ele>
        <time>2011-08-15T13:53:36Z</time>
      </trkpt>
      <trkpt lat="44.13967" lon="5.07407">
        <ele>389</ele>
        <time>2011-08-15T13:53:41Z</time>
      </trkpt>
      <trkpt lat="44.13928" lon="5.07428">
        <ele>389</ele>
        <time>2011-08-15T13:53:45Z</time>
      </trkpt>
      <trkpt lat="44.13897" lon="5.07439">
        <ele>389</ele>
        <time>2011-08-15T13:53:48Z</time>
      </trkpt>
      <trkpt lat="44.13842" lon="5.07451">
        <ele>389</ele>
        <time>2011-08-15T13:53:53Z</time>
      </trkpt>
      <trkpt lat="44.13804" lon="5.07457">
        <ele>388</ele>
        <time>2011-08-15T13:53:57Z</time>
      </trkpt>
      <trkpt lat="44.13788" lon="5.0747">
        <ele>388</ele>
        <time>2011-08-15T13:54:00Z</time>
      </trkpt>
      <trkpt lat="44.13778" lon="5.0749">
        <ele>388</ele>
        <time>2011-08-15T13:54:04Z</time>
      </trkpt>
      <trkpt lat="44.13774" lon="5.075">
        <ele>388</ele>
        <time>2011-08-15T13:54:06Z</time>
      </trkpt>
      <trkpt lat="44.13765" lon="5.07516">
        <ele>388</ele>
        <time>2011-08-15T13:54:11Z</time>
      </trkpt>
      <trkpt lat="44.13765" lon="5.07525">
        <ele>388</ele>
        <time>2011-08-15T13:54:15Z</time>
      </trkpt>
      <trkpt lat="44.13768" lon="5.07534">
        <ele>388</ele>
        <time>2011-08-15T13:54:18Z</time>
      </trkpt>
      <trkpt lat="44.1377" lon="5.07553">
        <ele>388</ele>
        <time>2011-08-15T13:54:24Z</time>
      </trkpt>
      <trkpt lat="44.1377" lon="5.07562">
        <ele>388</ele>
        <time>2011-08-15T13:54:27Z</time>
      </trkpt>
      <trkpt lat="44.13764" lon="5.07567">
        <ele>389</ele>
        <time>2011-08-15T13:54:34Z</time>
      </trkpt>
      <trkpt lat="44.13759" lon="5.07573">
        <ele>389</ele>
        <time>2011-08-15T13:54:39Z</time>
      </trkpt>
      <trkpt lat="44.13744" lon="5.07581">
        <ele>390</ele>
        <time>2011-08-15T13:54:44Z</time>
      </trkpt>
      <trkpt lat="44.13738" lon="5.07584">
        <ele>390</ele>
        <time>2011-08-15T13:54:47Z</time>
      </trkpt>
      <trkpt lat="44.13733" lon="5.0759">
        <ele>390</ele>
        <time>2011-08-15T13:54:51Z</time>
      </trkpt>
      <trkpt lat="44.13728" lon="5.07599">
        <ele>390</ele>
        <time>2011-08-15T13:54:55Z</time>
      </trkpt>
      <trkpt lat="44.13725" lon="5.07609">
        <ele>391</ele>
        <time>2011-08-15T13:54:59Z</time>
      </trkpt>
      <trkpt lat="44.13723" lon="5.07618">
        <ele>391</ele>
        <time>2011-08-15T13:55:03Z</time>
      </trkpt>
      <trkpt lat="44.13722" lon="5.07628">
        <ele>391</ele>
        <time>2011-08-15T13:55:07Z</time>
      </trkpt>
      <trkpt lat="44.13721" lon="5.07638">
        <ele>391</ele>
        <time>2011-08-15T13:55:12Z</time>
      </trkpt>
      <trkpt lat="44.13719" lon="5.0765">
        <ele>392</ele>
        <time>2011-08-15T13:55:17Z</time>
      </trkpt>
      <trkpt lat="44.13717" lon="5.07661">
        <ele>392</ele>
        <time>2011-08-15T13:55:20Z</time>
      </trkpt>
      <trkpt lat="44.13715" lon="5.07672">
        <ele>392</ele>
        <time>2011-08-15T13:55:24Z</time>
      </trkpt>
      <trkpt lat="44.1371" lon="5.07681">
        <ele>392</ele>
        <time>2011-08-15T13:55:28Z</time>
      </trkpt>
      <trkpt lat="44.13706" lon="5.07689">
        <ele>393</ele>
        <time>2011-08-15T13:55:31Z</time>
      </trkpt>
      <trkpt lat="44.13703" lon="5.07697">
        <ele>393</ele>
        <time>2011-08-15T13:55:34Z</time>
      </trkpt>
      <trkpt lat="44.13693" lon="5.07712">
        <ele>393</ele>
        <time>2011-08-15T13:55:41Z</time>
      </trkpt>
      <trkpt lat="44.13687" lon="5.07722">
        <ele>394</ele>
        <time>2011-08-15T13:55:44Z</time>
      </trkpt>
      <trkpt lat="44.13682" lon="5.07732">
        <ele>394</ele>
        <time>2011-08-15T13:55:47Z</time>
      </trkpt>
      <trkpt lat="44.13672" lon="5.07748">
        <ele>394</ele>
        <time>2011-08-15T13:55:53Z</time>
      </trkpt>
      <trkpt lat="44.13667" lon="5.07755">
        <ele>394</ele>
        <time>2011-08-15T13:55:56Z</time>
      </trkpt>
      <trkpt lat="44.13662" lon="5.07764">
        <ele>394</ele>
        <time>2011-08-15T13:55:59Z</time>
      </trkpt>
      <trkpt lat="44.13657" lon="5.07773">
        <ele>394</ele>
        <time>2011-08-15T13:56:03Z</time>
      </trkpt>
      <trkpt lat="44.13645" lon="5.0779">
        <ele>395</ele>
        <time>2011-08-15T13:56:09Z</time>
      </trkpt>
      <trkpt lat="44.1364" lon="5.07796">
        <ele>395</ele>
        <time>2011-08-15T13:56:12Z</time>
      </trkpt>
      <trkpt lat="44.13635" lon="5.07804">
        <ele>395</ele>
        <time>2011-08-15T13:56:18Z</time>
      </trkpt>
      <trkpt lat="44.13631" lon="5.07812">
        <ele>395</ele>
        <time>2011-08-15T13:56:22Z</time>
      </trkpt>
      <trkpt lat="44.13626" lon="5.07832">
        <ele>395</ele>
        <time>2011-08-15T13:56:29Z</time>
      </trkpt>
      <trkpt lat="44.13624" lon="5.07843">
        <ele>395</ele>
        <time>2011-08-15T13:56:32Z</time>
      </trkpt>
      <trkpt lat="44.13622" lon="5.07854">
        <ele>396</ele>
        <time>2011-08-15T13:56:36Z</time>
      </trkpt>
      <trkpt lat="44.1362" lon="5.07865">
        <ele>396</ele>
        <time>2011-08-15T13:56:39Z</time>
      </trkpt>
      <trkpt lat="44.13616" lon="5.07872">
        <ele>395.999</ele>
        <time>2011-08-15T13:56:43Z</time>
      </trkpt>
      <trkpt lat="44.13614" lon="5.07882">
        <ele>396</ele>
        <time>2011-08-15T13:56:46Z</time>
      </trkpt>
      <trkpt lat="44.13614" lon="5.07882">
        <ele>357.5</ele>
        <time>2011-08-15T13:56:55Z</time>
      </trkpt>
      <trkpt lat="44.13614" lon="5.07882">
        <ele>357.5</ele>
        <time>2011-08-15T13:58:58Z</time>
      </trkpt>
      <trkpt lat="44.13614" lon="5.07882">
        <ele>357.5</ele>
        <time>2011-08-15T13:59:01Z</time>
      </trkpt>
      <trkpt lat="44.13614" lon="5.07882">
        <ele>357.5</ele>
        <time>2011-08-15T13:59:10Z</time>
      </trkpt>
      <trkpt lat="44.13614" lon="5.07882">
        <ele>357.5</ele>
        <time>2011-08-15T13:59:20Z</time>
      </trkpt>
      <trkpt lat="44.13642" lon="5.079">
        <ele>401</ele>
        <time>2011-08-15T13:59:23Z</time>
      </trkpt>
      <trkpt lat="44.1365" lon="5.07902">
        <ele>401</ele>
        <time>2011-08-15T13:59:26Z</time>
      </trkpt>
      <trkpt lat="44.13658" lon="5.07897">
        <ele>400</ele>
        <time>2011-08-15T13:59:29Z</time>
      </trkpt>
      <trkpt lat="44.13673" lon="5.07903">
        <ele>398.999</ele>
        <time>2011-08-15T13:59:35Z</time>
      </trkpt>
      <trkpt lat="44.13673" lon="5.07912">
        <ele>398.999</ele>
        <time>2011-08-15T13:59:38Z</time>
      </trkpt>
      <trkpt lat="44.13666" lon="5.07929">
        <ele>397.999</ele>
        <time>2011-08-15T13:59:42Z</time>
      </trkpt>
      <trkpt lat="44.13658" lon="5.07949">
        <ele>396.999</ele>
        <time>2011-08-15T13:59:46Z</time>
      </trkpt>
      <trkpt lat="44.13659" lon="5.07961">
        <ele>396.999</ele>
        <time>2011-08-15T13:59:49Z</time>
      </trkpt>
      <trkpt lat="44.13664" lon="5.07979">
        <ele>395.999</ele>
        <time>2011-08-15T13:59:55Z</time>
      </trkpt>
      <trkpt lat="44.1367" lon="5.07986">
        <ele>394.999</ele>
        <time>2011-08-15T13:59:59Z</time>
      </trkpt>
      <trkpt lat="44.13672" lon="5.08">
        <ele>393.999</ele>
        <time>2011-08-15T14:00:05Z</time>
      </trkpt>
      <trkpt lat="44.13678" lon="5.0804">
        <ele>393</ele>
        <time>2011-08-15T14:00:19Z</time>
      </trkpt>
      <trkpt lat="44.1369" lon="5.08046">
        <ele>393</ele>
        <time>2011-08-15T14:00:23Z</time>
      </trkpt>
      <trkpt lat="44.13699" lon="5.08051">
        <ele>393.001</ele>
        <time>2011-08-15T14:00:26Z</time>
      </trkpt>
      <trkpt lat="44.13713" lon="5.08054">
        <ele>393.001</ele>
        <time>2011-08-15T14:00:30Z</time>
      </trkpt>
      <trkpt lat="44.13727" lon="5.08055">
        <ele>393</ele>
        <time>2011-08-15T14:00:34Z</time>
      </trkpt>
      <trkpt lat="44.1374" lon="5.08058">
        <ele>393</ele>
        <time>2011-08-15T14:00:38Z</time>
      </trkpt>
      <trkpt lat="44.13753" lon="5.08062">
        <ele>393</ele>
        <time>2011-08-15T14:00:42Z</time>
      </trkpt>
      <trkpt lat="44.13765" lon="5.08073">
        <ele>393</ele>
        <time>2011-08-15T14:00:47Z</time>
      </trkpt>
      <trkpt lat="44.13777" lon="5.08083">
        <ele>393</ele>
        <time>2011-08-15T14:00:51Z</time>
      </trkpt>
      <trkpt lat="44.13789" lon="5.08094">
        <ele>393</ele>
        <time>2011-08-15T14:00:55Z</time>
      </trkpt>
      <trkpt lat="44.13798" lon="5.08108">
        <ele>392.999</ele>
        <time>2011-08-15T14:00:59Z</time>
      </trkpt>
      <trkpt lat="44.13808" lon="5.08131">
        <ele>393</ele>
        <time>2011-08-15T14:01:02Z</time>
      </trkpt>
      <trkpt lat="44.13812" lon="5.08141">
        <ele>393</ele>
        <time>2011-08-15T14:01:05Z</time>
      </trkpt>
      <trkpt lat="44.13824" lon="5.08152">
        <ele>393</ele>
        <time>2011-08-15T14:01:10Z</time>
      </trkpt>
      <trkpt lat="44.13837" lon="5.08158">
        <ele>393</ele>
        <time>2011-08-15T14:01:14Z</time>
      </trkpt>
      <trkpt lat="44.13852" lon="5.08166">
        <ele>393</ele>
        <time>2011-08-15T14:01:18Z</time>
      </trkpt>
      <trkpt lat="44.13867" lon="5.08156">
        <ele>393</ele>
        <time>2011-08-15T14:01:22Z</time>
      </trkpt>
      <trkpt lat="44.13881" lon="5.08147">
        <ele>394</ele>
        <time>2011-08-15T14:01:26Z</time>
      </trkpt>
      <trkpt lat="44.13887" lon="5.08142">
        <ele>394</ele>
        <time>2011-08-15T14:01:28Z</time>
      </trkpt>
      <trkpt lat="44.1392" lon="5.0812">
        <ele>394</ele>
        <time>2011-08-15T14:01:38Z</time>
      </trkpt>
      <trkpt lat="44.13934" lon="5.08113">
        <ele>394</ele>
        <time>2011-08-15T14:01:42Z</time>
      </trkpt>
      <trkpt lat="44.13949" lon="5.08109">
        <ele>394</ele>
        <time>2011-08-15T14:01:46Z</time>
      </trkpt>
      <trkpt lat="44.13965" lon="5.08109">
        <ele>395</ele>
        <time>2011-08-15T14:01:50Z</time>
      </trkpt>
      <trkpt lat="44.13981" lon="5.08113">
        <ele>396</ele>
        <time>2011-08-15T14:01:54Z</time>
      </trkpt>
      <trkpt lat="44.13974" lon="5.08167">
        <ele>403</ele>
        <time>2011-08-15T14:02:03Z</time>
      </trkpt>
      <trkpt lat="44.13957" lon="5.08188">
        <ele>405</ele>
        <time>2011-08-15T14:02:06Z</time>
      </trkpt>
      <trkpt lat="44.13952" lon="5.08203">
        <ele>406</ele>
        <time>2011-08-15T14:02:08Z</time>
      </trkpt>
      <trkpt lat="44.14003" lon="5.08236">
        <ele>406</ele>
        <time>2011-08-15T14:02:19Z</time>
      </trkpt>
      <trkpt lat="44.14044" lon="5.08236">
        <ele>405</ele>
        <time>2011-08-15T14:02:23Z</time>
      </trkpt>
      <trkpt lat="44.14077" lon="5.083">
        <ele>404</ele>
        <time>2011-08-15T14:02:27Z</time>
      </trkpt>
      <trkpt lat="44.14095" lon="5.08367">
        <ele>402</ele>
        <time>2011-08-15T14:02:31Z</time>
      </trkpt>
      <trkpt lat="44.1411" lon="5.0843">
        <ele>401</ele>
        <time>2011-08-15T14:02:35Z</time>
      </trkpt>
      <trkpt lat="44.14124" lon="5.08484">
        <ele>400</ele>
        <time>2011-08-15T14:02:39Z</time>
      </trkpt>
      <trkpt lat="44.14131" lon="5.08539">
        <ele>398</ele>
        <time>2011-08-15T14:02:43Z</time>
      </trkpt>
      <trkpt lat="44.14141" lon="5.08591">
        <ele>398</ele>
        <time>2011-08-15T14:02:47Z</time>
      </trkpt>
      <trkpt lat="44.1415" lon="5.08641">
        <ele>397</ele>
        <time>2011-08-15T14:02:51Z</time>
      </trkpt>
      <trkpt lat="44.14165" lon="5.0868">
        <ele>396</ele>
        <time>2011-08-15T14:02:57Z</time>
      </trkpt>
      <trkpt lat="44.14172" lon="5.08688">
        <ele>393</ele>
        <time>2011-08-15T14:03:02Z</time>
      </trkpt>
      <trkpt lat="44.14196" lon="5.08673">
        <ele>390</ele>
        <time>2011-08-15T14:03:07Z</time>
      </trkpt>
      <trkpt lat="44.14217" lon="5.08671">
        <ele>390</ele>
        <time>2011-08-15T14:03:11Z</time>
      </trkpt>
      <trkpt lat="44.14234" lon="5.08674">
        <ele>390</ele>
        <time>2011-08-15T14:03:15Z</time>
      </trkpt>
      <trkpt lat="44.14241" lon="5.08675">
        <ele>390</ele>
        <time>2011-08-15T14:03:17Z</time>
      </trkpt>
      <trkpt lat="44.14257" lon="5.08691">
        <ele>390</ele>
        <time>2011-08-15T14:03:23Z</time>
      </trkpt>
      <trkpt lat="44.14259" lon="5.08713">
        <ele>390</ele>
        <time>2011-08-15T14:03:27Z</time>
      </trkpt>
      <trkpt lat="44.14259" lon="5.08722">
        <ele>390</ele>
        <time>2011-08-15T14:03:29Z</time>
      </trkpt>
      <trkpt lat="44.14263" lon="5.08746">
        <ele>391</ele>
        <time>2011-08-15T14:03:35Z</time>
      </trkpt>
      <trkpt lat="44.14269" lon="5.08755">
        <ele>391</ele>
        <time>2011-08-15T14:03:38Z</time>
      </trkpt>
      <trkpt lat="44.14275" lon="5.08765">
        <ele>391</ele>
        <time>2011-08-15T14:03:41Z</time>
      </trkpt>
      <trkpt lat="44.14282" lon="5.08788">
        <ele>391</ele>
        <time>2011-08-15T14:03:47Z</time>
      </trkpt>
      <trkpt lat="44.14284" lon="5.08798">
        <ele>391</ele>
        <time>2011-08-15T14:03:50Z</time>
      </trkpt>
      <trkpt lat="44.14284" lon="5.08798">
        <ele>352.3</ele>
        <time>2011-08-15T14:04:01Z</time>
      </trkpt>
      <trkpt lat="44.14284" lon="5.08798">
        <ele>352.3</ele>
        <time>2011-08-15T14:04:30Z</time>
      </trkpt>
      <trkpt lat="44.14284" lon="5.08798">
        <ele>352.3</ele>
        <time>2011-08-15T14:04:41Z</time>
      </trkpt>
      <trkpt lat="44.14284" lon="5.08798">
        <ele>352.3</ele>
        <time>2011-08-15T14:04:47Z</time>
      </trkpt>
      <trkpt lat="44.14322" lon="5.0883">
        <ele>392</ele>
        <time>2011-08-15T14:04:49Z</time>
      </trkpt>
      <trkpt lat="44.14347" lon="5.08858">
        <ele>392</ele>
        <time>2011-08-15T14:04:58Z</time>
      </trkpt>
      <trkpt lat="44.14357" lon="5.08874">
        <ele>392</ele>
        <time>2011-08-15T14:05:02Z</time>
      </trkpt>
      <trkpt lat="44.14373" lon="5.08907">
        <ele>392</ele>
        <time>2011-08-15T14:05:10Z</time>
      </trkpt>
      <trkpt lat="44.14376" lon="5.08915">
        <ele>392</ele>
        <time>2011-08-15T14:05:12Z</time>
      </trkpt>
      <trkpt lat="44.14376" lon="5.08915">
        <ele>362.8</ele>
        <time>2011-08-15T14:05:24Z</time>
      </trkpt>
      <trkpt lat="44.14376" lon="5.08915">
        <ele>362.8</ele>
        <time>2011-08-15T14:07:26Z</time>
      </trkpt>
      <trkpt lat="44.14426" lon="5.08931">
        <ele>337.999</ele>
        <time>2011-08-15T14:07:27Z</time>
      </trkpt>
      <trkpt lat="44.14426" lon="5.08931">
        <ele>355.2</ele>
        <time>2011-08-15T14:07:39Z</time>
      </trkpt>
      <trkpt lat="44.14426" lon="5.08931">
        <ele>355.2</ele>
        <time>2011-08-15T14:09:25Z</time>
      </trkpt>
      <trkpt lat="44.14243" lon="5.09116">
        <ele>377</ele>
        <time>2011-08-15T14:09:29Z</time>
      </trkpt>
      <trkpt lat="44.14215" lon="5.0914">
        <ele>384</ele>
        <time>2011-08-15T14:09:33Z</time>
      </trkpt>
      <trkpt lat="44.14196" lon="5.092">
        <ele>387</ele>
        <time>2011-08-15T14:09:37Z</time>
      </trkpt>
      <trkpt lat="44.14184" lon="5.09268">
        <ele>388</ele>
        <time>2011-08-15T14:09:41Z</time>
      </trkpt>
      <trkpt lat="44.14186" lon="5.09304">
        <ele>388</ele>
        <time>2011-08-15T14:09:43Z</time>
      </trkpt>
      <trkpt lat="44.14191" lon="5.09412">
        <ele>388</ele>
        <time>2011-08-15T14:09:49Z</time>
      </trkpt>
      <trkpt lat="44.14176" lon="5.09481">
        <ele>387</ele>
        <time>2011-08-15T14:09:53Z</time>
      </trkpt>
      <trkpt lat="44.14147" lon="5.09542">
        <ele>385</ele>
        <time>2011-08-15T14:09:57Z</time>
      </trkpt>
      <trkpt lat="44.14127" lon="5.09573">
        <ele>382</ele>
        <time>2011-08-15T14:10:00Z</time>
      </trkpt>
      <trkpt lat="44.14108" lon="5.09598">
        <ele>379</ele>
        <time>2011-08-15T14:10:03Z</time>
      </trkpt>
      <trkpt lat="44.14072" lon="5.09637">
        <ele>374</ele>
        <time>2011-08-15T14:10:09Z</time>
      </trkpt>
      <trkpt lat="44.14055" lon="5.09665">
        <ele>373</ele>
        <time>2011-08-15T14:10:13Z</time>
      </trkpt>
      <trkpt lat="44.14044" lon="5.09687">
        <ele>372</ele>
        <time>2011-08-15T14:10:16Z</time>
      </trkpt>
      <trkpt lat="44.1403" lon="5.0971">
        <ele>372</ele>
        <time>2011-08-15T14:10:20Z</time>
      </trkpt>
      <trkpt lat="44.14011" lon="5.09722">
        <ele>372</ele>
        <time>2011-08-15T14:10:24Z</time>
      </trkpt>
      <trkpt lat="44.13983" lon="5.09719">
        <ele>371</ele>
        <time>2011-08-15T14:10:29Z</time>
      </trkpt>
      <trkpt lat="44.13956" lon="5.09722">
        <ele>371</ele>
        <time>2011-08-15T14:10:33Z</time>
      </trkpt>
      <trkpt lat="44.13931" lon="5.0973">
        <ele>372</ele>
        <time>2011-08-15T14:10:37Z</time>
      </trkpt>
      <trkpt lat="44.13911" lon="5.09735">
        <ele>372</ele>
        <time>2011-08-15T14:10:41Z</time>
      </trkpt>
      <trkpt lat="44.13902" lon="5.09736">
        <ele>372</ele>
        <time>2011-08-15T14:10:43Z</time>
      </trkpt>
      <trkpt lat="44.13867" lon="5.09764">
        <ele>373</ele>
        <time>2011-08-15T14:10:53Z</time>
      </trkpt>
      <trkpt lat="44.13856" lon="5.09788">
        <ele>373</ele>
        <time>2011-08-15T14:10:57Z</time>
      </trkpt>
      <trkpt lat="44.13844" lon="5.09806">
        <ele>373</ele>
        <time>2011-08-15T14:11:01Z</time>
      </trkpt>
      <trkpt lat="44.1384" lon="5.09814">
        <ele>373</ele>
        <time>2011-08-15T14:11:03Z</time>
      </trkpt>
      <trkpt lat="44.13834" lon="5.09821">
        <ele>373</ele>
        <time>2011-08-15T14:11:06Z</time>
      </trkpt>
      <trkpt lat="44.13834" lon="5.09821">
        <ele>306.4</ele>
        <time>2011-08-15T14:11:18Z</time>
      </trkpt>
      <trkpt lat="44.13834" lon="5.09821">
        <ele>306.4</ele>
        <time>2011-08-15T14:12:09Z</time>
      </trkpt>
      <trkpt lat="44.13824" lon="5.09834">
        <ele>371</ele>
        <time>2011-08-15T14:12:13Z</time>
      </trkpt>
      <trkpt lat="44.1381" lon="5.09836">
        <ele>371</ele>
        <time>2011-08-15T14:12:17Z</time>
      </trkpt>
      <trkpt lat="44.13794" lon="5.09806">
        <ele>372</ele>
        <time>2011-08-15T14:12:21Z</time>
      </trkpt>
      <trkpt lat="44.13755" lon="5.09801">
        <ele>371</ele>
        <time>2011-08-15T14:12:28Z</time>
      </trkpt>
      <trkpt lat="44.13733" lon="5.09811">
        <ele>371</ele>
        <time>2011-08-15T14:12:32Z</time>
      </trkpt>
      <trkpt lat="44.13702" lon="5.09823">
        <ele>371</ele>
        <time>2011-08-15T14:12:37Z</time>
      </trkpt>
      <trkpt lat="44.13673" lon="5.09833">
        <ele>371</ele>
        <time>2011-08-15T14:12:41Z</time>
      </trkpt>
      <trkpt lat="44.13642" lon="5.09841">
        <ele>372</ele>
        <time>2011-08-15T14:12:45Z</time>
      </trkpt>
      <trkpt lat="44.13608" lon="5.09845">
        <ele>372</ele>
        <time>2011-08-15T14:12:49Z</time>
      </trkpt>
      <trkpt lat="44.13573" lon="5.09852">
        <ele>372</ele>
        <time>2011-08-15T14:12:53Z</time>
      </trkpt>
      <trkpt lat="44.13538" lon="5.09856">
        <ele>372</ele>
        <time>2011-08-15T14:12:57Z</time>
      </trkpt>
      <trkpt lat="44.13519" lon="5.09854">
        <ele>371</ele>
        <time>2011-08-15T14:13:00Z</time>
      </trkpt>
      <trkpt lat="44.13499" lon="5.09849">
        <ele>370</ele>
        <time>2011-08-15T14:13:04Z</time>
      </trkpt>
      <trkpt lat="44.1348" lon="5.09849">
        <ele>369</ele>
        <time>2011-08-15T14:13:08Z</time>
      </trkpt>
      <trkpt lat="44.13459" lon="5.09852">
        <ele>369</ele>
        <time>2011-08-15T14:13:12Z</time>
      </trkpt>
      <trkpt lat="44.13436" lon="5.0985">
        <ele>368</ele>
        <time>2011-08-15T14:13:16Z</time>
      </trkpt>
      <trkpt lat="44.13415" lon="5.09857">
        <ele>368</ele>
        <time>2011-08-15T14:13:20Z</time>
      </trkpt>
      <trkpt lat="44.13401" lon="5.09868">
        <ele>368</ele>
        <time>2011-08-15T14:13:24Z</time>
      </trkpt>
      <trkpt lat="44.13401" lon="5.09868">
        <ele>287.5</ele>
        <time>2011-08-15T14:13:36Z</time>
      </trkpt>
      <trkpt lat="44.13401" lon="5.09868">
        <ele>287.5</ele>
        <time>2011-08-15T14:14:10Z</time>
      </trkpt>
      <trkpt lat="44.13361" lon="5.09923">
        <ele>358</ele>
        <time>2011-08-15T14:14:12Z</time>
      </trkpt>
      <trkpt lat="44.13339" lon="5.09945">
        <ele>357</ele>
        <time>2011-08-15T14:14:16Z</time>
      </trkpt>
      <trkpt lat="44.13318" lon="5.0994">
        <ele>355</ele>
        <time>2011-08-15T14:14:20Z</time>
      </trkpt>
      <trkpt lat="44.13294" lon="5.09945">
        <ele>354</ele>
        <time>2011-08-15T14:14:24Z</time>
      </trkpt>
      <trkpt lat="44.13268" lon="5.09949">
        <ele>354</ele>
        <time>2011-08-15T14:14:28Z</time>
      </trkpt>
      <trkpt lat="44.13242" lon="5.0996">
        <ele>354</ele>
        <time>2011-08-15T14:14:32Z</time>
      </trkpt>
      <trkpt lat="44.13213" lon="5.09978">
        <ele>354</ele>
        <time>2011-08-15T14:14:36Z</time>
      </trkpt>
      <trkpt lat="44.13189" lon="5.09989">
        <ele>354</ele>
        <time>2011-08-15T14:14:40Z</time>
      </trkpt>
      <trkpt lat="44.1316" lon="5.09998">
        <ele>353</ele>
        <time>2011-08-15T14:14:44Z</time>
      </trkpt>
      <trkpt lat="44.13123" lon="5.09984">
        <ele>352</ele>
        <time>2011-08-15T14:14:48Z</time>
      </trkpt>
      <trkpt lat="44.13096" lon="5.09976">
        <ele>347</ele>
        <time>2011-08-15T14:14:52Z</time>
      </trkpt>
      <trkpt lat="44.13071" lon="5.1">
        <ele>341</ele>
        <time>2011-08-15T14:14:56Z</time>
      </trkpt>
      <trkpt lat="44.13052" lon="5.10031">
        <ele>338</ele>
        <time>2011-08-15T14:14:59Z</time>
      </trkpt>
      <trkpt lat="44.13029" lon="5.10066">
        <ele>335</ele>
        <time>2011-08-15T14:15:04Z</time>
      </trkpt>
      <trkpt lat="44.13025" lon="5.10075">
        <ele>334</ele>
        <time>2011-08-15T14:15:07Z</time>
      </trkpt>
      <trkpt lat="44.13054" lon="5.10072">
        <ele>335</ele>
        <time>2011-08-15T14:15:15Z</time>
      </trkpt>
      <trkpt lat="44.13045" lon="5.10094">
        <ele>333</ele>
        <time>2011-08-15T14:15:20Z</time>
      </trkpt>
      <trkpt lat="44.13025" lon="5.10115">
        <ele>328</ele>
        <time>2011-08-15T14:15:24Z</time>
      </trkpt>
      <trkpt lat="44.13025" lon="5.10115">
        <ele>232.8</ele>
        <time>2011-08-15T14:15:36Z</time>
      </trkpt>
      <trkpt lat="44.13025" lon="5.10115">
        <ele>232.8</ele>
        <time>2011-08-15T14:16:41Z</time>
      </trkpt>
      <trkpt lat="44.12995" lon="5.1017">
        <ele>332</ele>
        <time>2011-08-15T14:16:45Z</time>
      </trkpt>
      <trkpt lat="44.13" lon="5.10187">
        <ele>332</ele>
        <time>2011-08-15T14:16:49Z</time>
      </trkpt>
      <trkpt lat="44.12997" lon="5.1021">
        <ele>333</ele>
        <time>2011-08-15T14:16:53Z</time>
      </trkpt>
      <trkpt lat="44.12995" lon="5.10238">
        <ele>339</ele>
        <time>2011-08-15T14:16:57Z</time>
      </trkpt>
      <trkpt lat="44.12983" lon="5.10267">
        <ele>343</ele>
        <time>2011-08-15T14:17:02Z</time>
      </trkpt>
      <trkpt lat="44.12943" lon="5.10279">
        <ele>343</ele>
        <time>2011-08-15T14:17:06Z</time>
      </trkpt>
      <trkpt lat="44.12902" lon="5.10298">
        <ele>343</ele>
        <time>2011-08-15T14:17:10Z</time>
      </trkpt>
      <trkpt lat="44.12869" lon="5.1032">
        <ele>342</ele>
        <time>2011-08-15T14:17:14Z</time>
      </trkpt>
      <trkpt lat="44.12841" lon="5.10349">
        <ele>341</ele>
        <time>2011-08-15T14:17:18Z</time>
      </trkpt>
      <trkpt lat="44.12812" lon="5.10376">
        <ele>338</ele>
        <time>2011-08-15T14:17:22Z</time>
      </trkpt>
      <trkpt lat="44.12784" lon="5.10406">
        <ele>333</ele>
        <time>2011-08-15T14:17:26Z</time>
      </trkpt>
      <trkpt lat="44.12757" lon="5.10432">
        <ele>328</ele>
        <time>2011-08-15T14:17:30Z</time>
      </trkpt>
      <trkpt lat="44.1273" lon="5.10454">
        <ele>323</ele>
        <time>2011-08-15T14:17:34Z</time>
      </trkpt>
      <trkpt lat="44.12706" lon="5.10472">
        <ele>319</ele>
        <time>2011-08-15T14:17:38Z</time>
      </trkpt>
      <trkpt lat="44.12695" lon="5.1048">
        <ele>317</ele>
        <time>2011-08-15T14:17:40Z</time>
      </trkpt>
      <trkpt lat="44.12669" lon="5.10495">
        <ele>315</ele>
        <time>2011-08-15T14:17:45Z</time>
      </trkpt>
      <trkpt lat="44.12628" lon="5.10499">
        <ele>314</ele>
        <time>2011-08-15T14:17:53Z</time>
      </trkpt>
      <trkpt lat="44.12612" lon="5.10496">
        <ele>314</ele>
        <time>2011-08-15T14:17:57Z</time>
      </trkpt>
      <trkpt lat="44.12617" lon="5.10507">
        <ele>315</ele>
        <time>2011-08-15T14:18:07Z</time>
      </trkpt>
      <trkpt lat="44.12596" lon="5.10562">
        <ele>316</ele>
        <time>2011-08-15T14:18:17Z</time>
      </trkpt>
      <trkpt lat="44.12594" lon="5.10585">
        <ele>317</ele>
        <time>2011-08-15T14:18:21Z</time>
      </trkpt>
      <trkpt lat="44.12596" lon="5.10608">
        <ele>321</ele>
        <time>2011-08-15T14:18:25Z</time>
      </trkpt>
      <trkpt lat="44.12595" lon="5.1063">
        <ele>324</ele>
        <time>2011-08-15T14:18:29Z</time>
      </trkpt>
      <trkpt lat="44.12589" lon="5.10652">
        <ele>326</ele>
        <time>2011-08-15T14:18:33Z</time>
      </trkpt>
      <trkpt lat="44.12583" lon="5.10677">
        <ele>327</ele>
        <time>2011-08-15T14:18:37Z</time>
      </trkpt>
      <trkpt lat="44.12581" lon="5.1069">
        <ele>327</ele>
        <time>2011-08-15T14:18:39Z</time>
      </trkpt>
      <trkpt lat="44.12566" lon="5.1077">
        <ele>328</ele>
        <time>2011-08-15T14:18:49Z</time>
      </trkpt>
      <trkpt lat="44.12563" lon="5.10786">
        <ele>328</ele>
        <time>2011-08-15T14:18:51Z</time>
      </trkpt>
      <trkpt lat="44.12498" lon="5.10846">
        <ele>327</ele>
        <time>2011-08-15T14:18:58Z</time>
      </trkpt>
      <trkpt lat="44.12434" lon="5.10855">
        <ele>322</ele>
        <time>2011-08-15T14:19:02Z</time>
      </trkpt>
      <trkpt lat="44.1235" lon="5.10824">
        <ele>314</ele>
        <time>2011-08-15T14:19:06Z</time>
      </trkpt>
      <trkpt lat="44.12278" lon="5.10807">
        <ele>312</ele>
        <time>2011-08-15T14:19:10Z</time>
      </trkpt>
      <trkpt lat="44.1221" lon="5.10798">
        <ele>313</ele>
        <time>2011-08-15T14:19:14Z</time>
      </trkpt>
      <trkpt lat="44.12149" lon="5.10791">
        <ele>313</ele>
        <time>2011-08-15T14:19:18Z</time>
      </trkpt>
      <trkpt lat="44.12119" lon="5.10788">
        <ele>313</ele>
        <time>2011-08-15T14:19:20Z</time>
      </trkpt>
      <trkpt lat="44.12252" lon="5.1099">
        <ele>326</ele>
        <time>2011-08-15T14:19:25Z</time>
      </trkpt>
      <trkpt lat="44.12195" lon="5.10996">
        <ele>334</ele>
        <time>2011-08-15T14:19:33Z</time>
      </trkpt>
      <trkpt lat="44.12157" lon="5.10979">
        <ele>332</ele>
        <time>2011-08-15T14:19:37Z</time>
      </trkpt>
      <trkpt lat="44.1213" lon="5.1096">
        <ele>331</ele>
        <time>2011-08-15T14:19:41Z</time>
      </trkpt>
      <trkpt lat="44.12115" lon="5.10937">
        <ele>332</ele>
        <time>2011-08-15T14:19:45Z</time>
      </trkpt>
      <trkpt lat="44.12105" lon="5.10939">
        <ele>329</ele>
        <time>2011-08-15T14:19:47Z</time>
      </trkpt>
      <trkpt lat="44.12083" lon="5.1094">
        <ele>324</ele>
        <time>2011-08-15T14:19:51Z</time>
      </trkpt>
      <trkpt lat="44.12053" lon="5.10922">
        <ele>316</ele>
        <time>2011-08-15T14:19:57Z</time>
      </trkpt>
      <trkpt lat="44.12031" lon="5.10904">
        <ele>311</ele>
        <time>2011-08-15T14:20:01Z</time>
      </trkpt>
      <trkpt lat="44.12008" lon="5.10888">
        <ele>306</ele>
        <time>2011-08-15T14:20:05Z</time>
      </trkpt>
      <trkpt lat="44.11983" lon="5.10876">
        <ele>302</ele>
        <time>2011-08-15T14:20:09Z</time>
      </trkpt>
      <trkpt lat="44.11959" lon="5.10863">
        <ele>298</ele>
        <time>2011-08-15T14:20:13Z</time>
      </trkpt>
      <trkpt lat="44.11935" lon="5.10851">
        <ele>294</ele>
        <time>2011-08-15T14:20:17Z</time>
      </trkpt>
      <trkpt lat="44.11912" lon="5.10835">
        <ele>292</ele>
        <time>2011-08-15T14:20:21Z</time>
      </trkpt>
      <trkpt lat="44.11888" lon="5.10823">
        <ele>290</ele>
        <time>2011-08-15T14:20:25Z</time>
      </trkpt>
      <trkpt lat="44.11862" lon="5.10818">
        <ele>289</ele>
        <time>2011-08-15T14:20:29Z</time>
      </trkpt>
      <trkpt lat="44.11838" lon="5.10817">
        <ele>287</ele>
        <time>2011-08-15T14:20:33Z</time>
      </trkpt>
      <trkpt lat="44.11812" lon="5.10814">
        <ele>285</ele>
        <time>2011-08-15T14:20:37Z</time>
      </trkpt>
      <trkpt lat="44.11787" lon="5.10814">
        <ele>284</ele>
        <time>2011-08-15T14:20:41Z</time>
      </trkpt>
      <trkpt lat="44.11762" lon="5.10812">
        <ele>283</ele>
        <time>2011-08-15T14:20:45Z</time>
      </trkpt>
      <trkpt lat="44.11737" lon="5.10809">
        <ele>283</ele>
        <time>2011-08-15T14:20:49Z</time>
      </trkpt>
      <trkpt lat="44.11714" lon="5.10804">
        <ele>282</ele>
        <time>2011-08-15T14:20:53Z</time>
      </trkpt>
      <trkpt lat="44.11704" lon="5.10801">
        <ele>282</ele>
        <time>2011-08-15T14:20:55Z</time>
      </trkpt>
      <trkpt lat="44.11671" lon="5.10794">
        <ele>282</ele>
        <time>2011-08-15T14:21:01Z</time>
      </trkpt>
      <trkpt lat="44.1163" lon="5.10796">
        <ele>282</ele>
        <time>2011-08-15T14:21:08Z</time>
      </trkpt>
      <trkpt lat="44.11583" lon="5.10805">
        <ele>282</ele>
        <time>2011-08-15T14:21:14Z</time>
      </trkpt>
      <trkpt lat="44.11548" lon="5.1081">
        <ele>283</ele>
        <time>2011-08-15T14:21:18Z</time>
      </trkpt>
      <trkpt lat="44.11514" lon="5.10814">
        <ele>283</ele>
        <time>2011-08-15T14:21:22Z</time>
      </trkpt>
      <trkpt lat="44.11477" lon="5.1082">
        <ele>283</ele>
        <time>2011-08-15T14:21:26Z</time>
      </trkpt>
      <trkpt lat="44.11437" lon="5.10825">
        <ele>283</ele>
        <time>2011-08-15T14:21:30Z</time>
      </trkpt>
      <trkpt lat="44.11397" lon="5.10826">
        <ele>283</ele>
        <time>2011-08-15T14:21:34Z</time>
      </trkpt>
      <trkpt lat="44.1136" lon="5.10826">
        <ele>283</ele>
        <time>2011-08-15T14:21:38Z</time>
      </trkpt>
      <trkpt lat="44.11321" lon="5.10823">
        <ele>282</ele>
        <time>2011-08-15T14:21:42Z</time>
      </trkpt>
      <trkpt lat="44.11281" lon="5.10818">
        <ele>282</ele>
        <time>2011-08-15T14:21:46Z</time>
      </trkpt>
      <trkpt lat="44.11246" lon="5.10797">
        <ele>282</ele>
        <time>2011-08-15T14:21:50Z</time>
      </trkpt>
      <trkpt lat="44.11228" lon="5.10774">
        <ele>281</ele>
        <time>2011-08-15T14:21:53Z</time>
      </trkpt>
      <trkpt lat="44.1121" lon="5.10747">
        <ele>281</ele>
        <time>2011-08-15T14:21:57Z</time>
      </trkpt>
      <trkpt lat="44.11192" lon="5.10726">
        <ele>280</ele>
        <time>2011-08-15T14:22:01Z</time>
      </trkpt>
      <trkpt lat="44.11184" lon="5.10715">
        <ele>279</ele>
        <time>2011-08-15T14:22:03Z</time>
      </trkpt>
      <trkpt lat="44.11153" lon="5.10691">
        <ele>279</ele>
        <time>2011-08-15T14:22:09Z</time>
      </trkpt>
      <trkpt lat="44.11143" lon="5.10682">
        <ele>279</ele>
        <time>2011-08-15T14:22:11Z</time>
      </trkpt>
      <trkpt lat="44.11112" lon="5.10667">
        <ele>280</ele>
        <time>2011-08-15T14:22:17Z</time>
      </trkpt>
      <trkpt lat="44.11102" lon="5.10665">
        <ele>281</ele>
        <time>2011-08-15T14:22:19Z</time>
      </trkpt>
      <trkpt lat="44.1105" lon="5.10679">
        <ele>283</ele>
        <time>2011-08-15T14:22:29Z</time>
      </trkpt>
      <trkpt lat="44.11029" lon="5.1069">
        <ele>284</ele>
        <time>2011-08-15T14:22:33Z</time>
      </trkpt>
      <trkpt lat="44.1101" lon="5.10696">
        <ele>284</ele>
        <time>2011-08-15T14:22:37Z</time>
      </trkpt>
      <trkpt lat="44.10995" lon="5.10701">
        <ele>284</ele>
        <time>2011-08-15T14:22:41Z</time>
      </trkpt>
      <trkpt lat="44.10959" lon="5.10697">
        <ele>283</ele>
        <time>2011-08-15T14:22:50Z</time>
      </trkpt>
      <trkpt lat="44.10943" lon="5.10693">
        <ele>283</ele>
        <time>2011-08-15T14:22:54Z</time>
      </trkpt>
      <trkpt lat="44.10898" lon="5.10672">
        <ele>272</ele>
        <time>2011-08-15T14:22:58Z</time>
      </trkpt>
      <trkpt lat="44.1088" lon="5.1067">
        <ele>269</ele>
        <time>2011-08-15T14:23:01Z</time>
      </trkpt>
      <trkpt lat="44.10868" lon="5.10686">
        <ele>267</ele>
        <time>2011-08-15T14:23:05Z</time>
      </trkpt>
      <trkpt lat="44.10855" lon="5.10635">
        <ele>267</ele>
        <time>2011-08-15T14:23:10Z</time>
      </trkpt>
      <trkpt lat="44.10878" lon="5.10598">
        <ele>268</ele>
        <time>2011-08-15T14:23:14Z</time>
      </trkpt>
      <trkpt lat="44.10883" lon="5.10587">
        <ele>268</ele>
        <time>2011-08-15T14:23:15Z</time>
      </trkpt>
      <trkpt lat="44.10896" lon="5.10536">
        <ele>265</ele>
        <time>2011-08-15T14:23:19Z</time>
      </trkpt>
      <trkpt lat="44.10893" lon="5.1046">
        <ele>262</ele>
        <time>2011-08-15T14:23:26Z</time>
      </trkpt>
      <trkpt lat="44.10893" lon="5.10418">
        <ele>262</ele>
        <time>2011-08-15T14:23:30Z</time>
      </trkpt>
      <trkpt lat="44.10893" lon="5.10372">
        <ele>263</ele>
        <time>2011-08-15T14:23:34Z</time>
      </trkpt>
      <trkpt lat="44.10891" lon="5.10322">
        <ele>263</ele>
        <time>2011-08-15T14:23:38Z</time>
      </trkpt>
      <trkpt lat="44.10895" lon="5.10277">
        <ele>262</ele>
        <time>2011-08-15T14:23:42Z</time>
      </trkpt>
      <trkpt lat="44.10912" lon="5.10232">
        <ele>259</ele>
        <time>2011-08-15T14:23:46Z</time>
      </trkpt>
      <trkpt lat="44.10929" lon="5.1019">
        <ele>254</ele>
        <time>2011-08-15T14:23:50Z</time>
      </trkpt>
      <trkpt lat="44.10924" lon="5.10147">
        <ele>250</ele>
        <time>2011-08-15T14:23:54Z</time>
      </trkpt>
      <trkpt lat="44.1091" lon="5.10106">
        <ele>246</ele>
        <time>2011-08-15T14:23:58Z</time>
      </trkpt>
      <trkpt lat="44.10896" lon="5.10065">
        <ele>244</ele>
        <time>2011-08-15T14:24:02Z</time>
      </trkpt>
      <trkpt lat="44.10884" lon="5.10021">
        <ele>243</ele>
        <time>2011-08-15T14:24:06Z</time>
      </trkpt>
      <trkpt lat="44.10875" lon="5.09975">
        <ele>242</ele>
        <time>2011-08-15T14:24:10Z</time>
      </trkpt>
      <trkpt lat="44.10865" lon="5.09931">
        <ele>241</ele>
        <time>2011-08-15T14:24:14Z</time>
      </trkpt>
      <trkpt lat="44.10856" lon="5.09885">
        <ele>241</ele>
        <time>2011-08-15T14:24:18Z</time>
      </trkpt>
      <trkpt lat="44.10847" lon="5.09839">
        <ele>240</ele>
        <time>2011-08-15T14:24:22Z</time>
      </trkpt>
      <trkpt lat="44.10844" lon="5.09816">
        <ele>240</ele>
        <time>2011-08-15T14:24:24Z</time>
      </trkpt>
      <trkpt lat="44.10835" lon="5.09748">
        <ele>239</ele>
        <time>2011-08-15T14:24:30Z</time>
      </trkpt>
      <trkpt lat="44.10834" lon="5.09699">
        <ele>238</ele>
        <time>2011-08-15T14:24:34Z</time>
      </trkpt>
      <trkpt lat="44.10835" lon="5.09649">
        <ele>238</ele>
        <time>2011-08-15T14:24:38Z</time>
      </trkpt>
      <trkpt lat="44.10834" lon="5.096">
        <ele>237</ele>
        <time>2011-08-15T14:24:42Z</time>
      </trkpt>
      <trkpt lat="44.10835" lon="5.0955">
        <ele>237</ele>
        <time>2011-08-15T14:24:46Z</time>
      </trkpt>
      <trkpt lat="44.10836" lon="5.09502">
        <ele>236</ele>
        <time>2011-08-15T14:24:50Z</time>
      </trkpt>
      <trkpt lat="44.10836" lon="5.09456">
        <ele>236</ele>
        <time>2011-08-15T14:24:54Z</time>
      </trkpt>
      <trkpt lat="44.10835" lon="5.09421">
        <ele>236</ele>
        <time>2011-08-15T14:24:57Z</time>
      </trkpt>
      <trkpt lat="44.10837" lon="5.09363">
        <ele>235</ele>
        <time>2011-08-15T14:25:02Z</time>
      </trkpt>
      <trkpt lat="44.10838" lon="5.09317">
        <ele>234</ele>
        <time>2011-08-15T14:25:06Z</time>
      </trkpt>
      <trkpt lat="44.10841" lon="5.09271">
        <ele>234</ele>
        <time>2011-08-15T14:25:10Z</time>
      </trkpt>
      <trkpt lat="44.10843" lon="5.09226">
        <ele>233</ele>
        <time>2011-08-15T14:25:14Z</time>
      </trkpt>
      <trkpt lat="44.10844" lon="5.09181">
        <ele>231</ele>
        <time>2011-08-15T14:25:18Z</time>
      </trkpt>
      <trkpt lat="44.10844" lon="5.09135">
        <ele>230</ele>
        <time>2011-08-15T14:25:22Z</time>
      </trkpt>
      <trkpt lat="44.10843" lon="5.09112">
        <ele>230</ele>
        <time>2011-08-15T14:25:24Z</time>
      </trkpt>
      <trkpt lat="44.10835" lon="5.09043">
        <ele>230</ele>
        <time>2011-08-15T14:25:30Z</time>
      </trkpt>
      <trkpt lat="44.10825" lon="5.08995">
        <ele>230</ele>
        <time>2011-08-15T14:25:34Z</time>
      </trkpt>
      <trkpt lat="44.10812" lon="5.08948">
        <ele>230</ele>
        <time>2011-08-15T14:25:38Z</time>
      </trkpt>
      <trkpt lat="44.10796" lon="5.08904">
        <ele>230</ele>
        <time>2011-08-15T14:25:42Z</time>
      </trkpt>
      <trkpt lat="44.10779" lon="5.0886">
        <ele>229</ele>
        <time>2011-08-15T14:25:46Z</time>
      </trkpt>
      <trkpt lat="44.10763" lon="5.08816">
        <ele>229</ele>
        <time>2011-08-15T14:25:50Z</time>
      </trkpt>
      <trkpt lat="44.10745" lon="5.08773">
        <ele>229</ele>
        <time>2011-08-15T14:25:54Z</time>
      </trkpt>
      <trkpt lat="44.10728" lon="5.08728">
        <ele>228</ele>
        <time>2011-08-15T14:25:58Z</time>
      </trkpt>
      <trkpt lat="44.10711" lon="5.08684">
        <ele>228</ele>
        <time>2011-08-15T14:26:02Z</time>
      </trkpt>
      <trkpt lat="44.10694" lon="5.08639">
        <ele>228</ele>
        <time>2011-08-15T14:26:06Z</time>
      </trkpt>
      <trkpt lat="44.1068" lon="5.08592">
        <ele>228</ele>
        <time>2011-08-15T14:26:10Z</time>
      </trkpt>
      <trkpt lat="44.10666" lon="5.08544">
        <ele>228</ele>
        <time>2011-08-15T14:26:14Z</time>
      </trkpt>
      <trkpt lat="44.10652" lon="5.08499">
        <ele>227</ele>
        <time>2011-08-15T14:26:18Z</time>
      </trkpt>
      <trkpt lat="44.10637" lon="5.08457">
        <ele>226</ele>
        <time>2011-08-15T14:26:22Z</time>
      </trkpt>
      <trkpt lat="44.10623" lon="5.08414">
        <ele>225</ele>
        <time>2011-08-15T14:26:26Z</time>
      </trkpt>
      <trkpt lat="44.10607" lon="5.08369">
        <ele>224</ele>
        <time>2011-08-15T14:26:30Z</time>
      </trkpt>
      <trkpt lat="44.10591" lon="5.08323">
        <ele>224</ele>
        <time>2011-08-15T14:26:34Z</time>
      </trkpt>
      <trkpt lat="44.10575" lon="5.08279">
        <ele>223</ele>
        <time>2011-08-15T14:26:38Z</time>
      </trkpt>
      <trkpt lat="44.10557" lon="5.08234">
        <ele>223</ele>
        <time>2011-08-15T14:26:42Z</time>
      </trkpt>
      <trkpt lat="44.10537" lon="5.0819">
        <ele>223</ele>
        <time>2011-08-15T14:26:46Z</time>
      </trkpt>
      <trkpt lat="44.10517" lon="5.08144">
        <ele>222</ele>
        <time>2011-08-15T14:26:50Z</time>
      </trkpt>
      <trkpt lat="44.10495" lon="5.08099">
        <ele>221</ele>
        <time>2011-08-15T14:26:54Z</time>
      </trkpt>
      <trkpt lat="44.10474" lon="5.08052">
        <ele>220</ele>
        <time>2011-08-15T14:26:58Z</time>
      </trkpt>
      <trkpt lat="44.10452" lon="5.08004">
        <ele>219</ele>
        <time>2011-08-15T14:27:02Z</time>
      </trkpt>
      <trkpt lat="44.1043" lon="5.07957">
        <ele>218</ele>
        <time>2011-08-15T14:27:06Z</time>
      </trkpt>
      <trkpt lat="44.1041" lon="5.07908">
        <ele>218</ele>
        <time>2011-08-15T14:27:10Z</time>
      </trkpt>
      <trkpt lat="44.10391" lon="5.07863">
        <ele>218</ele>
        <time>2011-08-15T14:27:14Z</time>
      </trkpt>
      <trkpt lat="44.1037" lon="5.07819">
        <ele>218</ele>
        <time>2011-08-15T14:27:18Z</time>
      </trkpt>
      <trkpt lat="44.10359" lon="5.07798">
        <ele>218</ele>
        <time>2011-08-15T14:27:20Z</time>
      </trkpt>
      <trkpt lat="44.10339" lon="5.07741">
        <ele>216</ele>
        <time>2011-08-15T14:27:26Z</time>
      </trkpt>
      <trkpt lat="44.10349" lon="5.07705">
        <ele>215</ele>
        <time>2011-08-15T14:27:30Z</time>
      </trkpt>
      <trkpt lat="44.1035" lon="5.0768">
        <ele>214</ele>
        <time>2011-08-15T14:27:33Z</time>
      </trkpt>
      <trkpt lat="44.10325" lon="5.07654">
        <ele>213</ele>
        <time>2011-08-15T14:27:38Z</time>
      </trkpt>
      <trkpt lat="44.10304" lon="5.07628">
        <ele>212</ele>
        <time>2011-08-15T14:27:42Z</time>
      </trkpt>
      <trkpt lat="44.10286" lon="5.076">
        <ele>211</ele>
        <time>2011-08-15T14:27:46Z</time>
      </trkpt>
      <trkpt lat="44.10267" lon="5.07571">
        <ele>211</ele>
        <time>2011-08-15T14:27:50Z</time>
      </trkpt>
      <trkpt lat="44.10249" lon="5.0754">
        <ele>211</ele>
        <time>2011-08-15T14:27:54Z</time>
      </trkpt>
      <trkpt lat="44.10231" lon="5.0751">
        <ele>211</ele>
        <time>2011-08-15T14:27:58Z</time>
      </trkpt>
      <trkpt lat="44.10209" lon="5.07485">
        <ele>211</ele>
        <time>2011-08-15T14:28:02Z</time>
      </trkpt>
      <trkpt lat="44.10204" lon="5.07478">
        <ele>211</ele>
        <time>2011-08-15T14:28:03Z</time>
      </trkpt>
      <trkpt lat="44.10133" lon="5.07465">
        <ele>205</ele>
        <time>2011-08-15T14:28:10Z</time>
      </trkpt>
      <trkpt lat="44.10129" lon="5.07407">
        <ele>206</ele>
        <time>2011-08-15T14:28:14Z</time>
      </trkpt>
      <trkpt lat="44.10116" lon="5.07356">
        <ele>206</ele>
        <time>2011-08-15T14:28:18Z</time>
      </trkpt>
      <trkpt lat="44.10099" lon="5.07304">
        <ele>206</ele>
        <time>2011-08-15T14:28:22Z</time>
      </trkpt>
      <trkpt lat="44.1008" lon="5.07252">
        <ele>206</ele>
        <time>2011-08-15T14:28:26Z</time>
      </trkpt>
      <trkpt lat="44.10061" lon="5.07202">
        <ele>205</ele>
        <time>2011-08-15T14:28:30Z</time>
      </trkpt>
      <trkpt lat="44.1004" lon="5.07152">
        <ele>204</ele>
        <time>2011-08-15T14:28:34Z</time>
      </trkpt>
      <trkpt lat="44.10022" lon="5.07096">
        <ele>203</ele>
        <time>2011-08-15T14:28:38Z</time>
      </trkpt>
      <trkpt lat="44.10007" lon="5.07035">
        <ele>202</ele>
        <time>2011-08-15T14:28:42Z</time>
      </trkpt>
      <trkpt lat="44.09996" lon="5.06988">
        <ele>202</ele>
        <time>2011-08-15T14:28:45Z</time>
      </trkpt>
      <trkpt lat="44.09987" lon="5.06896">
        <ele>203</ele>
        <time>2011-08-15T14:28:50Z</time>
      </trkpt>
      <trkpt lat="44.09977" lon="5.06826">
        <ele>203</ele>
        <time>2011-08-15T14:28:54Z</time>
      </trkpt>
      <trkpt lat="44.09967" lon="5.06761">
        <ele>202</ele>
        <time>2011-08-15T14:28:58Z</time>
      </trkpt>
      <trkpt lat="44.09953" lon="5.0671">
        <ele>201</ele>
        <time>2011-08-15T14:29:02Z</time>
      </trkpt>
      <trkpt lat="44.09938" lon="5.06664">
        <ele>201</ele>
        <time>2011-08-15T14:29:06Z</time>
      </trkpt>
      <trkpt lat="44.09925" lon="5.0662">
        <ele>202</ele>
        <time>2011-08-15T14:29:10Z</time>
      </trkpt>
      <trkpt lat="44.09925" lon="5.06564">
        <ele>202</ele>
        <time>2011-08-15T14:29:14Z</time>
      </trkpt>
      <trkpt lat="44.0991" lon="5.06523">
        <ele>202</ele>
        <time>2011-08-15T14:29:18Z</time>
      </trkpt>
      <trkpt lat="44.09897" lon="5.06485">
        <ele>197</ele>
        <time>2011-08-15T14:29:22Z</time>
      </trkpt>
      <trkpt lat="44.09901" lon="5.06428">
        <ele>193</ele>
        <time>2011-08-15T14:29:26Z</time>
      </trkpt>
      <trkpt lat="44.09927" lon="5.06352">
        <ele>189</ele>
        <time>2011-08-15T14:29:30Z</time>
      </trkpt>
      <trkpt lat="44.09945" lon="5.06295">
        <ele>188</ele>
        <time>2011-08-15T14:29:34Z</time>
      </trkpt>
      <trkpt lat="44.09956" lon="5.06247">
        <ele>189</ele>
        <time>2011-08-15T14:29:38Z</time>
      </trkpt>
      <trkpt lat="44.09963" lon="5.06203">
        <ele>190</ele>
        <time>2011-08-15T14:29:42Z</time>
      </trkpt>
      <trkpt lat="44.09969" lon="5.0616">
        <ele>191</ele>
        <time>2011-08-15T14:29:46Z</time>
      </trkpt>
      <trkpt lat="44.09972" lon="5.06128">
        <ele>191</ele>
        <time>2011-08-15T14:29:49Z</time>
      </trkpt>
      <trkpt lat="44.09987" lon="5.0607">
        <ele>191</ele>
        <time>2011-08-15T14:29:54Z</time>
      </trkpt>
      <trkpt lat="44.1004" lon="5.06051">
        <ele>189</ele>
        <time>2011-08-15T14:29:56Z</time>
      </trkpt>
      <trkpt lat="44.10113" lon="5.06004">
        <ele>187</ele>
        <time>2011-08-15T14:30:02Z</time>
      </trkpt>
      <trkpt lat="44.1008" lon="5.0595">
        <ele>184</ele>
        <time>2011-08-15T14:30:06Z</time>
      </trkpt>
      <trkpt lat="44.10036" lon="5.05905">
        <ele>185</ele>
        <time>2011-08-15T14:30:10Z</time>
      </trkpt>
      <trkpt lat="44.10034" lon="5.05867">
        <ele>185</ele>
        <time>2011-08-15T14:30:14Z</time>
      </trkpt>
      <trkpt lat="44.10052" lon="5.05832">
        <ele>185</ele>
        <time>2011-08-15T14:30:18Z</time>
      </trkpt>
      <trkpt lat="44.10075" lon="5.058">
        <ele>185</ele>
        <time>2011-08-15T14:30:22Z</time>
      </trkpt>
      <trkpt lat="44.10097" lon="5.05768">
        <ele>184</ele>
        <time>2011-08-15T14:30:26Z</time>
      </trkpt>
      <trkpt lat="44.10119" lon="5.05737">
        <ele>184</ele>
        <time>2011-08-15T14:30:30Z</time>
      </trkpt>
      <trkpt lat="44.10138" lon="5.05703">
        <ele>184</ele>
        <time>2011-08-15T14:30:34Z</time>
      </trkpt>
      <trkpt lat="44.10155" lon="5.05667">
        <ele>184</ele>
        <time>2011-08-15T14:30:38Z</time>
      </trkpt>
      <trkpt lat="44.1017" lon="5.05631">
        <ele>184</ele>
        <time>2011-08-15T14:30:42Z</time>
      </trkpt>
      <trkpt lat="44.10185" lon="5.05595">
        <ele>183</ele>
        <time>2011-08-15T14:30:46Z</time>
      </trkpt>
      <trkpt lat="44.10199" lon="5.05559">
        <ele>183</ele>
        <time>2011-08-15T14:30:50Z</time>
      </trkpt>
      <trkpt lat="44.10212" lon="5.05524">
        <ele>182</ele>
        <time>2011-08-15T14:30:54Z</time>
      </trkpt>
      <trkpt lat="44.10225" lon="5.05489">
        <ele>182</ele>
        <time>2011-08-15T14:30:58Z</time>
      </trkpt>
      <trkpt lat="44.10237" lon="5.05454">
        <ele>182</ele>
        <time>2011-08-15T14:31:02Z</time>
      </trkpt>
      <trkpt lat="44.1025" lon="5.05415">
        <ele>182</ele>
        <time>2011-08-15T14:31:06Z</time>
      </trkpt>
      <trkpt lat="44.10263" lon="5.05374">
        <ele>181</ele>
        <time>2011-08-15T14:31:10Z</time>
      </trkpt>
      <trkpt lat="44.10273" lon="5.05331">
        <ele>181</ele>
        <time>2011-08-15T14:31:14Z</time>
      </trkpt>
      <trkpt lat="44.10281" lon="5.05289">
        <ele>182</ele>
        <time>2011-08-15T14:31:18Z</time>
      </trkpt>
      <trkpt lat="44.10286" lon="5.05247">
        <ele>181</ele>
        <time>2011-08-15T14:31:22Z</time>
      </trkpt>
      <trkpt lat="44.1029" lon="5.05204">
        <ele>181</ele>
        <time>2011-08-15T14:31:26Z</time>
      </trkpt>
      <trkpt lat="44.10291" lon="5.0516">
        <ele>180</ele>
        <time>2011-08-15T14:31:30Z</time>
      </trkpt>
      <trkpt lat="44.10292" lon="5.05118">
        <ele>179</ele>
        <time>2011-08-15T14:31:34Z</time>
      </trkpt>
      <trkpt lat="44.10291" lon="5.05082">
        <ele>178</ele>
        <time>2011-08-15T14:31:38Z</time>
      </trkpt>
      <trkpt lat="44.10288" lon="5.05043">
        <ele>177</ele>
        <time>2011-08-15T14:31:42Z</time>
      </trkpt>
      <trkpt lat="44.10281" lon="5.05003">
        <ele>177</ele>
        <time>2011-08-15T14:31:46Z</time>
      </trkpt>
      <trkpt lat="44.10271" lon="5.04962">
        <ele>177</ele>
        <time>2011-08-15T14:31:50Z</time>
      </trkpt>
      <trkpt lat="44.10264" lon="5.04919">
        <ele>176</ele>
        <time>2011-08-15T14:31:54Z</time>
      </trkpt>
      <trkpt lat="44.10256" lon="5.04877">
        <ele>176</ele>
        <time>2011-08-15T14:31:58Z</time>
      </trkpt>
      <trkpt lat="44.10251" lon="5.04835">
        <ele>175</ele>
        <time>2011-08-15T14:32:02Z</time>
      </trkpt>
      <trkpt lat="44.10247" lon="5.04804">
        <ele>175</ele>
        <time>2011-08-15T14:32:05Z</time>
      </trkpt>
      <trkpt lat="44.10245" lon="5.04751">
        <ele>174</ele>
        <time>2011-08-15T14:32:10Z</time>
      </trkpt>
      <trkpt lat="44.10244" lon="5.04719">
        <ele>173</ele>
        <time>2011-08-15T14:32:13Z</time>
      </trkpt>
      <trkpt lat="44.10255" lon="5.04648">
        <ele>173</ele>
        <time>2011-08-15T14:32:18Z</time>
      </trkpt>
      <trkpt lat="44.10267" lon="5.04586">
        <ele>171</ele>
        <time>2011-08-15T14:32:22Z</time>
      </trkpt>
      <trkpt lat="44.10272" lon="5.04533">
        <ele>169</ele>
        <time>2011-08-15T14:32:26Z</time>
      </trkpt>
      <trkpt lat="44.10265" lon="5.0452">
        <ele>169</ele>
        <time>2011-08-15T14:32:28Z</time>
      </trkpt>
      <trkpt lat="44.10251" lon="5.04473">
        <ele>168</ele>
        <time>2011-08-15T14:32:34Z</time>
      </trkpt>
      <trkpt lat="44.10248" lon="5.04435">
        <ele>168</ele>
        <time>2011-08-15T14:32:38Z</time>
      </trkpt>
      <trkpt lat="44.10244" lon="5.04396">
        <ele>169</ele>
        <time>2011-08-15T14:32:42Z</time>
      </trkpt>
      <trkpt lat="44.1024" lon="5.04356">
        <ele>169</ele>
        <time>2011-08-15T14:32:46Z</time>
      </trkpt>
      <trkpt lat="44.10234" lon="5.04317">
        <ele>171</ele>
        <time>2011-08-15T14:32:50Z</time>
      </trkpt>
      <trkpt lat="44.10228" lon="5.04278">
        <ele>171</ele>
        <time>2011-08-15T14:32:54Z</time>
      </trkpt>
      <trkpt lat="44.10221" lon="5.04241">
        <ele>171</ele>
        <time>2011-08-15T14:32:58Z</time>
      </trkpt>
      <trkpt lat="44.10203" lon="5.04175">
        <ele>170</ele>
        <time>2011-08-15T14:33:06Z</time>
      </trkpt>
      <trkpt lat="44.10192" lon="5.04141">
        <ele>170</ele>
        <time>2011-08-15T14:33:10Z</time>
      </trkpt>
      <trkpt lat="44.10181" lon="5.04106">
        <ele>170</ele>
        <time>2011-08-15T14:33:14Z</time>
      </trkpt>
      <trkpt lat="44.10173" lon="5.04071">
        <ele>169</ele>
        <time>2011-08-15T14:33:18Z</time>
      </trkpt>
      <trkpt lat="44.10164" lon="5.04035">
        <ele>169</ele>
        <time>2011-08-15T14:33:22Z</time>
      </trkpt>
      <trkpt lat="44.10157" lon="5.03999">
        <ele>169</ele>
        <time>2011-08-15T14:33:26Z</time>
      </trkpt>
      <trkpt lat="44.10148" lon="5.03966">
        <ele>168</ele>
        <time>2011-08-15T14:33:30Z</time>
      </trkpt>
      <trkpt lat="44.10141" lon="5.03933">
        <ele>168</ele>
        <time>2011-08-15T14:33:34Z</time>
      </trkpt>
      <trkpt lat="44.10132" lon="5.03901">
        <ele>168</ele>
        <time>2011-08-15T14:33:38Z</time>
      </trkpt>
      <trkpt lat="44.10123" lon="5.03868">
        <ele>168</ele>
        <time>2011-08-15T14:33:42Z</time>
      </trkpt>
      <trkpt lat="44.10112" lon="5.03832">
        <ele>168</ele>
        <time>2011-08-15T14:33:46Z</time>
      </trkpt>
      <trkpt lat="44.10102" lon="5.03794">
        <ele>168</ele>
        <time>2011-08-15T14:33:50Z</time>
      </trkpt>
      <trkpt lat="44.10094" lon="5.03769">
        <ele>167</ele>
        <time>2011-08-15T14:33:53Z</time>
      </trkpt>
      <trkpt lat="44.1008" lon="5.03727">
        <ele>167</ele>
        <time>2011-08-15T14:33:58Z</time>
      </trkpt>
      <trkpt lat="44.1007" lon="5.0369">
        <ele>167</ele>
        <time>2011-08-15T14:34:02Z</time>
      </trkpt>
      <trkpt lat="44.10062" lon="5.03649">
        <ele>166</ele>
        <time>2011-08-15T14:34:06Z</time>
      </trkpt>
      <trkpt lat="44.10056" lon="5.03607">
        <ele>166</ele>
        <time>2011-08-15T14:34:10Z</time>
      </trkpt>
      <trkpt lat="44.10054" lon="5.03597">
        <ele>166</ele>
        <time>2011-08-15T14:34:11Z</time>
      </trkpt>
      <trkpt lat="44.10045" lon="5.03522">
        <ele>166</ele>
        <time>2011-08-15T14:34:18Z</time>
      </trkpt>
      <trkpt lat="44.10041" lon="5.03477">
        <ele>167</ele>
        <time>2011-08-15T14:34:22Z</time>
      </trkpt>
      <trkpt lat="44.10038" lon="5.03446">
        <ele>167</ele>
        <time>2011-08-15T14:34:25Z</time>
      </trkpt>
      <trkpt lat="44.10031" lon="5.03396">
        <ele>167</ele>
        <time>2011-08-15T14:34:30Z</time>
      </trkpt>
      <trkpt lat="44.10025" lon="5.03357">
        <ele>167</ele>
        <time>2011-08-15T14:34:34Z</time>
      </trkpt>
      <trkpt lat="44.10019" lon="5.03321">
        <ele>167</ele>
        <time>2011-08-15T14:34:38Z</time>
      </trkpt>
      <trkpt lat="44.10015" lon="5.03283">
        <ele>167</ele>
        <time>2011-08-15T14:34:42Z</time>
      </trkpt>
      <trkpt lat="44.10013" lon="5.03246">
        <ele>166</ele>
        <time>2011-08-15T14:34:46Z</time>
      </trkpt>
      <trkpt lat="44.10011" lon="5.03228">
        <ele>166</ele>
        <time>2011-08-15T14:34:48Z</time>
      </trkpt>
      <trkpt lat="44.10008" lon="5.03172">
        <ele>167</ele>
        <time>2011-08-15T14:34:54Z</time>
      </trkpt>
      <trkpt lat="44.10005" lon="5.03137">
        <ele>167</ele>
        <time>2011-08-15T14:34:58Z</time>
      </trkpt>
      <trkpt lat="44.10001" lon="5.03101">
        <ele>167</ele>
        <time>2011-08-15T14:35:02Z</time>
      </trkpt>
      <trkpt lat="44.09999" lon="5.03062">
        <ele>167</ele>
        <time>2011-08-15T14:35:06Z</time>
      </trkpt>
      <trkpt lat="44.09992" lon="5.03027">
        <ele>167</ele>
        <time>2011-08-15T14:35:10Z</time>
      </trkpt>
      <trkpt lat="44.09983" lon="5.02992">
        <ele>166</ele>
        <time>2011-08-15T14:35:14Z</time>
      </trkpt>
      <trkpt lat="44.09974" lon="5.02969">
        <ele>166</ele>
        <time>2011-08-15T14:35:17Z</time>
      </trkpt>
      <trkpt lat="44.0996" lon="5.02929">
        <ele>166</ele>
        <time>2011-08-15T14:35:22Z</time>
      </trkpt>
      <trkpt lat="44.09948" lon="5.02897">
        <ele>165</ele>
        <time>2011-08-15T14:35:26Z</time>
      </trkpt>
      <trkpt lat="44.09938" lon="5.02864">
        <ele>165</ele>
        <time>2011-08-15T14:35:30Z</time>
      </trkpt>
      <trkpt lat="44.09931" lon="5.02839">
        <ele>165</ele>
        <time>2011-08-15T14:35:33Z</time>
      </trkpt>
      <trkpt lat="44.09921" lon="5.02808">
        <ele>164</ele>
        <time>2011-08-15T14:35:37Z</time>
      </trkpt>
      <trkpt lat="44.09906" lon="5.02782">
        <ele>164</ele>
        <time>2011-08-15T14:35:41Z</time>
      </trkpt>
      <trkpt lat="44.09889" lon="5.02758">
        <ele>163</ele>
        <time>2011-08-15T14:35:45Z</time>
      </trkpt>
      <trkpt lat="44.09871" lon="5.02733">
        <ele>164</ele>
        <time>2011-08-15T14:35:49Z</time>
      </trkpt>
      <trkpt lat="44.09856" lon="5.02711">
        <ele>164</ele>
        <time>2011-08-15T14:35:53Z</time>
      </trkpt>
      <trkpt lat="44.0984" lon="5.0269">
        <ele>163</ele>
        <time>2011-08-15T14:35:57Z</time>
      </trkpt>
      <trkpt lat="44.09825" lon="5.02669">
        <ele>163</ele>
        <time>2011-08-15T14:36:01Z</time>
      </trkpt>
      <trkpt lat="44.09804" lon="5.02639">
        <ele>164</ele>
        <time>2011-08-15T14:36:06Z</time>
      </trkpt>
      <trkpt lat="44.09789" lon="5.02619">
        <ele>164</ele>
        <time>2011-08-15T14:36:10Z</time>
      </trkpt>
      <trkpt lat="44.09775" lon="5.02599">
        <ele>163</ele>
        <time>2011-08-15T14:36:14Z</time>
      </trkpt>
      <trkpt lat="44.09761" lon="5.02579">
        <ele>163</ele>
        <time>2011-08-15T14:36:18Z</time>
      </trkpt>
      <trkpt lat="44.09748" lon="5.02562">
        <ele>162</ele>
        <time>2011-08-15T14:36:22Z</time>
      </trkpt>
      <trkpt lat="44.09748" lon="5.02562">
        <ele>60.3</ele>
        <time>2011-08-15T14:36:34Z</time>
      </trkpt>
      <trkpt lat="44.09748" lon="5.02562">
        <ele>60.3</ele>
        <time>2011-08-15T14:36:49Z</time>
      </trkpt>
      <trkpt lat="44.09728" lon="5.02555">
        <ele>162</ele>
        <time>2011-08-15T14:36:53Z</time>
      </trkpt>
      <trkpt lat="44.0972" lon="5.0256">
        <ele>162</ele>
        <time>2011-08-15T14:36:55Z</time>
      </trkpt>
      <trkpt lat="44.09673" lon="5.02604">
        <ele>160</ele>
        <time>2011-08-15T14:37:06Z</time>
      </trkpt>
      <trkpt lat="44.09654" lon="5.0262">
        <ele>160</ele>
        <time>2011-08-15T14:37:10Z</time>
      </trkpt>
      <trkpt lat="44.09639" lon="5.02633">
        <ele>160</ele>
        <time>2011-08-15T14:37:14Z</time>
      </trkpt>
      <trkpt lat="44.09615" lon="5.02656">
        <ele>162</ele>
        <time>2011-08-15T14:37:18Z</time>
      </trkpt>
      <trkpt lat="44.09596" lon="5.02674">
        <ele>163</ele>
        <time>2011-08-15T14:37:21Z</time>
      </trkpt>
      <trkpt lat="44.09573" lon="5.02687">
        <ele>163</ele>
        <time>2011-08-15T14:37:25Z</time>
      </trkpt>
      <trkpt lat="44.09543" lon="5.02708">
        <ele>163</ele>
        <time>2011-08-15T14:37:31Z</time>
      </trkpt>
      <trkpt lat="44.09504" lon="5.02741">
        <ele>163</ele>
        <time>2011-08-15T14:37:39Z</time>
      </trkpt>
      <trkpt lat="44.09482" lon="5.02755">
        <ele>162</ele>
        <time>2011-08-15T14:37:43Z</time>
      </trkpt>
      <trkpt lat="44.09443" lon="5.02782">
        <ele>162</ele>
        <time>2011-08-15T14:37:50Z</time>
      </trkpt>
      <trkpt lat="44.09421" lon="5.02797">
        <ele>162</ele>
        <time>2011-08-15T14:37:54Z</time>
      </trkpt>
      <trkpt lat="44.09401" lon="5.02811">
        <ele>162</ele>
        <time>2011-08-15T14:37:58Z</time>
      </trkpt>
      <trkpt lat="44.09363" lon="5.02832">
        <ele>162</ele>
        <time>2011-08-15T14:38:06Z</time>
      </trkpt>
      <trkpt lat="44.09325" lon="5.02859">
        <ele>161</ele>
        <time>2011-08-15T14:38:14Z</time>
      </trkpt>
      <trkpt lat="44.09285" lon="5.02898">
        <ele>161</ele>
        <time>2011-08-15T14:38:22Z</time>
      </trkpt>
      <trkpt lat="44.09266" lon="5.02917">
        <ele>160</ele>
        <time>2011-08-15T14:38:26Z</time>
      </trkpt>
      <trkpt lat="44.09246" lon="5.02934">
        <ele>160</ele>
        <time>2011-08-15T14:38:30Z</time>
      </trkpt>
      <trkpt lat="44.09236" lon="5.02943">
        <ele>159</ele>
        <time>2011-08-15T14:38:32Z</time>
      </trkpt>
      <trkpt lat="44.09205" lon="5.0297">
        <ele>158</ele>
        <time>2011-08-15T14:38:38Z</time>
      </trkpt>
      <trkpt lat="44.09196" lon="5.02979">
        <ele>158</ele>
        <time>2011-08-15T14:38:40Z</time>
      </trkpt>
      <trkpt lat="44.09165" lon="5.03004">
        <ele>157</ele>
        <time>2011-08-15T14:38:46Z</time>
      </trkpt>
      <trkpt lat="44.09144" lon="5.03018">
        <ele>157</ele>
        <time>2011-08-15T14:38:50Z</time>
      </trkpt>
      <trkpt lat="44.09124" lon="5.03028">
        <ele>157</ele>
        <time>2011-08-15T14:38:54Z</time>
      </trkpt>
      <trkpt lat="44.09109" lon="5.03044">
        <ele>157</ele>
        <time>2011-08-15T14:38:58Z</time>
      </trkpt>
      <trkpt lat="44.09078" lon="5.03084">
        <ele>157</ele>
        <time>2011-08-15T14:39:06Z</time>
      </trkpt>
      <trkpt lat="44.09058" lon="5.031">
        <ele>158</ele>
        <time>2011-08-15T14:39:10Z</time>
      </trkpt>
      <trkpt lat="44.09038" lon="5.03106">
        <ele>157</ele>
        <time>2011-08-15T14:39:13Z</time>
      </trkpt>
      <trkpt lat="44.09018" lon="5.03122">
        <ele>155</ele>
        <time>2011-08-15T14:39:17Z</time>
      </trkpt>
      <trkpt lat="44.09" lon="5.03136">
        <ele>151</ele>
        <time>2011-08-15T14:39:21Z</time>
      </trkpt>
      <trkpt lat="44.08982" lon="5.03148">
        <ele>150</ele>
        <time>2011-08-15T14:39:25Z</time>
      </trkpt>
      <trkpt lat="44.08964" lon="5.03163">
        <ele>150</ele>
        <time>2011-08-15T14:39:29Z</time>
      </trkpt>
      <trkpt lat="44.08947" lon="5.03179">
        <ele>151</ele>
        <time>2011-08-15T14:39:33Z</time>
      </trkpt>
      <trkpt lat="44.0893" lon="5.03196">
        <ele>151</ele>
        <time>2011-08-15T14:39:37Z</time>
      </trkpt>
      <trkpt lat="44.08913" lon="5.03212">
        <ele>151</ele>
        <time>2011-08-15T14:39:41Z</time>
      </trkpt>
      <trkpt lat="44.08892" lon="5.03225">
        <ele>151</ele>
        <time>2011-08-15T14:39:45Z</time>
      </trkpt>
      <trkpt lat="44.08871" lon="5.03238">
        <ele>151</ele>
        <time>2011-08-15T14:39:49Z</time>
      </trkpt>
      <trkpt lat="44.08831" lon="5.03269">
        <ele>151</ele>
        <time>2011-08-15T14:39:57Z</time>
      </trkpt>
      <trkpt lat="44.08831" lon="5.03269">
        <ele>68.7</ele>
        <time>2011-08-15T14:40:09Z</time>
      </trkpt>
      <trkpt lat="44.08831" lon="5.03269">
        <ele>68.7</ele>
        <time>2011-08-15T14:40:29Z</time>
      </trkpt>
      <trkpt lat="44.08818" lon="5.03668">
        <ele>143</ele>
        <time>2011-08-15T14:40:31Z</time>
      </trkpt>
      <trkpt lat="44.08693" lon="5.0346">
        <ele>141</ele>
        <time>2011-08-15T14:40:35Z</time>
      </trkpt>
      <trkpt lat="44.08647" lon="5.03421">
        <ele>142</ele>
        <time>2011-08-15T14:40:39Z</time>
      </trkpt>
      <trkpt lat="44.08616" lon="5.03413">
        <ele>142</ele>
        <time>2011-08-15T14:40:43Z</time>
      </trkpt>
      <trkpt lat="44.08589" lon="5.03416">
        <ele>142</ele>
        <time>2011-08-15T14:40:47Z</time>
      </trkpt>
      <trkpt lat="44.08566" lon="5.03423">
        <ele>142</ele>
        <time>2011-08-15T14:40:51Z</time>
      </trkpt>
      <trkpt lat="44.08545" lon="5.03434">
        <ele>142</ele>
        <time>2011-08-15T14:40:55Z</time>
      </trkpt>
      <trkpt lat="44.08525" lon="5.03443">
        <ele>142</ele>
        <time>2011-08-15T14:40:59Z</time>
      </trkpt>
      <trkpt lat="44.08507" lon="5.03452">
        <ele>141</ele>
        <time>2011-08-15T14:41:03Z</time>
      </trkpt>
      <trkpt lat="44.0849" lon="5.03462">
        <ele>141</ele>
        <time>2011-08-15T14:41:07Z</time>
      </trkpt>
      <trkpt lat="44.08473" lon="5.03471">
        <ele>141</ele>
        <time>2011-08-15T14:41:11Z</time>
      </trkpt>
      <trkpt lat="44.08458" lon="5.03481">
        <ele>141</ele>
        <time>2011-08-15T14:41:15Z</time>
      </trkpt>
      <trkpt lat="44.08443" lon="5.03491">
        <ele>140</ele>
        <time>2011-08-15T14:41:19Z</time>
      </trkpt>
      <trkpt lat="44.08428" lon="5.03501">
        <ele>140</ele>
        <time>2011-08-15T14:41:23Z</time>
      </trkpt>
      <trkpt lat="44.08413" lon="5.0351">
        <ele>140</ele>
        <time>2011-08-15T14:41:27Z</time>
      </trkpt>
      <trkpt lat="44.084" lon="5.03519">
        <ele>140</ele>
        <time>2011-08-15T14:41:31Z</time>
      </trkpt>
      <trkpt lat="44.08387" lon="5.03527">
        <ele>140</ele>
        <time>2011-08-15T14:41:35Z</time>
      </trkpt>
      <trkpt lat="44.08376" lon="5.03536">
        <ele>140</ele>
        <time>2011-08-15T14:41:39Z</time>
      </trkpt>
      <trkpt lat="44.0837" lon="5.03541">
        <ele>140</ele>
        <time>2011-08-15T14:41:41Z</time>
      </trkpt>
      <trkpt lat="44.08354" lon="5.0355">
        <ele>140</ele>
        <time>2011-08-15T14:41:47Z</time>
      </trkpt>
      <trkpt lat="44.08346" lon="5.03556">
        <ele>140</ele>
        <time>2011-08-15T14:41:50Z</time>
      </trkpt>
      <trkpt lat="44.08338" lon="5.03561">
        <ele>140</ele>
        <time>2011-08-15T14:41:53Z</time>
      </trkpt>
      <trkpt lat="44.08323" lon="5.03568">
        <ele>140</ele>
        <time>2011-08-15T14:41:58Z</time>
      </trkpt>
      <trkpt lat="44.08315" lon="5.03575">
        <ele>140</ele>
        <time>2011-08-15T14:42:01Z</time>
      </trkpt>
      <trkpt lat="44.08292" lon="5.03615">
        <ele>140</ele>
        <time>2011-08-15T14:42:14Z</time>
      </trkpt>
      <trkpt lat="44.08286" lon="5.03626">
        <ele>140</ele>
        <time>2011-08-15T14:42:17Z</time>
      </trkpt>
      <trkpt lat="44.08277" lon="5.03643">
        <ele>140</ele>
        <time>2011-08-15T14:42:22Z</time>
      </trkpt>
      <trkpt lat="44.08268" lon="5.03661">
        <ele>140</ele>
        <time>2011-08-15T14:42:27Z</time>
      </trkpt>
      <trkpt lat="44.08258" lon="5.03673">
        <ele>140</ele>
        <time>2011-08-15T14:42:31Z</time>
      </trkpt>
      <trkpt lat="44.08251" lon="5.03681">
        <ele>140</ele>
        <time>2011-08-15T14:42:34Z</time>
      </trkpt>
      <trkpt lat="44.08245" lon="5.0369">
        <ele>140</ele>
        <time>2011-08-15T14:42:37Z</time>
      </trkpt>
      <trkpt lat="44.08241" lon="5.037">
        <ele>140</ele>
        <time>2011-08-15T14:42:40Z</time>
      </trkpt>
      <trkpt lat="44.08227" lon="5.03723">
        <ele>141</ele>
        <time>2011-08-15T14:42:49Z</time>
      </trkpt>
      <trkpt lat="44.08221" lon="5.03777">
        <ele>141</ele>
        <time>2011-08-15T14:43:03Z</time>
      </trkpt>
      <trkpt lat="44.0822" lon="5.03788">
        <ele>141</ele>
        <time>2011-08-15T14:43:06Z</time>
      </trkpt>
      <trkpt lat="44.08224" lon="5.03795">
        <ele>141</ele>
        <time>2011-08-15T14:43:09Z</time>
      </trkpt>
      <trkpt lat="44.0823" lon="5.03811">
        <ele>141</ele>
        <time>2011-08-15T14:43:15Z</time>
      </trkpt>
      <trkpt lat="44.08235" lon="5.03818">
        <ele>141</ele>
        <time>2011-08-15T14:43:18Z</time>
      </trkpt>
      <trkpt lat="44.08235" lon="5.03818">
        <ele>95.7</ele>
        <time>2011-08-15T14:43:27Z</time>
      </trkpt>
    </trkseg>
  </trk>
</gpx>